<?xml version="1.0" encoding="UTF-8" standalone="no" ?>
<gpx xmlns="http://www.topografix.com/GPX/1/1" xmlns:xsi="http://www.w3.org/2001/XMLSchema-instance" xsi:schemaLocation="http://www.topografix.com/GPX/1/1 http://www.topografix.com/GPX/1/1/gpx.xsd" version="1.1" creator="VisuGPX - https://www.visugpx.com">
  <metadata>
    <name>Vielle Aure - L'Oule</name>
    <desc><![CDATA[
Vielle Aure - L'Oule]]></desc>
  </metadata>
  <trk>
    <name><![CDATA[Vielle Aure - L'Oule]]></name>
    <desc><![CDATA[Vielle Aure - L'Oule]]></desc>
    <extensions>
      <line xmlns="http://www.topografix.com/GPX/gpx_style/0/2">
        <color>ff0000</color>
        <width>7</width>
        <dasharray>14</dasharray>
          <extensions>
            <sens>1</sens>
          </extensions>
      </line>
    </extensions>
    <trkseg>
      <trkpt lat="42.82978" lon="0.3274">
        <ele>793</ele>
        <time>2073-07-07T12:38:10.000Z</time>
        <extensions>
          <visugpx:TrkExtension xmlns:visugpx="https://www.visugpx.com/editgpx/">
            <visugpx:node>10</visugpx:node>
            </visugpx:TrkExtension>
        </extensions>
      </trkpt>
      <trkpt lat="42.82978" lon="0.3274">
        <ele>793</ele>
        <time>2073-07-07T12:38:11.000Z</time>
      </trkpt>
      <trkpt lat="42.82977" lon="0.32754">
        <ele>793</ele>
        <time>2073-07-07T12:38:15.000Z</time>
      </trkpt>
      <trkpt lat="42.82977" lon="0.32765">
        <ele>792</ele>
        <time>2073-07-07T12:38:17.000Z</time>
      </trkpt>
      <trkpt lat="42.82971" lon="0.32799">
        <ele>792</ele>
        <time>2073-07-07T12:38:23.000Z</time>
      </trkpt>
      <trkpt lat="42.82962" lon="0.32825">
        <ele>792</ele>
        <time>2073-07-07T12:38:28.000Z</time>
      </trkpt>
      <trkpt lat="42.82955" lon="0.32839">
        <ele>792</ele>
        <time>2073-07-07T12:38:31.000Z</time>
      </trkpt>
      <trkpt lat="42.82945" lon="0.32851">
        <ele>792</ele>
        <time>2073-07-07T12:38:34.000Z</time>
      </trkpt>
      <trkpt lat="42.82919" lon="0.32879">
        <ele>792</ele>
        <time>2073-07-07T12:38:42.000Z</time>
      </trkpt>
      <trkpt lat="42.82897" lon="0.32879">
        <ele>793</ele>
        <time>2073-07-07T12:38:48.000Z</time>
      </trkpt>
      <trkpt lat="42.82817" lon="0.32846">
        <ele>794</ele>
        <time>2021-11-17T10:36:07.000Z</time>
      </trkpt>
      <trkpt lat="42.82743" lon="0.32833">
        <ele>795</ele>
        <time>2073-07-07T12:39:31.000Z</time>
      </trkpt>
      <trkpt lat="42.82663" lon="0.32801">
        <ele>796</ele>
        <time>2021-11-17T10:36:07.000Z</time>
      </trkpt>
      <trkpt lat="42.8262" lon="0.32757">
        <ele>798</ele>
        <time>2073-07-07T12:40:08.000Z</time>
      </trkpt>
      <trkpt lat="42.8251" lon="0.32624">
        <ele>799</ele>
        <time>2073-07-07T12:40:48.000Z</time>
      </trkpt>
      <trkpt lat="42.82408" lon="0.325">
        <ele>800</ele>
        <time>2073-07-07T12:41:25.000Z</time>
      </trkpt>
      <trkpt lat="42.82336" lon="0.32413">
        <ele>800</ele>
        <time>2021-11-17T10:36:07.000Z</time>
      </trkpt>
      <trkpt lat="42.82329" lon="0.32388">
        <ele>800</ele>
        <time>2073-07-07T12:42:02.000Z</time>
      </trkpt>
      <trkpt lat="42.82301" lon="0.3236">
        <ele>800</ele>
        <time>2073-07-07T12:42:43.000Z</time>
      </trkpt>
      <trkpt lat="42.82244" lon="0.32325">
        <ele>800</ele>
        <time>2073-07-07T12:43:11.000Z</time>
      </trkpt>
      <trkpt lat="42.82172" lon="0.32283">
        <ele>800</ele>
        <time>2073-07-07T12:43:28.000Z</time>
      </trkpt>
      <trkpt lat="42.82117" lon="0.32255">
        <ele>800</ele>
        <time>2073-07-07T12:43:45.000Z</time>
      </trkpt>
      <trkpt lat="42.82077" lon="0.32246">
        <ele>800</ele>
        <time>2073-07-07T12:43:50.000Z</time>
      </trkpt>
      <trkpt lat="42.82014" lon="0.32253">
        <ele>800</ele>
        <time>2021-11-17T10:36:07.000Z</time>
      </trkpt>
      <trkpt lat="42.81999" lon="0.32235">
        <ele>800</ele>
        <time>2073-07-07T12:44:06.000Z</time>
      </trkpt>
      <trkpt lat="42.82032" lon="0.32154">
        <ele>800</ele>
        <time>2073-07-07T12:44:17.000Z</time>
      </trkpt>
      <trkpt lat="42.82068" lon="0.3209">
        <ele>800</ele>
        <time>2073-07-07T12:44:54.000Z</time>
      </trkpt>
      <trkpt lat="42.82096" lon="0.32059">
        <ele>800</ele>
        <time>2073-07-07T12:45:05.000Z</time>
      </trkpt>
      <trkpt lat="42.8212" lon="0.31993">
        <ele>800</ele>
        <time>2073-07-07T12:45:24.000Z</time>
      </trkpt>
      <trkpt lat="42.82144" lon="0.31916">
        <ele>800</ele>
        <time>2021-11-17T10:36:07.000Z</time>
      </trkpt>
      <trkpt lat="42.82197" lon="0.31789">
        <ele>800</ele>
        <time>2021-11-17T10:36:07.000Z</time>
      </trkpt>
      <trkpt lat="42.82258" lon="0.31664">
        <ele>800</ele>
        <time>2021-11-17T10:36:07.000Z</time>
      </trkpt>
      <trkpt lat="42.82314" lon="0.3162">
        <ele>800</ele>
        <time>2021-11-17T10:36:07.000Z</time>
      </trkpt>
      <trkpt lat="42.82356" lon="0.31602">
        <ele>801</ele>
        <time>2021-11-17T10:36:07.000Z</time>
      </trkpt>
      <trkpt lat="42.8235" lon="0.31559">
        <ele>801</ele>
        <time>2073-07-07T12:45:35.000Z</time>
      </trkpt>
      <trkpt lat="42.82348" lon="0.31521">
        <ele>803</ele>
        <time>2073-07-07T12:45:44.000Z</time>
      </trkpt>
      <trkpt lat="42.82349" lon="0.31492">
        <ele>804</ele>
        <time>2073-07-07T12:45:51.000Z</time>
      </trkpt>
      <trkpt lat="42.8235" lon="0.31467">
        <ele>806</ele>
        <time>2073-07-07T12:45:58.000Z</time>
      </trkpt>
      <trkpt lat="42.82356" lon="0.31442">
        <ele>808</ele>
        <time>2073-07-07T12:46:05.000Z</time>
      </trkpt>
      <trkpt lat="42.82362" lon="0.31417">
        <ele>811</ele>
        <time>2073-07-07T12:46:12.000Z</time>
      </trkpt>
      <trkpt lat="42.82371" lon="0.31395">
        <ele>813</ele>
        <time>2073-07-07T12:46:20.000Z</time>
      </trkpt>
      <trkpt lat="42.82391" lon="0.31388">
        <ele>814</ele>
        <time>2073-07-07T12:46:29.000Z</time>
      </trkpt>
      <trkpt lat="42.82417" lon="0.31391">
        <ele>815</ele>
        <time>2073-07-07T12:46:39.000Z</time>
      </trkpt>
      <trkpt lat="42.82445" lon="0.31396">
        <ele>815</ele>
        <time>2073-07-07T12:46:49.000Z</time>
      </trkpt>
      <trkpt lat="42.82475" lon="0.31397">
        <ele>816</ele>
        <time>2073-07-07T12:47:00.000Z</time>
      </trkpt>
      <trkpt lat="42.82505" lon="0.31397">
        <ele>816</ele>
        <time>2073-07-07T12:47:12.000Z</time>
      </trkpt>
      <trkpt lat="42.82533" lon="0.31396">
        <ele>817</ele>
        <time>2073-07-07T12:47:24.000Z</time>
      </trkpt>
      <trkpt lat="42.82554" lon="0.3139">
        <ele>818</ele>
        <time>2073-07-07T12:47:32.000Z</time>
      </trkpt>
      <trkpt lat="42.82573" lon="0.31387">
        <ele>820</ele>
        <time>2073-07-07T12:47:41.000Z</time>
      </trkpt>
      <trkpt lat="42.82595" lon="0.3138">
        <ele>822</ele>
        <time>2073-07-07T12:47:52.000Z</time>
      </trkpt>
      <trkpt lat="42.82608" lon="0.31376">
        <ele>824</ele>
        <time>2073-07-07T12:47:58.000Z</time>
      </trkpt>
      <trkpt lat="42.8261" lon="0.31374">
        <ele>825</ele>
        <time>2073-07-07T12:47:59.000Z</time>
      </trkpt>
      <trkpt lat="42.8261" lon="0.31372">
        <ele>825</ele>
        <time>2073-07-07T12:48:00.000Z</time>
      </trkpt>
      <trkpt lat="42.82594" lon="0.31358">
        <ele>827</ele>
        <time>2073-07-07T12:48:10.000Z</time>
      </trkpt>
      <trkpt lat="42.82564" lon="0.31345">
        <ele>828</ele>
        <time>2073-07-07T12:48:23.000Z</time>
      </trkpt>
      <trkpt lat="42.8253" lon="0.31331">
        <ele>828</ele>
        <time>2073-07-07T12:48:37.000Z</time>
      </trkpt>
      <trkpt lat="42.82505" lon="0.31308">
        <ele>829</ele>
        <time>2073-07-07T12:48:49.000Z</time>
      </trkpt>
      <trkpt lat="42.82479" lon="0.31289">
        <ele>832</ele>
        <time>2073-07-07T12:49:00.000Z</time>
      </trkpt>
      <trkpt lat="42.82463" lon="0.31275">
        <ele>835</ele>
        <time>2073-07-07T12:49:07.000Z</time>
      </trkpt>
      <trkpt lat="42.82463" lon="0.31273">
        <ele>836</ele>
        <time>2073-07-07T12:49:08.000Z</time>
      </trkpt>
      <trkpt lat="42.82474" lon="0.31268">
        <ele>839</ele>
        <time>2073-07-07T12:49:14.000Z</time>
      </trkpt>
      <trkpt lat="42.825" lon="0.31269">
        <ele>842</ele>
        <time>2073-07-07T12:49:27.000Z</time>
      </trkpt>
      <trkpt lat="42.82526" lon="0.31266">
        <ele>846</ele>
        <time>2073-07-07T12:49:38.000Z</time>
      </trkpt>
      <trkpt lat="42.82551" lon="0.31262">
        <ele>849</ele>
        <time>2073-07-07T12:49:51.000Z</time>
      </trkpt>
      <trkpt lat="42.82579" lon="0.31256">
        <ele>854</ele>
        <time>2073-07-07T12:50:03.000Z</time>
      </trkpt>
      <trkpt lat="42.8261" lon="0.31244">
        <ele>860</ele>
        <time>2073-07-07T12:50:15.000Z</time>
      </trkpt>
      <trkpt lat="42.82635" lon="0.31235">
        <ele>863</ele>
        <time>2073-07-07T12:50:26.000Z</time>
      </trkpt>
      <trkpt lat="42.82657" lon="0.31226">
        <ele>867</ele>
        <time>2073-07-07T12:50:35.000Z</time>
      </trkpt>
      <trkpt lat="42.82674" lon="0.3121">
        <ele>875</ele>
        <time>2073-07-07T12:50:45.000Z</time>
      </trkpt>
      <trkpt lat="42.82694" lon="0.31198">
        <ele>881</ele>
        <time>2073-07-07T12:50:53.000Z</time>
      </trkpt>
      <trkpt lat="42.82716" lon="0.31188">
        <ele>884</ele>
        <time>2073-07-07T12:51:02.000Z</time>
      </trkpt>
      <trkpt lat="42.82733" lon="0.31179">
        <ele>886</ele>
        <time>2073-07-07T12:51:10.000Z</time>
      </trkpt>
      <trkpt lat="42.82738" lon="0.31173">
        <ele>888</ele>
        <time>2073-07-07T12:51:13.000Z</time>
      </trkpt>
      <trkpt lat="42.82738" lon="0.31168">
        <ele>890</ele>
        <time>2073-07-07T12:51:16.000Z</time>
      </trkpt>
      <trkpt lat="42.82729" lon="0.31168">
        <ele>891</ele>
        <time>2073-07-07T12:51:21.000Z</time>
      </trkpt>
      <trkpt lat="42.82689" lon="0.31172">
        <ele>893</ele>
        <time>2073-07-07T12:51:40.000Z</time>
      </trkpt>
      <trkpt lat="42.82661" lon="0.3117">
        <ele>897</ele>
        <time>2073-07-07T12:51:54.000Z</time>
      </trkpt>
      <trkpt lat="42.8265" lon="0.31171">
        <ele>898</ele>
        <time>2073-07-07T12:51:59.000Z</time>
      </trkpt>
      <trkpt lat="42.82624" lon="0.31178">
        <ele>897</ele>
        <time>2073-07-07T12:52:09.000Z</time>
      </trkpt>
      <trkpt lat="42.82595" lon="0.31177">
        <ele>899</ele>
        <time>2073-07-07T12:52:21.000Z</time>
      </trkpt>
      <trkpt lat="42.82571" lon="0.31178">
        <ele>897</ele>
        <time>2073-07-07T12:52:30.000Z</time>
      </trkpt>
      <trkpt lat="42.82567" lon="0.31178">
        <ele>897</ele>
        <time>2073-07-07T12:52:31.000Z</time>
      </trkpt>
      <trkpt lat="42.8256" lon="0.31173">
        <ele>900</ele>
        <time>2073-07-07T12:52:34.000Z</time>
      </trkpt>
      <trkpt lat="42.82559" lon="0.31171">
        <ele>902</ele>
        <time>2073-07-07T12:52:35.000Z</time>
      </trkpt>
      <trkpt lat="42.82565" lon="0.31167">
        <ele>905</ele>
        <time>2073-07-07T12:52:39.000Z</time>
      </trkpt>
      <trkpt lat="42.82578" lon="0.31164">
        <ele>908</ele>
        <time>2073-07-07T12:52:47.000Z</time>
      </trkpt>
      <trkpt lat="42.82609" lon="0.31137">
        <ele>927</ele>
        <time>2073-07-07T12:53:04.000Z</time>
      </trkpt>
      <trkpt lat="42.82616" lon="0.31133">
        <ele>929</ele>
        <time>2073-07-07T12:53:07.000Z</time>
      </trkpt>
      <trkpt lat="42.82629" lon="0.31122">
        <ele>935</ele>
        <time>2073-07-07T12:53:14.000Z</time>
      </trkpt>
      <trkpt lat="42.82667" lon="0.31107">
        <ele>937</ele>
        <time>2073-07-07T12:53:28.000Z</time>
      </trkpt>
      <trkpt lat="42.82683" lon="0.31096">
        <ele>941</ele>
        <time>2021-11-17T10:36:07.000Z</time>
      </trkpt>
      <trkpt lat="42.82694" lon="0.31072">
        <ele>954</ele>
        <time>2073-07-07T12:53:39.000Z</time>
      </trkpt>
      <trkpt lat="42.82706" lon="0.31044">
        <ele>965</ele>
        <time>2073-07-07T12:53:48.000Z</time>
      </trkpt>
      <trkpt lat="42.82727" lon="0.31017">
        <ele>966</ele>
        <time>2073-07-07T12:53:57.000Z</time>
      </trkpt>
      <trkpt lat="42.82746" lon="0.30991">
        <ele>966</ele>
        <time>2073-07-07T12:54:08.000Z</time>
      </trkpt>
      <trkpt lat="42.82752" lon="0.30978">
        <ele>967</ele>
        <time>2073-07-07T12:54:13.000Z</time>
      </trkpt>
      <trkpt lat="42.82736" lon="0.30975">
        <ele>977</ele>
        <time>2073-07-07T12:54:22.000Z</time>
      </trkpt>
      <trkpt lat="42.82705" lon="0.31003">
        <ele>982</ele>
        <time>2073-07-07T12:54:34.000Z</time>
      </trkpt>
      <trkpt lat="42.82685" lon="0.31033">
        <ele>979</ele>
        <time>2073-07-07T12:54:45.000Z</time>
      </trkpt>
      <trkpt lat="42.8267" lon="0.31045">
        <ele>979</ele>
        <time>2021-11-17T10:36:07.000Z</time>
      </trkpt>
      <trkpt lat="42.82652" lon="0.31046">
        <ele>983</ele>
        <time>2073-07-07T12:54:58.000Z</time>
      </trkpt>
      <trkpt lat="42.82627" lon="0.31068">
        <ele>979</ele>
        <time>2073-07-07T12:55:13.000Z</time>
      </trkpt>
      <trkpt lat="42.82622" lon="0.31069">
        <ele>979</ele>
        <time>2073-07-07T12:55:15.000Z</time>
      </trkpt>
      <trkpt lat="42.82626" lon="0.31057">
        <ele>987</ele>
        <time>2073-07-07T12:55:23.000Z</time>
      </trkpt>
      <trkpt lat="42.82648" lon="0.31035">
        <ele>989</ele>
        <time>2073-07-07T12:55:37.000Z</time>
      </trkpt>
      <trkpt lat="42.82666" lon="0.31007">
        <ele>995</ele>
        <time>2073-07-07T12:55:49.000Z</time>
      </trkpt>
      <trkpt lat="42.82679" lon="0.30974">
        <ele>1007</ele>
        <time>2073-07-07T12:56:00.000Z</time>
      </trkpt>
      <trkpt lat="42.827" lon="0.30933">
        <ele>1005</ele>
        <time>2073-07-07T12:56:12.000Z</time>
      </trkpt>
      <trkpt lat="42.82703" lon="0.30928">
        <ele>1005</ele>
        <time>2073-07-07T12:56:13.000Z</time>
      </trkpt>
      <trkpt lat="42.82708" lon="0.30918">
        <ele>1004</ele>
        <time>2073-07-07T12:56:19.000Z</time>
      </trkpt>
      <trkpt lat="42.8272" lon="0.30892">
        <ele>1005</ele>
        <time>2073-07-07T12:56:29.000Z</time>
      </trkpt>
      <trkpt lat="42.82737" lon="0.30865">
        <ele>1003</ele>
        <time>2073-07-07T12:56:39.000Z</time>
      </trkpt>
      <trkpt lat="42.8275" lon="0.30838">
        <ele>1004</ele>
        <time>2073-07-07T12:56:49.000Z</time>
      </trkpt>
      <trkpt lat="42.82758" lon="0.30806">
        <ele>1008</ele>
        <time>2073-07-07T12:56:59.000Z</time>
      </trkpt>
      <trkpt lat="42.8276" lon="0.30798">
        <ele>1009</ele>
        <time>2073-07-07T12:57:02.000Z</time>
      </trkpt>
      <trkpt lat="42.82762" lon="0.30779">
        <ele>1013</ele>
        <time>2073-07-07T12:57:08.000Z</time>
      </trkpt>
      <trkpt lat="42.82762" lon="0.30771">
        <ele>1014</ele>
        <time>2073-07-07T12:57:11.000Z</time>
      </trkpt>
      <trkpt lat="42.82766" lon="0.30758">
        <ele>1016</ele>
        <time>2073-07-07T12:57:16.000Z</time>
      </trkpt>
      <trkpt lat="42.82774" lon="0.30732">
        <ele>1019</ele>
        <time>2073-07-07T12:57:26.000Z</time>
      </trkpt>
      <trkpt lat="42.82781" lon="0.30703">
        <ele>1024</ele>
        <time>2073-07-07T12:57:37.000Z</time>
      </trkpt>
      <trkpt lat="42.82782" lon="0.30688">
        <ele>1027</ele>
        <time>2073-07-07T12:57:42.000Z</time>
      </trkpt>
      <trkpt lat="42.82784" lon="0.30679">
        <ele>1029</ele>
        <time>2073-07-07T12:57:46.000Z</time>
      </trkpt>
      <trkpt lat="42.82786" lon="0.3065">
        <ele>1036</ele>
        <time>2073-07-07T12:57:55.000Z</time>
      </trkpt>
      <trkpt lat="42.82788" lon="0.30621">
        <ele>1042</ele>
        <time>2073-07-07T12:58:05.000Z</time>
      </trkpt>
      <trkpt lat="42.82792" lon="0.30599">
        <ele>1046</ele>
        <time>2073-07-07T12:58:13.000Z</time>
      </trkpt>
      <trkpt lat="42.82792" lon="0.30579">
        <ele>1050</ele>
        <time>2073-07-07T12:58:20.000Z</time>
      </trkpt>
      <trkpt lat="42.82797" lon="0.30558">
        <ele>1053</ele>
        <time>2073-07-07T12:58:27.000Z</time>
      </trkpt>
      <trkpt lat="42.82799" lon="0.3055">
        <ele>1053</ele>
        <time>2073-07-07T12:58:30.000Z</time>
      </trkpt>
      <trkpt lat="42.828" lon="0.30531">
        <ele>1056</ele>
        <time>2073-07-07T12:58:37.000Z</time>
      </trkpt>
      <trkpt lat="42.82799" lon="0.30526">
        <ele>1057</ele>
        <time>2073-07-07T12:58:39.000Z</time>
      </trkpt>
      <trkpt lat="42.82799" lon="0.30523">
        <ele>1058</ele>
        <time>2073-07-07T12:58:41.000Z</time>
      </trkpt>
      <trkpt lat="42.82796" lon="0.30532">
        <ele>1058</ele>
        <time>2073-07-07T12:58:46.000Z</time>
      </trkpt>
      <trkpt lat="42.82795" lon="0.30547">
        <ele>1055</ele>
        <time>2073-07-07T12:58:52.000Z</time>
      </trkpt>
      <trkpt lat="42.82786" lon="0.30573">
        <ele>1054</ele>
        <time>2073-07-07T12:59:04.000Z</time>
      </trkpt>
      <trkpt lat="42.82765" lon="0.30593">
        <ele>1059</ele>
        <time>2073-07-07T12:59:15.000Z</time>
      </trkpt>
      <trkpt lat="42.82764" lon="0.30596">
        <ele>1059</ele>
        <time>2073-07-07T12:59:16.000Z</time>
      </trkpt>
      <trkpt lat="42.82756" lon="0.30608">
        <ele>1061</ele>
        <time>2073-07-07T12:59:22.000Z</time>
      </trkpt>
      <trkpt lat="42.8274" lon="0.30635">
        <ele>1063</ele>
        <time>2073-07-07T12:59:35.000Z</time>
      </trkpt>
      <trkpt lat="42.82732" lon="0.30651">
        <ele>1064</ele>
        <time>2073-07-07T12:59:42.000Z</time>
      </trkpt>
      <trkpt lat="42.8271" lon="0.30675">
        <ele>1069</ele>
        <time>2073-07-07T12:59:54.000Z</time>
      </trkpt>
      <trkpt lat="42.82705" lon="0.30678">
        <ele>1072</ele>
        <time>2073-07-07T12:59:57.000Z</time>
      </trkpt>
      <trkpt lat="42.82693" lon="0.30685">
        <ele>1076</ele>
        <time>2073-07-07T13:00:03.000Z</time>
      </trkpt>
      <trkpt lat="42.8267" lon="0.30699">
        <ele>1082</ele>
        <time>2073-07-07T13:00:15.000Z</time>
      </trkpt>
      <trkpt lat="42.82647" lon="0.30712">
        <ele>1087</ele>
        <time>2073-07-07T13:00:27.000Z</time>
      </trkpt>
      <trkpt lat="42.82624" lon="0.30727">
        <ele>1090</ele>
        <time>2073-07-07T13:00:39.000Z</time>
      </trkpt>
      <trkpt lat="42.82599" lon="0.30742">
        <ele>1093</ele>
        <time>2073-07-07T13:00:50.000Z</time>
      </trkpt>
      <trkpt lat="42.82585" lon="0.30748">
        <ele>1091</ele>
        <time>2073-07-07T13:00:56.000Z</time>
      </trkpt>
      <trkpt lat="42.82579" lon="0.3075">
        <ele>1091</ele>
        <time>2073-07-07T13:00:59.000Z</time>
      </trkpt>
      <trkpt lat="42.82571" lon="0.30756">
        <ele>1088</ele>
        <time>2073-07-07T13:01:03.000Z</time>
      </trkpt>
      <trkpt lat="42.82568" lon="0.30757">
        <ele>1088</ele>
        <time>2073-07-07T13:01:04.000Z</time>
      </trkpt>
      <trkpt lat="42.82564" lon="0.30753">
        <ele>1089</ele>
        <time>2073-07-07T13:01:08.000Z</time>
      </trkpt>
      <trkpt lat="42.82567" lon="0.3075">
        <ele>1090</ele>
        <time>2073-07-07T13:01:11.000Z</time>
      </trkpt>
      <trkpt lat="42.82594" lon="0.3073">
        <ele>1098</ele>
        <time>2073-07-07T13:01:30.000Z</time>
      </trkpt>
      <trkpt lat="42.82595" lon="0.30727">
        <ele>1099</ele>
        <time>2073-07-07T13:01:31.000Z</time>
      </trkpt>
      <trkpt lat="42.82608" lon="0.30702">
        <ele>1103</ele>
        <time>2073-07-07T13:01:41.000Z</time>
      </trkpt>
      <trkpt lat="42.82627" lon="0.30662">
        <ele>1108</ele>
        <time>2073-07-07T13:01:56.000Z</time>
      </trkpt>
      <trkpt lat="42.82634" lon="0.3065">
        <ele>1109</ele>
        <time>2073-07-07T13:02:00.000Z</time>
      </trkpt>
      <trkpt lat="42.82622" lon="0.30651">
        <ele>1113</ele>
        <time>2073-07-07T13:02:09.000Z</time>
      </trkpt>
      <trkpt lat="42.82603" lon="0.30677">
        <ele>1112</ele>
        <time>2073-07-07T13:02:20.000Z</time>
      </trkpt>
      <trkpt lat="42.82584" lon="0.30697">
        <ele>1109</ele>
        <time>2073-07-07T13:02:33.000Z</time>
      </trkpt>
      <trkpt lat="42.82587" lon="0.30688">
        <ele>1111</ele>
        <time>2073-07-07T13:02:39.000Z</time>
      </trkpt>
      <trkpt lat="42.82597" lon="0.30676">
        <ele>1114</ele>
        <time>2073-07-07T13:02:47.000Z</time>
      </trkpt>
      <trkpt lat="42.82598" lon="0.30674">
        <ele>1115</ele>
        <time>2073-07-07T13:02:48.000Z</time>
      </trkpt>
      <trkpt lat="42.82601" lon="0.30669">
        <ele>1115</ele>
        <time>2073-07-07T13:02:50.000Z</time>
      </trkpt>
      <trkpt lat="42.82606" lon="0.30653">
        <ele>1118</ele>
        <time>2073-07-07T13:02:57.000Z</time>
      </trkpt>
      <trkpt lat="42.82616" lon="0.30627">
        <ele>1121</ele>
        <time>2073-07-07T13:03:07.000Z</time>
      </trkpt>
      <trkpt lat="42.82619" lon="0.30619">
        <ele>1122</ele>
        <time>2073-07-07T13:03:10.000Z</time>
      </trkpt>
      <trkpt lat="42.82628" lon="0.30596">
        <ele>1125</ele>
        <time>2073-07-07T13:03:19.000Z</time>
      </trkpt>
      <trkpt lat="42.8264" lon="0.30576">
        <ele>1125</ele>
        <time>2073-07-07T13:03:28.000Z</time>
      </trkpt>
      <trkpt lat="42.82642" lon="0.30571">
        <ele>1125</ele>
        <time>2073-07-07T13:03:30.000Z</time>
      </trkpt>
      <trkpt lat="42.82632" lon="0.3057">
        <ele>1129</ele>
        <time>2073-07-07T13:03:37.000Z</time>
      </trkpt>
      <trkpt lat="42.82615" lon="0.30588">
        <ele>1132</ele>
        <time>2073-07-07T13:03:47.000Z</time>
      </trkpt>
      <trkpt lat="42.82597" lon="0.30604">
        <ele>1134</ele>
        <time>2073-07-07T13:03:58.000Z</time>
      </trkpt>
      <trkpt lat="42.82596" lon="0.30605">
        <ele>1134</ele>
        <time>2073-07-07T13:03:59.000Z</time>
      </trkpt>
      <trkpt lat="42.82577" lon="0.30616">
        <ele>1132</ele>
        <time>2073-07-07T13:04:10.000Z</time>
      </trkpt>
      <trkpt lat="42.82556" lon="0.30622">
        <ele>1132</ele>
        <time>2073-07-07T13:04:20.000Z</time>
      </trkpt>
      <trkpt lat="42.82535" lon="0.3061">
        <ele>1138</ele>
        <time>2073-07-07T13:04:31.000Z</time>
      </trkpt>
      <trkpt lat="42.8253" lon="0.30606">
        <ele>1140</ele>
        <time>2073-07-07T13:04:34.000Z</time>
      </trkpt>
      <trkpt lat="42.82538" lon="0.30598">
        <ele>1142</ele>
        <time>2073-07-07T13:04:41.000Z</time>
      </trkpt>
      <trkpt lat="42.82561" lon="0.30592">
        <ele>1141</ele>
        <time>2073-07-07T13:04:54.000Z</time>
      </trkpt>
      <trkpt lat="42.82558" lon="0.3058">
        <ele>1145</ele>
        <time>2073-07-07T13:05:00.000Z</time>
      </trkpt>
      <trkpt lat="42.82535" lon="0.3057">
        <ele>1151</ele>
        <time>2073-07-07T13:05:11.000Z</time>
      </trkpt>
      <trkpt lat="42.82516" lon="0.30555">
        <ele>1159</ele>
        <time>2073-07-07T13:05:20.000Z</time>
      </trkpt>
      <trkpt lat="42.82495" lon="0.30539">
        <ele>1162</ele>
        <time>2073-07-07T13:05:32.000Z</time>
      </trkpt>
      <trkpt lat="42.82474" lon="0.30522">
        <ele>1164</ele>
        <time>2073-07-07T13:05:42.000Z</time>
      </trkpt>
      <trkpt lat="42.82454" lon="0.30497">
        <ele>1169</ele>
        <time>2073-07-07T13:05:54.000Z</time>
      </trkpt>
      <trkpt lat="42.82432" lon="0.30459">
        <ele>1176</ele>
        <time>2073-07-07T13:06:09.000Z</time>
      </trkpt>
      <trkpt lat="42.8242" lon="0.30441">
        <ele>1179</ele>
        <time>2073-07-07T13:06:17.000Z</time>
      </trkpt>
      <trkpt lat="42.82413" lon="0.30424">
        <ele>1182</ele>
        <time>2073-07-07T13:06:24.000Z</time>
      </trkpt>
      <trkpt lat="42.82403" lon="0.30391">
        <ele>1188</ele>
        <time>2073-07-07T13:06:36.000Z</time>
      </trkpt>
      <trkpt lat="42.82405" lon="0.30363">
        <ele>1194</ele>
        <time>2073-07-07T13:06:45.000Z</time>
      </trkpt>
      <trkpt lat="42.82407" lon="0.30334">
        <ele>1199</ele>
        <time>2073-07-07T13:06:55.000Z</time>
      </trkpt>
      <trkpt lat="42.82406" lon="0.30322">
        <ele>1201</ele>
        <time>2073-07-07T13:07:00.000Z</time>
      </trkpt>
      <trkpt lat="42.82406" lon="0.30294">
        <ele>1205</ele>
        <time>2073-07-07T13:07:10.000Z</time>
      </trkpt>
      <trkpt lat="42.82404" lon="0.30264">
        <ele>1210</ele>
        <time>2073-07-07T13:07:21.000Z</time>
      </trkpt>
      <trkpt lat="42.82404" lon="0.30234">
        <ele>1214</ele>
        <time>2073-07-07T13:07:32.000Z</time>
      </trkpt>
      <trkpt lat="42.82405" lon="0.30229">
        <ele>1215</ele>
        <time>2073-07-07T13:07:34.000Z</time>
      </trkpt>
      <trkpt lat="42.82403" lon="0.30214">
        <ele>1217</ele>
        <time>2073-07-07T13:07:40.000Z</time>
      </trkpt>
      <trkpt lat="42.82397" lon="0.30185">
        <ele>1221</ele>
        <time>2073-07-07T13:07:51.000Z</time>
      </trkpt>
      <trkpt lat="42.82392" lon="0.30157">
        <ele>1225</ele>
        <time>2073-07-07T13:08:01.000Z</time>
      </trkpt>
      <trkpt lat="42.82389" lon="0.30126">
        <ele>1229</ele>
        <time>2073-07-07T13:08:13.000Z</time>
      </trkpt>
      <trkpt lat="42.82383" lon="0.30088">
        <ele>1234</ele>
        <time>2073-07-07T13:08:26.000Z</time>
      </trkpt>
      <trkpt lat="42.82378" lon="0.30059">
        <ele>1239</ele>
        <time>2073-07-07T13:08:35.000Z</time>
      </trkpt>
      <trkpt lat="42.82381" lon="0.30032">
        <ele>1241</ele>
        <time>2073-07-07T13:08:45.000Z</time>
      </trkpt>
      <trkpt lat="42.82397" lon="0.29998">
        <ele>1242</ele>
        <time>2073-07-07T13:08:56.000Z</time>
      </trkpt>
      <trkpt lat="42.82412" lon="0.29965">
        <ele>1243</ele>
        <time>2073-07-07T13:09:09.000Z</time>
      </trkpt>
      <trkpt lat="42.8242" lon="0.29933">
        <ele>1246</ele>
        <time>2073-07-07T13:09:21.000Z</time>
      </trkpt>
      <trkpt lat="42.82431" lon="0.29898">
        <ele>1247</ele>
        <time>2073-07-07T13:09:34.000Z</time>
      </trkpt>
      <trkpt lat="42.82441" lon="0.29862">
        <ele>1253</ele>
        <time>2073-07-07T13:09:46.000Z</time>
      </trkpt>
      <trkpt lat="42.82444" lon="0.29843">
        <ele>1255</ele>
        <time>2073-07-07T13:09:53.000Z</time>
      </trkpt>
      <trkpt lat="42.82446" lon="0.29828">
        <ele>1257</ele>
        <time>2073-07-07T13:09:58.000Z</time>
      </trkpt>
      <trkpt lat="42.82453" lon="0.298">
        <ele>1261</ele>
        <time>2073-07-07T13:10:09.000Z</time>
      </trkpt>
      <trkpt lat="42.82455" lon="0.29768">
        <ele>1265</ele>
        <time>2073-07-07T13:10:20.000Z</time>
      </trkpt>
      <trkpt lat="42.82453" lon="0.29745">
        <ele>1267</ele>
        <time>2073-07-07T13:10:30.000Z</time>
      </trkpt>
      <trkpt lat="42.82451" lon="0.29724">
        <ele>1269</ele>
        <time>2073-07-07T13:10:39.000Z</time>
      </trkpt>
      <trkpt lat="42.82453" lon="0.29704">
        <ele>1272</ele>
        <time>2073-07-07T13:10:48.000Z</time>
      </trkpt>
      <trkpt lat="42.82454" lon="0.29702">
        <ele>1272</ele>
        <time>2073-07-07T13:10:49.000Z</time>
      </trkpt>
      <trkpt lat="42.82453" lon="0.29682">
        <ele>1274</ele>
        <time>2073-07-07T13:10:59.000Z</time>
      </trkpt>
      <trkpt lat="42.82453" lon="0.29677">
        <ele>1275</ele>
        <time>2073-07-07T13:11:01.000Z</time>
      </trkpt>
      <trkpt lat="42.82453" lon="0.2967">
        <ele>1276</ele>
        <time>2073-07-07T13:11:04.000Z</time>
      </trkpt>
      <trkpt lat="42.8245" lon="0.2966">
        <ele>1276</ele>
        <time>2073-07-07T13:11:08.000Z</time>
      </trkpt>
      <trkpt lat="42.82451" lon="0.29646">
        <ele>1278</ele>
        <time>2073-07-07T13:11:14.000Z</time>
      </trkpt>
      <trkpt lat="42.82451" lon="0.29643">
        <ele>1278</ele>
        <time>2073-07-07T13:11:15.000Z</time>
      </trkpt>
      <trkpt lat="42.82453" lon="0.2963">
        <ele>1280</ele>
        <time>2073-07-07T13:11:20.000Z</time>
      </trkpt>
      <trkpt lat="42.82448" lon="0.29599">
        <ele>1283</ele>
        <time>2073-07-07T13:11:29.000Z</time>
      </trkpt>
      <trkpt lat="42.82444" lon="0.29563">
        <ele>1287</ele>
        <time>2073-07-07T13:11:40.000Z</time>
      </trkpt>
      <trkpt lat="42.82444" lon="0.29557">
        <ele>1287</ele>
        <time>2073-07-07T13:11:42.000Z</time>
      </trkpt>
      <trkpt lat="42.82442" lon="0.29517">
        <ele>1291</ele>
        <time>2073-07-07T13:11:55.000Z</time>
      </trkpt>
      <trkpt lat="42.82442" lon="0.29494">
        <ele>1294</ele>
        <time>2073-07-07T13:12:03.000Z</time>
      </trkpt>
      <trkpt lat="42.82441" lon="0.2949">
        <ele>1294</ele>
        <time>2073-07-07T13:12:05.000Z</time>
      </trkpt>
      <trkpt lat="42.82437" lon="0.29492">
        <ele>1293</ele>
        <time>2073-07-07T13:12:09.000Z</time>
      </trkpt>
      <trkpt lat="42.82434" lon="0.29511">
        <ele>1291</ele>
        <time>2073-07-07T13:12:16.000Z</time>
      </trkpt>
      <trkpt lat="42.82434" lon="0.2952">
        <ele>1290</ele>
        <time>2073-07-07T13:12:20.000Z</time>
      </trkpt>
      <trkpt lat="42.82434" lon="0.29523">
        <ele>1289</ele>
        <time>2073-07-07T13:12:21.000Z</time>
      </trkpt>
      <trkpt lat="42.82421" lon="0.29555">
        <ele>1287</ele>
        <time>2073-07-07T13:12:33.000Z</time>
      </trkpt>
      <trkpt lat="42.82416" lon="0.29567">
        <ele>1287</ele>
        <time>2073-07-07T13:12:37.000Z</time>
      </trkpt>
      <trkpt lat="42.82412" lon="0.29576">
        <ele>1287</ele>
        <time>2073-07-07T13:12:40.000Z</time>
      </trkpt>
      <trkpt lat="42.82406" lon="0.29591">
        <ele>1287</ele>
        <time>2073-07-07T13:12:45.000Z</time>
      </trkpt>
      <trkpt lat="42.82403" lon="0.29596">
        <ele>1287</ele>
        <time>2073-07-07T13:12:47.000Z</time>
      </trkpt>
      <trkpt lat="42.82402" lon="0.29596">
        <ele>1287</ele>
        <time>2073-07-07T13:12:49.000Z</time>
      </trkpt>
      <trkpt lat="42.82401" lon="0.29588">
        <ele>1288</ele>
        <time>2073-07-07T13:12:53.000Z</time>
      </trkpt>
      <trkpt lat="42.82401" lon="0.29579">
        <ele>1289</ele>
        <time>2073-07-07T13:12:57.000Z</time>
      </trkpt>
      <trkpt lat="42.824" lon="0.29569">
        <ele>1290</ele>
        <time>2073-07-07T13:13:01.000Z</time>
      </trkpt>
      <trkpt lat="42.82399" lon="0.29563">
        <ele>1291</ele>
        <time>2073-07-07T13:13:04.000Z</time>
      </trkpt>
      <trkpt lat="42.82396" lon="0.29555">
        <ele>1292</ele>
        <time>2073-07-07T13:13:08.000Z</time>
      </trkpt>
      <trkpt lat="42.82395" lon="0.29553">
        <ele>1293</ele>
        <time>2073-07-07T13:13:09.000Z</time>
      </trkpt>
      <trkpt lat="42.82385" lon="0.29534">
        <ele>1296</ele>
        <time>2073-07-07T13:13:19.000Z</time>
      </trkpt>
      <trkpt lat="42.82385" lon="0.29529">
        <ele>1296</ele>
        <time>2073-07-07T13:13:22.000Z</time>
      </trkpt>
      <trkpt lat="42.82386" lon="0.29519">
        <ele>1297</ele>
        <time>2073-07-07T13:13:27.000Z</time>
      </trkpt>
      <trkpt lat="42.82387" lon="0.29516">
        <ele>1297</ele>
        <time>2073-07-07T13:13:30.000Z</time>
      </trkpt>
      <trkpt lat="42.82387" lon="0.29504">
        <ele>1298</ele>
        <time>2073-07-07T13:13:36.000Z</time>
      </trkpt>
      <trkpt lat="42.82386" lon="0.29501">
        <ele>1298</ele>
        <time>2073-07-07T13:13:38.000Z</time>
      </trkpt>
      <trkpt lat="42.82376" lon="0.29488">
        <ele>1301</ele>
        <time>2073-07-07T13:13:48.000Z</time>
      </trkpt>
      <trkpt lat="42.82366" lon="0.29471">
        <ele>1304</ele>
        <time>2073-07-07T13:14:00.000Z</time>
      </trkpt>
      <trkpt lat="42.82365" lon="0.2947">
        <ele>1304</ele>
        <time>2073-07-07T13:14:01.000Z</time>
      </trkpt>
      <trkpt lat="42.82363" lon="0.29469">
        <ele>1304</ele>
        <time>2073-07-07T13:14:03.000Z</time>
      </trkpt>
      <trkpt lat="42.82354" lon="0.29469">
        <ele>1306</ele>
        <time>2073-07-07T13:14:12.000Z</time>
      </trkpt>
      <trkpt lat="42.82351" lon="0.29471">
        <ele>1306</ele>
        <time>2073-07-07T13:14:18.000Z</time>
      </trkpt>
      <trkpt lat="42.82346" lon="0.29475">
        <ele>1307</ele>
        <time>2073-07-07T13:14:24.000Z</time>
      </trkpt>
      <trkpt lat="42.82343" lon="0.29476">
        <ele>1308</ele>
        <time>2073-07-07T13:14:27.000Z</time>
      </trkpt>
      <trkpt lat="42.82335" lon="0.29474">
        <ele>1312</ele>
        <time>2073-07-07T13:14:35.000Z</time>
      </trkpt>
      <trkpt lat="42.82329" lon="0.29475">
        <ele>1315</ele>
        <time>2073-07-07T13:14:41.000Z</time>
      </trkpt>
      <trkpt lat="42.82323" lon="0.29474">
        <ele>1317</ele>
        <time>2073-07-07T13:14:46.000Z</time>
      </trkpt>
      <trkpt lat="42.8232" lon="0.29476">
        <ele>1318</ele>
        <time>2073-07-07T13:14:50.000Z</time>
      </trkpt>
      <trkpt lat="42.82319" lon="0.29475">
        <ele>1319</ele>
        <time>2073-07-07T13:14:52.000Z</time>
      </trkpt>
      <trkpt lat="42.82317" lon="0.29476">
        <ele>1320</ele>
        <time>2073-07-07T13:14:54.000Z</time>
      </trkpt>
      <trkpt lat="42.82307" lon="0.29481">
        <ele>1324</ele>
        <time>2073-07-07T13:15:02.000Z</time>
      </trkpt>
      <trkpt lat="42.82297" lon="0.29483">
        <ele>1328</ele>
        <time>2073-07-07T13:15:07.000Z</time>
      </trkpt>
      <trkpt lat="42.82285" lon="0.29486">
        <ele>1333</ele>
        <time>2073-07-07T13:15:13.000Z</time>
      </trkpt>
      <trkpt lat="42.82277" lon="0.29495">
        <ele>1336</ele>
        <time>2073-07-07T13:15:20.000Z</time>
      </trkpt>
      <trkpt lat="42.82271" lon="0.29503">
        <ele>1338</ele>
        <time>2073-07-07T13:15:27.000Z</time>
      </trkpt>
      <trkpt lat="42.82268" lon="0.29506">
        <ele>1339</ele>
        <time>2073-07-07T13:15:30.000Z</time>
      </trkpt>
      <trkpt lat="42.82258" lon="0.29516">
        <ele>1342</ele>
        <time>2073-07-07T13:15:37.000Z</time>
      </trkpt>
      <trkpt lat="42.82248" lon="0.29533">
        <ele>1346</ele>
        <time>2073-07-07T13:15:46.000Z</time>
      </trkpt>
      <trkpt lat="42.82241" lon="0.29546">
        <ele>1348</ele>
        <time>2073-07-07T13:15:58.000Z</time>
      </trkpt>
      <trkpt lat="42.8224" lon="0.29548">
        <ele>1348</ele>
        <time>2073-07-07T13:15:59.000Z</time>
      </trkpt>
      <trkpt lat="42.82234" lon="0.29551">
        <ele>1351</ele>
        <time>2073-07-07T13:16:04.000Z</time>
      </trkpt>
      <trkpt lat="42.82224" lon="0.29558">
        <ele>1355</ele>
        <time>2073-07-07T13:16:12.000Z</time>
      </trkpt>
      <trkpt lat="42.82212" lon="0.29563">
        <ele>1360</ele>
        <time>2073-07-07T13:16:19.000Z</time>
      </trkpt>
      <trkpt lat="42.82205" lon="0.29566">
        <ele>1363</ele>
        <time>2073-07-07T13:16:23.000Z</time>
      </trkpt>
      <trkpt lat="42.82193" lon="0.29569">
        <ele>1368</ele>
        <time>2073-07-07T13:16:31.000Z</time>
      </trkpt>
      <trkpt lat="42.82182" lon="0.29572">
        <ele>1373</ele>
        <time>2073-07-07T13:16:41.000Z</time>
      </trkpt>
      <trkpt lat="42.82173" lon="0.29571">
        <ele>1376</ele>
        <time>2073-07-07T13:16:51.000Z</time>
      </trkpt>
      <trkpt lat="42.82166" lon="0.29569">
        <ele>1379</ele>
        <time>2073-07-07T13:16:57.000Z</time>
      </trkpt>
      <trkpt lat="42.82157" lon="0.29564">
        <ele>1382</ele>
        <time>2073-07-07T13:17:07.000Z</time>
      </trkpt>
      <trkpt lat="42.82148" lon="0.29558">
        <ele>1387</ele>
        <time>2073-07-07T13:17:16.000Z</time>
      </trkpt>
      <trkpt lat="42.82144" lon="0.29555">
        <ele>1388</ele>
        <time>2073-07-07T13:17:20.000Z</time>
      </trkpt>
      <trkpt lat="42.82137" lon="0.29545">
        <ele>1392</ele>
        <time>2073-07-07T13:17:28.000Z</time>
      </trkpt>
      <trkpt lat="42.8213" lon="0.29536">
        <ele>1396</ele>
        <time>2073-07-07T13:17:37.000Z</time>
      </trkpt>
      <trkpt lat="42.82128" lon="0.29532">
        <ele>1397</ele>
        <time>2073-07-07T13:17:41.000Z</time>
      </trkpt>
      <trkpt lat="42.82122" lon="0.29525">
        <ele>1400</ele>
        <time>2073-07-07T13:17:51.000Z</time>
      </trkpt>
      <trkpt lat="42.82118" lon="0.29518">
        <ele>1402</ele>
        <time>2073-07-07T13:17:58.000Z</time>
      </trkpt>
      <trkpt lat="42.82116" lon="0.29516">
        <ele>1403</ele>
        <time>2073-07-07T13:18:00.000Z</time>
      </trkpt>
      <trkpt lat="42.82116" lon="0.29514">
        <ele>1403</ele>
        <time>2073-07-07T13:18:01.000Z</time>
      </trkpt>
      <trkpt lat="42.8211" lon="0.29508">
        <ele>1406</ele>
        <time>2073-07-07T13:18:07.000Z</time>
      </trkpt>
      <trkpt lat="42.82107" lon="0.29506">
        <ele>1407</ele>
        <time>2073-07-07T13:18:09.000Z</time>
      </trkpt>
      <trkpt lat="42.821" lon="0.295">
        <ele>1410</ele>
        <time>2073-07-07T13:18:17.000Z</time>
      </trkpt>
      <trkpt lat="42.82096" lon="0.29492">
        <ele>1412</ele>
        <time>2073-07-07T13:18:25.000Z</time>
      </trkpt>
      <trkpt lat="42.82089" lon="0.29484">
        <ele>1415</ele>
        <time>2073-07-07T13:18:32.000Z</time>
      </trkpt>
      <trkpt lat="42.82084" lon="0.29473">
        <ele>1419</ele>
        <time>2073-07-07T13:18:41.000Z</time>
      </trkpt>
      <trkpt lat="42.82076" lon="0.29462">
        <ele>1423</ele>
        <time>2073-07-07T13:18:51.000Z</time>
      </trkpt>
      <trkpt lat="42.82074" lon="0.2946">
        <ele>1423</ele>
        <time>2073-07-07T13:18:53.000Z</time>
      </trkpt>
      <trkpt lat="42.82067" lon="0.29456">
        <ele>1426</ele>
        <time>2073-07-07T13:18:56.000Z</time>
      </trkpt>
      <trkpt lat="42.82066" lon="0.29454">
        <ele>1427</ele>
        <time>2073-07-07T13:18:57.000Z</time>
      </trkpt>
      <trkpt lat="42.82064" lon="0.29451">
        <ele>1428</ele>
        <time>2073-07-07T13:18:59.000Z</time>
      </trkpt>
      <trkpt lat="42.82064" lon="0.29449">
        <ele>1428</ele>
        <time>2073-07-07T13:19:00.000Z</time>
      </trkpt>
      <trkpt lat="42.82062" lon="0.29442">
        <ele>1430</ele>
        <time>2073-07-07T13:19:04.000Z</time>
      </trkpt>
      <trkpt lat="42.82059" lon="0.29425">
        <ele>1433</ele>
        <time>2073-07-07T13:19:14.000Z</time>
      </trkpt>
      <trkpt lat="42.82059" lon="0.2942">
        <ele>1434</ele>
        <time>2073-07-07T13:19:17.000Z</time>
      </trkpt>
      <trkpt lat="42.82059" lon="0.29406">
        <ele>1436</ele>
        <time>2073-07-07T13:19:26.000Z</time>
      </trkpt>
      <trkpt lat="42.82057" lon="0.29402">
        <ele>1437</ele>
        <time>2073-07-07T13:19:29.000Z</time>
      </trkpt>
      <trkpt lat="42.82052" lon="0.29389">
        <ele>1441</ele>
        <time>2073-07-07T13:19:37.000Z</time>
      </trkpt>
      <trkpt lat="42.82052" lon="0.29386">
        <ele>1441</ele>
        <time>2073-07-07T13:19:39.000Z</time>
      </trkpt>
      <trkpt lat="42.82048" lon="0.29373">
        <ele>1444</ele>
        <time>2073-07-07T13:19:47.000Z</time>
      </trkpt>
      <trkpt lat="42.82044" lon="0.29361">
        <ele>1447</ele>
        <time>2073-07-07T13:19:55.000Z</time>
      </trkpt>
      <trkpt lat="42.82044" lon="0.29356">
        <ele>1447</ele>
        <time>2073-07-07T13:19:58.000Z</time>
      </trkpt>
      <trkpt lat="42.82039" lon="0.29343">
        <ele>1451</ele>
        <time>2073-07-07T13:20:06.000Z</time>
      </trkpt>
      <trkpt lat="42.82033" lon="0.29327">
        <ele>1454</ele>
        <time>2073-07-07T13:20:17.000Z</time>
      </trkpt>
      <trkpt lat="42.82028" lon="0.29319">
        <ele>1457</ele>
        <time>2073-07-07T13:20:21.000Z</time>
      </trkpt>
      <trkpt lat="42.82028" lon="0.29318">
        <ele>1457</ele>
        <time>2073-07-07T13:20:22.000Z</time>
      </trkpt>
      <trkpt lat="42.82025" lon="0.29306">
        <ele>1460</ele>
        <time>2073-07-07T13:20:29.000Z</time>
      </trkpt>
      <trkpt lat="42.8202" lon="0.29289">
        <ele>1463</ele>
        <time>2073-07-07T13:20:38.000Z</time>
      </trkpt>
      <trkpt lat="42.82016" lon="0.29271">
        <ele>1466</ele>
        <time>2073-07-07T13:20:47.000Z</time>
      </trkpt>
      <trkpt lat="42.82012" lon="0.29258">
        <ele>1468</ele>
        <time>2073-07-07T13:20:56.000Z</time>
      </trkpt>
      <trkpt lat="42.82009" lon="0.29242">
        <ele>1470</ele>
        <time>2073-07-07T13:21:06.000Z</time>
      </trkpt>
      <trkpt lat="42.82008" lon="0.29241">
        <ele>1471</ele>
        <time>2073-07-07T13:21:07.000Z</time>
      </trkpt>
      <trkpt lat="42.82007" lon="0.29227">
        <ele>1472</ele>
        <time>2073-07-07T13:21:16.000Z</time>
      </trkpt>
      <trkpt lat="42.82004" lon="0.29217">
        <ele>1474</ele>
        <time>2073-07-07T13:21:22.000Z</time>
      </trkpt>
      <trkpt lat="42.82005" lon="0.29209">
        <ele>1474</ele>
        <time>2073-07-07T13:21:27.000Z</time>
      </trkpt>
      <trkpt lat="42.82002" lon="0.29203">
        <ele>1475</ele>
        <time>2073-07-07T13:21:31.000Z</time>
      </trkpt>
      <trkpt lat="42.81996" lon="0.29189">
        <ele>1478</ele>
        <time>2073-07-07T13:21:40.000Z</time>
      </trkpt>
      <trkpt lat="42.81992" lon="0.29182">
        <ele>1480</ele>
        <time>2073-07-07T13:21:45.000Z</time>
      </trkpt>
      <trkpt lat="42.81986" lon="0.29165">
        <ele>1484</ele>
        <time>2073-07-07T13:21:53.000Z</time>
      </trkpt>
      <trkpt lat="42.81984" lon="0.29161">
        <ele>1484</ele>
        <time>2073-07-07T13:21:55.000Z</time>
      </trkpt>
      <trkpt lat="42.81981" lon="0.29153">
        <ele>1486</ele>
        <time>2073-07-07T13:21:59.000Z</time>
      </trkpt>
      <trkpt lat="42.81973" lon="0.29132">
        <ele>1491</ele>
        <time>2073-07-07T13:22:09.000Z</time>
      </trkpt>
      <trkpt lat="42.81965" lon="0.29105">
        <ele>1496</ele>
        <time>2073-07-07T13:22:20.000Z</time>
      </trkpt>
      <trkpt lat="42.81965" lon="0.29102">
        <ele>1496</ele>
        <time>2073-07-07T13:22:21.000Z</time>
      </trkpt>
      <trkpt lat="42.81955" lon="0.29063">
        <ele>1502</ele>
        <time>2073-07-07T13:22:35.000Z</time>
      </trkpt>
      <trkpt lat="42.81953" lon="0.29045">
        <ele>1504</ele>
        <time>2073-07-07T13:22:41.000Z</time>
      </trkpt>
      <trkpt lat="42.81947" lon="0.29035">
        <ele>1507</ele>
        <time>2073-07-07T13:22:46.000Z</time>
      </trkpt>
      <trkpt lat="42.81942" lon="0.29047">
        <ele>1509</ele>
        <time>2073-07-07T13:22:52.000Z</time>
      </trkpt>
      <trkpt lat="42.81932" lon="0.29084">
        <ele>1510</ele>
        <time>2073-07-07T13:23:05.000Z</time>
      </trkpt>
      <trkpt lat="42.81926" lon="0.29099">
        <ele>1510</ele>
        <time>2073-07-07T13:23:11.000Z</time>
      </trkpt>
      <trkpt lat="42.81923" lon="0.29098">
        <ele>1512</ele>
        <time>2073-07-07T13:23:14.000Z</time>
      </trkpt>
      <trkpt lat="42.81918" lon="0.29079">
        <ele>1515</ele>
        <time>2073-07-07T13:23:22.000Z</time>
      </trkpt>
      <trkpt lat="42.81916" lon="0.2907">
        <ele>1516</ele>
        <time>2073-07-07T13:23:25.000Z</time>
      </trkpt>
      <trkpt lat="42.81917" lon="0.29067">
        <ele>1516</ele>
        <time>2073-07-07T13:23:26.000Z</time>
      </trkpt>
      <trkpt lat="42.8192" lon="0.29022">
        <ele>1519</ele>
        <time>2073-07-07T13:23:42.000Z</time>
      </trkpt>
      <trkpt lat="42.8192" lon="0.28996">
        <ele>1521</ele>
        <time>2073-07-07T13:23:52.000Z</time>
      </trkpt>
      <trkpt lat="42.81917" lon="0.28994">
        <ele>1522</ele>
        <time>2073-07-07T13:23:54.000Z</time>
      </trkpt>
      <trkpt lat="42.8191" lon="0.29003">
        <ele>1524</ele>
        <time>2073-07-07T13:23:59.000Z</time>
      </trkpt>
      <trkpt lat="42.81895" lon="0.29046">
        <ele>1526</ele>
        <time>2073-07-07T13:24:13.000Z</time>
      </trkpt>
      <trkpt lat="42.81872" lon="0.29087">
        <ele>1529</ele>
        <time>2073-07-07T13:24:27.000Z</time>
      </trkpt>
      <trkpt lat="42.81832" lon="0.29136">
        <ele>1529</ele>
        <time>2073-07-07T13:24:46.000Z</time>
      </trkpt>
      <trkpt lat="42.81793" lon="0.29133">
        <ele>1535</ele>
        <time>2073-07-07T13:25:01.000Z</time>
      </trkpt>
      <trkpt lat="42.81794" lon="0.29122">
        <ele>1537</ele>
        <time>2073-07-07T13:25:04.000Z</time>
      </trkpt>
      <trkpt lat="42.81808" lon="0.29087">
        <ele>1541</ele>
        <time>2073-07-07T13:25:16.000Z</time>
      </trkpt>
      <trkpt lat="42.81829" lon="0.29051">
        <ele>1544</ele>
        <time>2073-07-07T13:25:29.000Z</time>
      </trkpt>
      <trkpt lat="42.81847" lon="0.29006">
        <ele>1547</ele>
        <time>2073-07-07T13:25:44.000Z</time>
      </trkpt>
      <trkpt lat="42.81861" lon="0.28964">
        <ele>1547</ele>
        <time>2073-07-07T13:25:58.000Z</time>
      </trkpt>
      <trkpt lat="42.81869" lon="0.28926">
        <ele>1548</ele>
        <time>2073-07-07T13:26:10.000Z</time>
      </trkpt>
      <trkpt lat="42.8187" lon="0.28907">
        <ele>1550</ele>
        <time>2073-07-07T13:26:16.000Z</time>
      </trkpt>
      <trkpt lat="42.81874" lon="0.28874">
        <ele>1552</ele>
        <time>2073-07-07T13:26:27.000Z</time>
      </trkpt>
      <trkpt lat="42.81873" lon="0.28871">
        <ele>1552</ele>
        <time>2073-07-07T13:26:28.000Z</time>
      </trkpt>
      <trkpt lat="42.81865" lon="0.28881">
        <ele>1555</ele>
        <time>2073-07-07T13:26:34.000Z</time>
      </trkpt>
      <trkpt lat="42.8185" lon="0.28929">
        <ele>1555</ele>
        <time>2073-07-07T13:26:48.000Z</time>
      </trkpt>
      <trkpt lat="42.81847" lon="0.28938">
        <ele>1555</ele>
        <time>2073-07-07T13:26:51.000Z</time>
      </trkpt>
      <trkpt lat="42.81818" lon="0.28967">
        <ele>1556</ele>
        <time>2073-07-07T13:27:05.000Z</time>
      </trkpt>
      <trkpt lat="42.81786" lon="0.28973">
        <ele>1559</ele>
        <time>2073-07-07T13:27:18.000Z</time>
      </trkpt>
      <trkpt lat="42.81754" lon="0.28967">
        <ele>1565</ele>
        <time>2073-07-07T13:27:32.000Z</time>
      </trkpt>
      <trkpt lat="42.8175" lon="0.28966">
        <ele>1567</ele>
        <time>2073-07-07T13:27:34.000Z</time>
      </trkpt>
      <trkpt lat="42.81747" lon="0.28966">
        <ele>1567</ele>
        <time>2073-07-07T13:27:36.000Z</time>
      </trkpt>
      <trkpt lat="42.81736" lon="0.28956">
        <ele>1572</ele>
        <time>2073-07-07T13:27:41.000Z</time>
      </trkpt>
      <trkpt lat="42.81739" lon="0.28949">
        <ele>1573</ele>
        <time>2073-07-07T13:27:43.000Z</time>
      </trkpt>
      <trkpt lat="42.8175" lon="0.28943">
        <ele>1572</ele>
        <time>2073-07-07T13:27:46.000Z</time>
      </trkpt>
      <trkpt lat="42.81758" lon="0.28938">
        <ele>1571</ele>
        <time>2073-07-07T13:27:50.000Z</time>
      </trkpt>
      <trkpt lat="42.81801" lon="0.2889">
        <ele>1571</ele>
        <time>2073-07-07T13:28:12.000Z</time>
      </trkpt>
      <trkpt lat="42.81806" lon="0.28832">
        <ele>1579</ele>
        <time>2073-07-07T13:28:29.000Z</time>
      </trkpt>
      <trkpt lat="42.81808" lon="0.28789">
        <ele>1585</ele>
        <time>2073-07-07T13:28:41.000Z</time>
      </trkpt>
      <trkpt lat="42.8181" lon="0.28746">
        <ele>1591</ele>
        <time>2073-07-07T13:28:52.000Z</time>
      </trkpt>
      <trkpt lat="42.8181" lon="0.28732">
        <ele>1593</ele>
        <time>2073-07-07T13:28:56.000Z</time>
      </trkpt>
      <trkpt lat="42.81804" lon="0.28735">
        <ele>1595</ele>
        <time>2073-07-07T13:28:59.000Z</time>
      </trkpt>
      <trkpt lat="42.81799" lon="0.28741">
        <ele>1596</ele>
        <time>2073-07-07T13:29:01.000Z</time>
      </trkpt>
      <trkpt lat="42.81773" lon="0.28784">
        <ele>1597</ele>
        <time>2073-07-07T13:29:15.000Z</time>
      </trkpt>
      <trkpt lat="42.8177" lon="0.28789">
        <ele>1597</ele>
        <time>2073-07-07T13:29:17.000Z</time>
      </trkpt>
      <trkpt lat="42.81767" lon="0.2879">
        <ele>1598</ele>
        <time>2073-07-07T13:29:19.000Z</time>
      </trkpt>
      <trkpt lat="42.81774" lon="0.28766">
        <ele>1600</ele>
        <time>2073-07-07T13:29:26.000Z</time>
      </trkpt>
      <trkpt lat="42.81815" lon="0.28661">
        <ele>1603</ele>
        <time>2073-07-07T13:29:58.000Z</time>
      </trkpt>
      <trkpt lat="42.81824" lon="0.28644">
        <ele>1603</ele>
        <time>2073-07-07T13:30:06.000Z</time>
      </trkpt>
      <trkpt lat="42.81832" lon="0.28631">
        <ele>1603</ele>
        <time>2073-07-07T13:30:13.000Z</time>
      </trkpt>
      <trkpt lat="42.81833" lon="0.28627">
        <ele>1603</ele>
        <time>2073-07-07T13:30:15.000Z</time>
      </trkpt>
      <trkpt lat="42.81842" lon="0.28616">
        <ele>1602</ele>
        <time>2073-07-07T13:30:22.000Z</time>
      </trkpt>
      <trkpt lat="42.81851" lon="0.28603">
        <ele>1601</ele>
        <time>2073-07-07T13:30:30.000Z</time>
      </trkpt>
      <trkpt lat="42.8186" lon="0.28585">
        <ele>1601</ele>
        <time>2073-07-07T13:30:39.000Z</time>
      </trkpt>
      <trkpt lat="42.81868" lon="0.28562">
        <ele>1602</ele>
        <time>2073-07-07T13:30:50.000Z</time>
      </trkpt>
      <trkpt lat="42.81874" lon="0.2854">
        <ele>1604</ele>
        <time>2073-07-07T13:30:59.000Z</time>
      </trkpt>
      <trkpt lat="42.81882" lon="0.28519">
        <ele>1606</ele>
        <time>2073-07-07T13:31:08.000Z</time>
      </trkpt>
      <trkpt lat="42.81885" lon="0.28507">
        <ele>1608</ele>
        <time>2073-07-07T13:31:13.000Z</time>
      </trkpt>
      <trkpt lat="42.81892" lon="0.28485">
        <ele>1609</ele>
        <time>2073-07-07T13:31:22.000Z</time>
      </trkpt>
      <trkpt lat="42.819" lon="0.28461">
        <ele>1613</ele>
        <time>2073-07-07T13:31:32.000Z</time>
      </trkpt>
      <trkpt lat="42.81908" lon="0.28435">
        <ele>1617</ele>
        <time>2073-07-07T13:31:43.000Z</time>
      </trkpt>
      <trkpt lat="42.81913" lon="0.28408">
        <ele>1622</ele>
        <time>2073-07-07T13:31:54.000Z</time>
      </trkpt>
      <trkpt lat="42.81916" lon="0.28378">
        <ele>1630</ele>
        <time>2073-07-07T13:32:05.000Z</time>
      </trkpt>
      <trkpt lat="42.81918" lon="0.28349">
        <ele>1639</ele>
        <time>2073-07-07T13:32:16.000Z</time>
      </trkpt>
      <trkpt lat="42.81919" lon="0.2832">
        <ele>1647</ele>
        <time>2073-07-07T13:32:28.000Z</time>
      </trkpt>
      <trkpt lat="42.8192" lon="0.28293">
        <ele>1654</ele>
        <time>2073-07-07T13:32:38.000Z</time>
      </trkpt>
      <trkpt lat="42.8192" lon="0.28264">
        <ele>1661</ele>
        <time>2073-07-07T13:32:49.000Z</time>
      </trkpt>
      <trkpt lat="42.81921" lon="0.28231">
        <ele>1667</ele>
        <time>2073-07-07T13:33:00.000Z</time>
      </trkpt>
      <trkpt lat="42.81925" lon="0.28197">
        <ele>1671</ele>
        <time>2073-07-07T13:33:12.000Z</time>
      </trkpt>
      <trkpt lat="42.81929" lon="0.28171">
        <ele>1674</ele>
        <time>2073-07-07T13:33:22.000Z</time>
      </trkpt>
      <trkpt lat="42.81937" lon="0.28147">
        <ele>1676</ele>
        <time>2073-07-07T13:33:31.000Z</time>
      </trkpt>
      <trkpt lat="42.81947" lon="0.28123">
        <ele>1680</ele>
        <time>2073-07-07T13:33:41.000Z</time>
      </trkpt>
      <trkpt lat="42.81957" lon="0.28098">
        <ele>1684</ele>
        <time>2073-07-07T13:33:51.000Z</time>
      </trkpt>
      <trkpt lat="42.81958" lon="0.28079">
        <ele>1687</ele>
        <time>2073-07-07T13:33:59.000Z</time>
      </trkpt>
      <trkpt lat="42.81956" lon="0.28066">
        <ele>1690</ele>
        <time>2073-07-07T13:34:05.000Z</time>
      </trkpt>
      <trkpt lat="42.81951" lon="0.28054">
        <ele>1692</ele>
        <time>2073-07-07T13:34:11.000Z</time>
      </trkpt>
      <trkpt lat="42.81948" lon="0.28042">
        <ele>1695</ele>
        <time>2073-07-07T13:34:18.000Z</time>
      </trkpt>
      <trkpt lat="42.81944" lon="0.2803">
        <ele>1698</ele>
        <time>2073-07-07T13:34:25.000Z</time>
      </trkpt>
      <trkpt lat="42.81941" lon="0.2802">
        <ele>1700</ele>
        <time>2073-07-07T13:34:31.000Z</time>
      </trkpt>
      <trkpt lat="42.81937" lon="0.28008">
        <ele>1703</ele>
        <time>2073-07-07T13:34:38.000Z</time>
      </trkpt>
      <trkpt lat="42.81934" lon="0.27997">
        <ele>1705</ele>
        <time>2073-07-07T13:34:47.000Z</time>
      </trkpt>
      <trkpt lat="42.8193" lon="0.27985">
        <ele>1709</ele>
        <time>2073-07-07T13:34:55.000Z</time>
      </trkpt>
      <trkpt lat="42.81926" lon="0.2797">
        <ele>1714</ele>
        <time>2073-07-07T13:35:04.000Z</time>
      </trkpt>
      <trkpt lat="42.81925" lon="0.27967">
        <ele>1715</ele>
        <time>2073-07-07T13:35:06.000Z</time>
      </trkpt>
      <trkpt lat="42.81923" lon="0.27953">
        <ele>1719</ele>
        <time>2073-07-07T13:35:15.000Z</time>
      </trkpt>
      <trkpt lat="42.8192" lon="0.27939">
        <ele>1724</ele>
        <time>2073-07-07T13:35:24.000Z</time>
      </trkpt>
      <trkpt lat="42.81915" lon="0.27928">
        <ele>1728</ele>
        <time>2073-07-07T13:35:34.000Z</time>
      </trkpt>
      <trkpt lat="42.81912" lon="0.27916">
        <ele>1732</ele>
        <time>2073-07-07T13:35:43.000Z</time>
      </trkpt>
      <trkpt lat="42.81911" lon="0.27914">
        <ele>1733</ele>
        <time>2073-07-07T13:35:45.000Z</time>
      </trkpt>
      <trkpt lat="42.81908" lon="0.27901">
        <ele>1737</ele>
        <time>2073-07-07T13:35:54.000Z</time>
      </trkpt>
      <trkpt lat="42.81903" lon="0.27889">
        <ele>1741</ele>
        <time>2073-07-07T13:36:03.000Z</time>
      </trkpt>
      <trkpt lat="42.819" lon="0.27876">
        <ele>1745</ele>
        <time>2073-07-07T13:36:12.000Z</time>
      </trkpt>
      <trkpt lat="42.81897" lon="0.27864">
        <ele>1749</ele>
        <time>2073-07-07T13:36:20.000Z</time>
      </trkpt>
      <trkpt lat="42.81896" lon="0.27851">
        <ele>1752</ele>
        <time>2073-07-07T13:36:31.000Z</time>
      </trkpt>
      <trkpt lat="42.81895" lon="0.27838">
        <ele>1755</ele>
        <time>2073-07-07T13:36:41.000Z</time>
      </trkpt>
      <trkpt lat="42.81895" lon="0.27825">
        <ele>1758</ele>
        <time>2073-07-07T13:36:51.000Z</time>
      </trkpt>
      <trkpt lat="42.81894" lon="0.27813">
        <ele>1760</ele>
        <time>2073-07-07T13:37:00.000Z</time>
      </trkpt>
      <trkpt lat="42.81895" lon="0.27807">
        <ele>1761</ele>
        <time>2073-07-07T13:37:04.000Z</time>
      </trkpt>
      <trkpt lat="42.81893" lon="0.27794">
        <ele>1764</ele>
        <time>2073-07-07T13:37:12.000Z</time>
      </trkpt>
      <trkpt lat="42.81891" lon="0.27779">
        <ele>1767</ele>
        <time>2073-07-07T13:37:20.000Z</time>
      </trkpt>
      <trkpt lat="42.81886" lon="0.27763">
        <ele>1772</ele>
        <time>2073-07-07T13:37:29.000Z</time>
      </trkpt>
      <trkpt lat="42.8188" lon="0.27746">
        <ele>1776</ele>
        <time>2073-07-07T13:37:39.000Z</time>
      </trkpt>
      <trkpt lat="42.81875" lon="0.27729">
        <ele>1780</ele>
        <time>2073-07-07T13:37:49.000Z</time>
      </trkpt>
      <trkpt lat="42.8187" lon="0.27711">
        <ele>1784</ele>
        <time>2073-07-07T13:37:58.000Z</time>
      </trkpt>
      <trkpt lat="42.81861" lon="0.27687">
        <ele>1790</ele>
        <time>2073-07-07T13:38:08.000Z</time>
      </trkpt>
      <trkpt lat="42.81855" lon="0.27665">
        <ele>1795</ele>
        <time>2073-07-07T13:38:18.000Z</time>
      </trkpt>
      <trkpt lat="42.81851" lon="0.27648">
        <ele>1798</ele>
        <time>2073-07-07T13:38:27.000Z</time>
      </trkpt>
      <trkpt lat="42.81849" lon="0.27632">
        <ele>1803</ele>
        <time>2073-07-07T13:38:36.000Z</time>
      </trkpt>
      <trkpt lat="42.81848" lon="0.27617">
        <ele>1808</ele>
        <time>2073-07-07T13:38:45.000Z</time>
      </trkpt>
      <trkpt lat="42.81848" lon="0.276">
        <ele>1812</ele>
        <time>2073-07-07T13:38:55.000Z</time>
      </trkpt>
      <trkpt lat="42.81851" lon="0.27583">
        <ele>1817</ele>
        <time>2073-07-07T13:39:04.000Z</time>
      </trkpt>
      <trkpt lat="42.81857" lon="0.27565">
        <ele>1821</ele>
        <time>2073-07-07T13:39:14.000Z</time>
      </trkpt>
      <trkpt lat="42.81865" lon="0.27545">
        <ele>1826</ele>
        <time>2073-07-07T13:39:25.000Z</time>
      </trkpt>
      <trkpt lat="42.81871" lon="0.27538">
        <ele>1827</ele>
        <time>2073-07-07T13:39:30.000Z</time>
      </trkpt>
      <trkpt lat="42.81877" lon="0.27529">
        <ele>1829</ele>
        <time>2073-07-07T13:39:36.000Z</time>
      </trkpt>
      <trkpt lat="42.81888" lon="0.27517">
        <ele>1831</ele>
        <time>2073-07-07T13:39:46.000Z</time>
      </trkpt>
      <trkpt lat="42.819" lon="0.27503">
        <ele>1833</ele>
        <time>2073-07-07T13:39:55.000Z</time>
      </trkpt>
      <trkpt lat="42.81914" lon="0.2749">
        <ele>1834</ele>
        <time>2073-07-07T13:40:03.000Z</time>
      </trkpt>
      <trkpt lat="42.81928" lon="0.27475">
        <ele>1836</ele>
        <time>2073-07-07T13:40:12.000Z</time>
      </trkpt>
      <trkpt lat="42.81945" lon="0.27466">
        <ele>1836</ele>
        <time>2073-07-07T13:40:22.000Z</time>
      </trkpt>
      <trkpt lat="42.81963" lon="0.27461">
        <ele>1834</ele>
        <time>2073-07-07T13:40:31.000Z</time>
      </trkpt>
      <trkpt lat="42.81979" lon="0.27454">
        <ele>1833</ele>
        <time>2073-07-07T13:40:43.000Z</time>
      </trkpt>
      <trkpt lat="42.81995" lon="0.27446">
        <ele>1831</ele>
        <time>2073-07-07T13:40:53.000Z</time>
      </trkpt>
      <trkpt lat="42.82008" lon="0.27438">
        <ele>1830</ele>
        <time>2073-07-07T13:41:03.000Z</time>
      </trkpt>
      <trkpt lat="42.82018" lon="0.27425">
        <ele>1829</ele>
        <time>2073-07-07T13:41:12.000Z</time>
      </trkpt>
      <trkpt lat="42.82029" lon="0.27404">
        <ele>1826</ele>
        <time>2073-07-07T13:41:21.000Z</time>
      </trkpt>
      <trkpt lat="42.8204" lon="0.27372">
        <ele>1823</ele>
        <time>2073-07-07T13:41:32.000Z</time>
      </trkpt>
      <trkpt lat="42.82053" lon="0.27319">
        <ele>1819</ele>
        <time>2073-07-07T13:41:48.000Z</time>
      </trkpt>
      <trkpt lat="42.82055" lon="0.27269">
        <ele>1819</ele>
        <time>2073-07-07T13:42:02.000Z</time>
      </trkpt>
      <trkpt lat="42.8205" lon="0.27194">
        <ele>1824</ele>
        <time>2073-07-07T13:42:20.000Z</time>
      </trkpt>
      <trkpt lat="42.82039" lon="0.27121">
        <ele>1831</ele>
        <time>2073-07-07T13:42:37.000Z</time>
      </trkpt>
      <trkpt lat="42.82039" lon="0.2697">
        <ele>1834</ele>
        <time>2073-07-07T13:43:15.000Z</time>
      </trkpt>
      <trkpt lat="42.82032" lon="0.26924">
        <ele>1835</ele>
        <time>2073-07-07T13:43:26.000Z</time>
      </trkpt>
      <trkpt lat="42.82022" lon="0.26881">
        <ele>1838</ele>
        <time>2073-07-07T13:43:38.000Z</time>
      </trkpt>
      <trkpt lat="42.82003" lon="0.26854">
        <ele>1846</ele>
        <time>2073-07-07T13:43:49.000Z</time>
      </trkpt>
      <trkpt lat="42.81992" lon="0.26837">
        <ele>1850</ele>
        <time>2073-07-07T13:43:56.000Z</time>
      </trkpt>
      <trkpt lat="42.81983" lon="0.26824">
        <ele>1854</ele>
        <time>2073-07-07T13:44:03.000Z</time>
      </trkpt>
      <trkpt lat="42.81978" lon="0.26813">
        <ele>1856</ele>
        <time>2073-07-07T13:44:09.000Z</time>
      </trkpt>
      <trkpt lat="42.81974" lon="0.268">
        <ele>1859</ele>
        <time>2073-07-07T13:44:16.000Z</time>
      </trkpt>
      <trkpt lat="42.81969" lon="0.2679">
        <ele>1861</ele>
        <time>2073-07-07T13:44:22.000Z</time>
      </trkpt>
      <trkpt lat="42.81964" lon="0.26776">
        <ele>1864</ele>
        <time>2073-07-07T13:44:32.000Z</time>
      </trkpt>
      <trkpt lat="42.81958" lon="0.26757">
        <ele>1868</ele>
        <time>2073-07-07T13:44:43.000Z</time>
      </trkpt>
      <trkpt lat="42.81951" lon="0.26733">
        <ele>1873</ele>
        <time>2073-07-07T13:44:53.000Z</time>
      </trkpt>
      <trkpt lat="42.81949" lon="0.26708">
        <ele>1875</ele>
        <time>2073-07-07T13:45:04.000Z</time>
      </trkpt>
      <trkpt lat="42.81949" lon="0.26705">
        <ele>1875</ele>
        <time>2073-07-07T13:45:06.000Z</time>
      </trkpt>
      <trkpt lat="42.81953" lon="0.26646">
        <ele>1876</ele>
        <time>2073-07-07T13:45:28.000Z</time>
      </trkpt>
      <trkpt lat="42.81948" lon="0.26584">
        <ele>1880</ele>
        <time>2073-07-07T13:45:48.000Z</time>
      </trkpt>
      <trkpt lat="42.81987" lon="0.2645">
        <ele>1868</ele>
        <time>2073-07-07T13:46:29.000Z</time>
      </trkpt>
      <trkpt lat="42.81999" lon="0.26415">
        <ele>1866</ele>
        <time>2073-07-07T13:46:44.000Z</time>
      </trkpt>
      <trkpt lat="42.82014" lon="0.26372">
        <ele>1864</ele>
        <time>2073-07-07T13:46:59.000Z</time>
      </trkpt>
      <trkpt lat="42.82013" lon="0.26361">
        <ele>1866</ele>
        <time>2073-07-07T13:47:02.000Z</time>
      </trkpt>
      <trkpt lat="42.82012" lon="0.26351">
        <ele>1867</ele>
        <time>2073-07-07T13:47:05.000Z</time>
      </trkpt>
      <trkpt lat="42.82014" lon="0.26344">
        <ele>1867</ele>
        <time>2073-07-07T13:47:07.000Z</time>
      </trkpt>
      <trkpt lat="42.82034" lon="0.26331">
        <ele>1859</ele>
        <time>2073-07-07T13:47:14.000Z</time>
      </trkpt>
      <trkpt lat="42.82056" lon="0.26317">
        <ele>1850</ele>
        <time>2073-07-07T13:47:21.000Z</time>
      </trkpt>
      <trkpt lat="42.8209" lon="0.26275">
        <ele>1837</ele>
        <time>2073-07-07T13:47:35.000Z</time>
      </trkpt>
      <trkpt lat="42.82096" lon="0.26242">
        <ele>1836</ele>
        <time>2073-07-07T13:47:42.000Z</time>
      </trkpt>
      <trkpt lat="42.82091" lon="0.26212">
        <ele>1841</ele>
        <time>2073-07-07T13:47:48.000Z</time>
      </trkpt>
      <trkpt lat="42.82093" lon="0.26183">
        <ele>1841</ele>
        <time>2073-07-07T13:47:54.000Z</time>
      </trkpt>
      <trkpt lat="42.82093" lon="0.26155">
        <ele>1842</ele>
        <time>2073-07-07T13:48:00.000Z</time>
      </trkpt>
      <trkpt lat="42.82088" lon="0.26125">
        <ele>1846</ele>
        <time>2073-07-07T13:48:06.000Z</time>
      </trkpt>
      <trkpt lat="42.82089" lon="0.26086">
        <ele>1845</ele>
        <time>2073-07-07T13:48:14.000Z</time>
      </trkpt>
      <trkpt lat="42.82076" lon="0.25985">
        <ele>1851</ele>
        <time>2073-07-07T13:48:38.000Z</time>
      </trkpt>
      <trkpt lat="42.82067" lon="0.25918">
        <ele>1856</ele>
        <time>2073-07-07T13:49:05.000Z</time>
      </trkpt>
      <trkpt lat="42.82067" lon="0.25896">
        <ele>1856</ele>
        <time>2073-07-07T13:49:09.000Z</time>
      </trkpt>
      <trkpt lat="42.82074" lon="0.2584">
        <ele>1854</ele>
        <time>2073-07-07T13:49:20.000Z</time>
      </trkpt>
      <trkpt lat="42.82092" lon="0.25794">
        <ele>1847</ele>
        <time>2073-07-07T13:49:30.000Z</time>
      </trkpt>
      <trkpt lat="42.82108" lon="0.25752">
        <ele>1844</ele>
        <time>2073-07-07T13:49:39.000Z</time>
      </trkpt>
      <trkpt lat="42.82124" lon="0.25706">
        <ele>1843</ele>
        <time>2073-07-07T13:49:49.000Z</time>
      </trkpt>
      <trkpt lat="42.82138" lon="0.25665">
        <ele>1842</ele>
        <time>2021-11-17T10:36:07.000Z</time>
      </trkpt>
      <trkpt lat="42.82143" lon="0.25572">
        <ele>1852</ele>
        <time>2073-07-07T13:50:18.000Z</time>
      </trkpt>
      <trkpt lat="42.82191" lon="0.25486">
        <ele>1847</ele>
        <time>2073-07-07T13:50:40.000Z</time>
      </trkpt>
      <trkpt lat="42.82204" lon="0.25436">
        <ele>1854</ele>
        <time>2073-07-07T13:50:51.000Z</time>
      </trkpt>
      <trkpt lat="42.82211" lon="0.25416">
        <ele>1856</ele>
        <time>2073-07-07T13:50:55.000Z</time>
      </trkpt>
      <trkpt lat="42.82227" lon="0.25387">
        <ele>1857</ele>
        <time>2073-07-07T13:51:02.000Z</time>
      </trkpt>
      <trkpt lat="42.82241" lon="0.25371">
        <ele>1855</ele>
        <time>2073-07-07T13:51:07.000Z</time>
      </trkpt>
      <trkpt lat="42.82266" lon="0.25352">
        <ele>1848</ele>
        <time>2073-07-07T13:51:14.000Z</time>
      </trkpt>
      <trkpt lat="42.82288" lon="0.2533">
        <ele>1844</ele>
        <time>2073-07-07T13:51:21.000Z</time>
      </trkpt>
      <trkpt lat="42.82319" lon="0.25295">
        <ele>1838</ele>
        <time>2073-07-07T13:51:32.000Z</time>
      </trkpt>
      <trkpt lat="42.82341" lon="0.25283">
        <ele>1831</ele>
        <time>2073-07-07T13:51:38.000Z</time>
      </trkpt>
      <trkpt lat="42.82378" lon="0.25263">
        <ele>1822</ele>
        <time>2073-07-07T13:51:49.000Z</time>
      </trkpt>
      <trkpt lat="42.82401" lon="0.25236">
        <ele>1823</ele>
        <time>2073-07-07T13:51:57.000Z</time>
      </trkpt>
      <trkpt lat="42.82436" lon="0.2519">
        <ele>1823</ele>
        <time>2073-07-07T13:52:11.000Z</time>
      </trkpt>
      <trkpt lat="42.82483" lon="0.25149">
        <ele>1819</ele>
        <time>2073-07-07T13:52:27.000Z</time>
      </trkpt>
      <trkpt lat="42.82507" lon="0.25124">
        <ele>1815</ele>
        <time>2021-11-17T10:36:07.000Z</time>
      </trkpt>
      <trkpt lat="42.82517" lon="0.25082">
        <ele>1816</ele>
        <time>2073-07-07T13:52:48.000Z</time>
      </trkpt>
      <trkpt lat="42.82523" lon="0.25026">
        <ele>1822</ele>
        <time>2073-07-07T13:53:04.000Z</time>
      </trkpt>
      <trkpt lat="42.82533" lon="0.24991">
        <ele>1823</ele>
        <time>2073-07-07T13:53:16.000Z</time>
      </trkpt>
      <trkpt lat="42.82541" lon="0.24955">
        <ele>1828</ele>
        <time>2073-07-07T13:53:29.000Z</time>
      </trkpt>
      <trkpt lat="42.82543" lon="0.24928">
        <ele>1834</ele>
        <time>2073-07-07T13:53:40.000Z</time>
      </trkpt>
      <trkpt lat="42.82545" lon="0.24904">
        <ele>1839</ele>
        <time>2073-07-07T13:53:49.000Z</time>
      </trkpt>
      <trkpt lat="42.82553" lon="0.24885">
        <ele>1843</ele>
        <time>2073-07-07T13:53:58.000Z</time>
      </trkpt>
      <trkpt lat="42.82558" lon="0.24865">
        <ele>1847</ele>
        <time>2073-07-07T13:54:07.000Z</time>
      </trkpt>
      <trkpt lat="42.82589" lon="0.24847">
        <ele>1850</ele>
        <time>2073-07-07T13:54:21.000Z</time>
      </trkpt>
      <trkpt lat="42.82615" lon="0.24857">
        <ele>1851</ele>
        <time>2073-07-07T13:54:33.000Z</time>
      </trkpt>
      <trkpt lat="42.8264" lon="0.2487">
        <ele>1852</ele>
        <time>2073-07-07T13:54:46.000Z</time>
      </trkpt>
      <trkpt lat="42.82669" lon="0.24885">
        <ele>1853</ele>
        <time>2073-07-07T13:54:59.000Z</time>
      </trkpt>
      <trkpt lat="42.82704" lon="0.24898">
        <ele>1856</ele>
        <time>2073-07-07T13:55:15.000Z</time>
      </trkpt>
      <trkpt lat="42.82735" lon="0.24913">
        <ele>1857</ele>
        <time>2073-07-07T13:55:29.000Z</time>
      </trkpt>
      <trkpt lat="42.82772" lon="0.24927">
        <ele>1857</ele>
        <time>2073-07-07T13:55:45.000Z</time>
      </trkpt>
      <trkpt lat="42.82807" lon="0.24933">
        <ele>1857</ele>
        <time>2073-07-07T13:56:01.000Z</time>
      </trkpt>
      <trkpt lat="42.82836" lon="0.24925">
        <ele>1865</ele>
        <time>2073-07-07T13:56:14.000Z</time>
      </trkpt>
      <trkpt lat="42.8286" lon="0.24912">
        <ele>1873</ele>
        <time>2073-07-07T13:56:26.000Z</time>
      </trkpt>
      <trkpt lat="42.82877" lon="0.249">
        <ele>1877</ele>
        <time>2073-07-07T13:56:36.000Z</time>
      </trkpt>
      <trkpt lat="42.82889" lon="0.24888">
        <ele>1882</ele>
        <time>2073-07-07T13:56:45.000Z</time>
      </trkpt>
      <trkpt lat="42.82897" lon="0.24874">
        <ele>1887</ele>
        <time>2073-07-07T13:56:53.000Z</time>
      </trkpt>
      <trkpt lat="42.82907" lon="0.24861">
        <ele>1892</ele>
        <time>2073-07-07T13:57:02.000Z</time>
      </trkpt>
      <trkpt lat="42.82917" lon="0.24848">
        <ele>1897</ele>
        <time>2073-07-07T13:57:11.000Z</time>
      </trkpt>
      <trkpt lat="42.82925" lon="0.24834">
        <ele>1903</ele>
        <time>2073-07-07T13:57:20.000Z</time>
      </trkpt>
      <trkpt lat="42.82932" lon="0.24818">
        <ele>1910</ele>
        <time>2073-07-07T13:57:30.000Z</time>
      </trkpt>
      <trkpt lat="42.82938" lon="0.24804">
        <ele>1915</ele>
        <time>2073-07-07T13:57:40.000Z</time>
      </trkpt>
      <trkpt lat="42.82946" lon="0.2479">
        <ele>1918</ele>
        <time>2073-07-07T13:57:49.000Z</time>
      </trkpt>
      <trkpt lat="42.82954" lon="0.24776">
        <ele>1922</ele>
        <time>2073-07-07T13:57:59.000Z</time>
      </trkpt>
      <trkpt lat="42.82964" lon="0.24765">
        <ele>1923</ele>
        <time>2073-07-07T13:58:08.000Z</time>
      </trkpt>
      <trkpt lat="42.82969" lon="0.24759">
        <ele>1924</ele>
        <time>2073-07-07T13:58:13.000Z</time>
      </trkpt>
      <trkpt lat="42.82981" lon="0.24748">
        <ele>1925</ele>
        <time>2073-07-07T13:58:23.000Z</time>
      </trkpt>
      <trkpt lat="42.82993" lon="0.2474">
        <ele>1925</ele>
        <time>2073-07-07T13:58:33.000Z</time>
      </trkpt>
      <trkpt lat="42.83004" lon="0.24729">
        <ele>1926</ele>
        <time>2073-07-07T13:58:43.000Z</time>
      </trkpt>
      <trkpt lat="42.83016" lon="0.24722">
        <ele>1927</ele>
        <time>2073-07-07T13:58:52.000Z</time>
      </trkpt>
      <trkpt lat="42.83017" lon="0.24722">
        <ele>1927</ele>
        <time>2073-07-07T13:58:53.000Z</time>
      </trkpt>
      <trkpt lat="42.83028" lon="0.24713">
        <ele>1929</ele>
        <time>2073-07-07T13:59:04.000Z</time>
      </trkpt>
      <trkpt lat="42.83042" lon="0.24709">
        <ele>1930</ele>
        <time>2073-07-07T13:59:14.000Z</time>
      </trkpt>
      <trkpt lat="42.83056" lon="0.24709">
        <ele>1929</ele>
        <time>2073-07-07T13:59:22.000Z</time>
      </trkpt>
      <trkpt lat="42.83071" lon="0.2471">
        <ele>1928</ele>
        <time>2073-07-07T13:59:32.000Z</time>
      </trkpt>
      <trkpt lat="42.8309" lon="0.24712">
        <ele>1926</ele>
        <time>2073-07-07T13:59:42.000Z</time>
      </trkpt>
      <trkpt lat="42.8311" lon="0.24711">
        <ele>1926</ele>
        <time>2073-07-07T13:59:52.000Z</time>
      </trkpt>
      <trkpt lat="42.83136" lon="0.24708">
        <ele>1928</ele>
        <time>2073-07-07T14:00:05.000Z</time>
      </trkpt>
      <trkpt lat="42.83166" lon="0.24688">
        <ele>1933</ele>
        <time>2073-07-07T14:00:20.000Z</time>
      </trkpt>
      <trkpt lat="42.83202" lon="0.24655">
        <ele>1944</ele>
        <time>2073-07-07T14:00:38.000Z</time>
      </trkpt>
      <trkpt lat="42.83215" lon="0.24626">
        <ele>1952</ele>
        <time>2073-07-07T14:00:49.000Z</time>
      </trkpt>
      <trkpt lat="42.83229" lon="0.24607">
        <ele>1957</ele>
        <time>2073-07-07T14:00:58.000Z</time>
      </trkpt>
      <trkpt lat="42.8324" lon="0.24586">
        <ele>1962</ele>
        <time>2073-07-07T14:01:08.000Z</time>
      </trkpt>
      <trkpt lat="42.8325" lon="0.24564">
        <ele>1966</ele>
        <time>2073-07-07T14:01:19.000Z</time>
      </trkpt>
      <trkpt lat="42.83254" lon="0.24551">
        <ele>1968</ele>
        <time>2073-07-07T14:01:26.000Z</time>
      </trkpt>
      <trkpt lat="42.83258" lon="0.24545">
        <ele>1969</ele>
        <time>2073-07-07T14:01:30.000Z</time>
      </trkpt>
      <trkpt lat="42.83266" lon="0.24528">
        <ele>1972</ele>
        <time>2073-07-07T14:01:40.000Z</time>
      </trkpt>
      <trkpt lat="42.83273" lon="0.24507">
        <ele>1976</ele>
        <time>2073-07-07T14:01:52.000Z</time>
      </trkpt>
      <trkpt lat="42.83283" lon="0.24486">
        <ele>1981</ele>
        <time>2073-07-07T14:02:05.000Z</time>
      </trkpt>
      <trkpt lat="42.83289" lon="0.24468">
        <ele>1985</ele>
        <time>2073-07-07T14:02:15.000Z</time>
      </trkpt>
      <trkpt lat="42.83292" lon="0.24451">
        <ele>1989</ele>
        <time>2073-07-07T14:02:24.000Z</time>
      </trkpt>
      <trkpt lat="42.83296" lon="0.24433">
        <ele>1993</ele>
        <time>2073-07-07T14:02:34.000Z</time>
      </trkpt>
      <trkpt lat="42.83297" lon="0.24425">
        <ele>1994</ele>
        <time>2073-07-07T14:02:38.000Z</time>
      </trkpt>
      <trkpt lat="42.83302" lon="0.24413">
        <ele>1997</ele>
        <time>2073-07-07T14:02:46.000Z</time>
      </trkpt>
      <trkpt lat="42.83305" lon="0.24398">
        <ele>1999</ele>
        <time>2073-07-07T14:02:55.000Z</time>
      </trkpt>
      <trkpt lat="42.83309" lon="0.24383">
        <ele>2002</ele>
        <time>2073-07-07T14:03:04.000Z</time>
      </trkpt>
      <trkpt lat="42.83313" lon="0.24369">
        <ele>2005</ele>
        <time>2073-07-07T14:03:13.000Z</time>
      </trkpt>
      <trkpt lat="42.83315" lon="0.24364">
        <ele>2006</ele>
        <time>2073-07-07T14:03:16.000Z</time>
      </trkpt>
      <trkpt lat="42.83318" lon="0.24353">
        <ele>2008</ele>
        <time>2073-07-07T14:03:24.000Z</time>
      </trkpt>
      <trkpt lat="42.8332" lon="0.24346">
        <ele>2010</ele>
        <time>2073-07-07T14:03:28.000Z</time>
      </trkpt>
      <trkpt lat="42.83322" lon="0.24336">
        <ele>2012</ele>
        <time>2073-07-07T14:03:34.000Z</time>
      </trkpt>
      <trkpt lat="42.83324" lon="0.24323">
        <ele>2014</ele>
        <time>2073-07-07T14:03:42.000Z</time>
      </trkpt>
      <trkpt lat="42.83326" lon="0.2431">
        <ele>2016</ele>
        <time>2073-07-07T14:03:51.000Z</time>
      </trkpt>
      <trkpt lat="42.83329" lon="0.24298">
        <ele>2019</ele>
        <time>2073-07-07T14:04:00.000Z</time>
      </trkpt>
      <trkpt lat="42.83331" lon="0.24288">
        <ele>2022</ele>
        <time>2073-07-07T14:04:07.000Z</time>
      </trkpt>
      <trkpt lat="42.83333" lon="0.24276">
        <ele>2025</ele>
        <time>2073-07-07T14:04:15.000Z</time>
      </trkpt>
      <trkpt lat="42.83334" lon="0.24263">
        <ele>2028</ele>
        <time>2073-07-07T14:04:23.000Z</time>
      </trkpt>
      <trkpt lat="42.83336" lon="0.24252">
        <ele>2030</ele>
        <time>2073-07-07T14:04:32.000Z</time>
      </trkpt>
      <trkpt lat="42.83338" lon="0.24241">
        <ele>2033</ele>
        <time>2073-07-07T14:04:41.000Z</time>
      </trkpt>
      <trkpt lat="42.83338" lon="0.2424">
        <ele>2033</ele>
        <time>2073-07-07T14:04:42.000Z</time>
      </trkpt>
      <trkpt lat="42.8334" lon="0.24234">
        <ele>2034</ele>
        <time>2073-07-07T14:04:47.000Z</time>
      </trkpt>
      <trkpt lat="42.8334" lon="0.24222">
        <ele>2038</ele>
        <time>2073-07-07T14:04:57.000Z</time>
      </trkpt>
      <trkpt lat="42.83342" lon="0.24211">
        <ele>2041</ele>
        <time>2073-07-07T14:05:06.000Z</time>
      </trkpt>
      <trkpt lat="42.83344" lon="0.242">
        <ele>2044</ele>
        <time>2073-07-07T14:05:14.000Z</time>
      </trkpt>
      <trkpt lat="42.83344" lon="0.24189">
        <ele>2048</ele>
        <time>2073-07-07T14:05:24.000Z</time>
      </trkpt>
      <trkpt lat="42.83344" lon="0.24177">
        <ele>2051</ele>
        <time>2073-07-07T14:05:34.000Z</time>
      </trkpt>
      <trkpt lat="42.83344" lon="0.24165">
        <ele>2055</ele>
        <time>2073-07-07T14:05:46.000Z</time>
      </trkpt>
      <trkpt lat="42.83344" lon="0.24152">
        <ele>2059</ele>
        <time>2073-07-07T14:05:57.000Z</time>
      </trkpt>
      <trkpt lat="42.83344" lon="0.24152">
        <ele>2059</ele>
        <time>2073-07-07T14:05:58.000Z</time>
      </trkpt>
      <trkpt lat="42.83343" lon="0.2414">
        <ele>2063</ele>
        <time>2073-07-07T14:06:08.000Z</time>
      </trkpt>
      <trkpt lat="42.83342" lon="0.24131">
        <ele>2066</ele>
        <time>2073-07-07T14:06:14.000Z</time>
      </trkpt>
      <trkpt lat="42.83342" lon="0.24127">
        <ele>2068</ele>
        <time>2073-07-07T14:06:19.000Z</time>
      </trkpt>
      <trkpt lat="42.83341" lon="0.24125">
        <ele>2068</ele>
        <time>2073-07-07T14:06:21.000Z</time>
      </trkpt>
      <trkpt lat="42.83341" lon="0.24122">
        <ele>2069</ele>
        <time>2073-07-07T14:06:23.000Z</time>
      </trkpt>
      <trkpt lat="42.83338" lon="0.24112">
        <ele>2073</ele>
        <time>2073-07-07T14:06:32.000Z</time>
      </trkpt>
      <trkpt lat="42.83335" lon="0.24102">
        <ele>2077</ele>
        <time>2073-07-07T14:06:41.000Z</time>
      </trkpt>
      <trkpt lat="42.83333" lon="0.24099">
        <ele>2078</ele>
        <time>2073-07-07T14:06:45.000Z</time>
      </trkpt>
      <trkpt lat="42.83332" lon="0.24095">
        <ele>2080</ele>
        <time>2073-07-07T14:06:48.000Z</time>
      </trkpt>
      <trkpt lat="42.83328" lon="0.24086">
        <ele>2083</ele>
        <time>2073-07-07T14:06:56.000Z</time>
      </trkpt>
      <trkpt lat="42.83327" lon="0.24085">
        <ele>2084</ele>
        <time>2073-07-07T14:06:58.000Z</time>
      </trkpt>
      <trkpt lat="42.83322" lon="0.24077">
        <ele>2087</ele>
        <time>2073-07-07T14:07:06.000Z</time>
      </trkpt>
      <trkpt lat="42.83317" lon="0.24068">
        <ele>2091</ele>
        <time>2073-07-07T14:07:14.000Z</time>
      </trkpt>
      <trkpt lat="42.83316" lon="0.24066">
        <ele>2091</ele>
        <time>2073-07-07T14:07:16.000Z</time>
      </trkpt>
      <trkpt lat="42.8331" lon="0.24059">
        <ele>2095</ele>
        <time>2073-07-07T14:07:27.000Z</time>
      </trkpt>
      <trkpt lat="42.83309" lon="0.24059">
        <ele>2095</ele>
        <time>2073-07-07T14:07:29.000Z</time>
      </trkpt>
      <trkpt lat="42.83302" lon="0.24055">
        <ele>2097</ele>
        <time>2073-07-07T14:07:39.000Z</time>
      </trkpt>
      <trkpt lat="42.83295" lon="0.2405">
        <ele>2100</ele>
        <time>2073-07-07T14:07:48.000Z</time>
      </trkpt>
      <trkpt lat="42.83288" lon="0.24045">
        <ele>2103</ele>
        <time>2073-07-07T14:07:56.000Z</time>
      </trkpt>
      <trkpt lat="42.83286" lon="0.24044">
        <ele>2104</ele>
        <time>2073-07-07T14:08:00.000Z</time>
      </trkpt>
      <trkpt lat="42.83278" lon="0.24039">
        <ele>2107</ele>
        <time>2073-07-07T14:08:08.000Z</time>
      </trkpt>
      <trkpt lat="42.83273" lon="0.24034">
        <ele>2109</ele>
        <time>2073-07-07T14:08:14.000Z</time>
      </trkpt>
      <trkpt lat="42.83272" lon="0.2403">
        <ele>2111</ele>
        <time>2073-07-07T14:08:17.000Z</time>
      </trkpt>
      <trkpt lat="42.83273" lon="0.24017">
        <ele>2115</ele>
        <time>2073-07-07T14:08:27.000Z</time>
      </trkpt>
      <trkpt lat="42.83275" lon="0.24012">
        <ele>2116</ele>
        <time>2073-07-07T14:08:31.000Z</time>
      </trkpt>
      <trkpt lat="42.83281" lon="0.23996">
        <ele>2120</ele>
        <time>2073-07-07T14:08:42.000Z</time>
      </trkpt>
      <trkpt lat="42.83287" lon="0.23987">
        <ele>2122</ele>
        <time>2073-07-07T14:08:49.000Z</time>
      </trkpt>
      <trkpt lat="42.83299" lon="0.23972">
        <ele>2125</ele>
        <time>2073-07-07T14:09:00.000Z</time>
      </trkpt>
      <trkpt lat="42.8331" lon="0.23958">
        <ele>2128</ele>
        <time>2073-07-07T14:09:10.000Z</time>
      </trkpt>
      <trkpt lat="42.83318" lon="0.23943">
        <ele>2132</ele>
        <time>2073-07-07T14:09:19.000Z</time>
      </trkpt>
      <trkpt lat="42.83328" lon="0.23928">
        <ele>2136</ele>
        <time>2073-07-07T14:09:28.000Z</time>
      </trkpt>
      <trkpt lat="42.83339" lon="0.23911">
        <ele>2140</ele>
        <time>2073-07-07T14:09:37.000Z</time>
      </trkpt>
      <trkpt lat="42.83361" lon="0.23899">
        <ele>2143</ele>
        <time>2073-07-07T14:09:49.000Z</time>
      </trkpt>
      <trkpt lat="42.83382" lon="0.23891">
        <ele>2146</ele>
        <time>2073-07-07T14:10:02.000Z</time>
      </trkpt>
      <trkpt lat="42.83404" lon="0.23871">
        <ele>2151</ele>
        <time>2073-07-07T14:10:20.000Z</time>
      </trkpt>
      <trkpt lat="42.83411" lon="0.23869">
        <ele>2152</ele>
        <time>2073-07-07T14:10:34.000Z</time>
      </trkpt>
      <trkpt lat="42.83419" lon="0.23863">
        <ele>2154</ele>
        <time>2073-07-07T14:10:37.000Z</time>
      </trkpt>
      <trkpt lat="42.83423" lon="0.23855">
        <ele>2156</ele>
        <time>2073-07-07T14:10:47.000Z</time>
      </trkpt>
      <trkpt lat="42.83431" lon="0.23851">
        <ele>2157</ele>
        <time>2073-07-07T14:10:58.000Z</time>
      </trkpt>
      <trkpt lat="42.83434" lon="0.23844">
        <ele>2160</ele>
        <time>2073-07-07T14:11:00.000Z</time>
      </trkpt>
      <trkpt lat="42.83442" lon="0.23836">
        <ele>2163</ele>
        <time>2073-07-07T14:11:03.000Z</time>
      </trkpt>
      <trkpt lat="42.83443" lon="0.23823">
        <ele>2167</ele>
        <time>2073-07-07T14:11:10.000Z</time>
      </trkpt>
      <trkpt lat="42.83444" lon="0.23809">
        <ele>2171</ele>
        <time>2073-07-07T14:11:15.000Z</time>
      </trkpt>
      <trkpt lat="42.83453" lon="0.23796">
        <ele>2174</ele>
        <time>2073-07-07T14:11:46.000Z</time>
      </trkpt>
      <trkpt lat="42.83454" lon="0.23788">
        <ele>2176</ele>
        <time>2073-07-07T14:11:52.000Z</time>
      </trkpt>
      <trkpt lat="42.83454" lon="0.23787">
        <ele>2177</ele>
        <time>2073-07-07T14:11:53.000Z</time>
      </trkpt>
      <trkpt lat="42.83454" lon="0.23785">
        <ele>2177</ele>
        <time>2073-07-07T14:11:54.000Z</time>
      </trkpt>
      <trkpt lat="42.83455" lon="0.23771">
        <ele>2181</ele>
        <time>2073-07-07T14:12:05.000Z</time>
      </trkpt>
      <trkpt lat="42.83454" lon="0.23766">
        <ele>2182</ele>
        <time>2073-07-07T14:12:09.000Z</time>
      </trkpt>
      <trkpt lat="42.8345" lon="0.23755">
        <ele>2185</ele>
        <time>2073-07-07T14:12:19.000Z</time>
      </trkpt>
      <trkpt lat="42.8345" lon="0.23751">
        <ele>2186</ele>
        <time>2073-07-07T14:12:22.000Z</time>
      </trkpt>
      <trkpt lat="42.83443" lon="0.23741">
        <ele>2188</ele>
        <time>2073-07-07T14:12:35.000Z</time>
      </trkpt>
      <trkpt lat="42.8344" lon="0.23734">
        <ele>2189</ele>
        <time>2073-07-07T14:12:41.000Z</time>
      </trkpt>
      <trkpt lat="42.83438" lon="0.23733">
        <ele>2190</ele>
        <time>2073-07-07T14:12:43.000Z</time>
      </trkpt>
      <trkpt lat="42.83429" lon="0.23724">
        <ele>2192</ele>
        <time>2073-07-07T14:12:53.000Z</time>
      </trkpt>
      <trkpt lat="42.83419" lon="0.23716">
        <ele>2193</ele>
        <time>2073-07-07T14:13:05.000Z</time>
      </trkpt>
      <trkpt lat="42.8341" lon="0.23709">
        <ele>2195</ele>
        <time>2073-07-07T14:13:14.000Z</time>
      </trkpt>
      <trkpt lat="42.83409" lon="0.23708">
        <ele>2196</ele>
        <time>2073-07-07T14:13:15.000Z</time>
      </trkpt>
      <trkpt lat="42.83397" lon="0.23704">
        <ele>2197</ele>
        <time>2073-07-07T14:13:24.000Z</time>
      </trkpt>
      <trkpt lat="42.83384" lon="0.23695">
        <ele>2199</ele>
        <time>2073-07-07T14:13:33.000Z</time>
      </trkpt>
      <trkpt lat="42.83371" lon="0.23686">
        <ele>2200</ele>
        <time>2073-07-07T14:13:42.000Z</time>
      </trkpt>
      <trkpt lat="42.83352" lon="0.23679">
        <ele>2202</ele>
        <time>2073-07-07T14:13:52.000Z</time>
      </trkpt>
      <trkpt lat="42.83303" lon="0.23665">
        <ele>2204</ele>
        <time>2073-07-07T14:14:16.000Z</time>
      </trkpt>
      <trkpt lat="42.83278" lon="0.23623">
        <ele>2207</ele>
        <time>2073-07-07T14:14:27.000Z</time>
      </trkpt>
      <trkpt lat="42.83267" lon="0.23598">
        <ele>2208</ele>
        <time>2073-07-07T14:14:45.000Z</time>
      </trkpt>
      <trkpt lat="42.83263" lon="0.23588">
        <ele>2209</ele>
        <time>2073-07-07T14:15:20.000Z</time>
      </trkpt>
      <trkpt lat="42.83253" lon="0.23568">
        <ele>2212</ele>
        <time>2073-07-07T14:15:22.000Z</time>
      </trkpt>
      <trkpt lat="42.83249" lon="0.2356">
        <ele>2212</ele>
        <time>2073-07-07T14:15:37.000Z</time>
      </trkpt>
      <trkpt lat="42.83234" lon="0.23541">
        <ele>2214</ele>
        <time>2073-07-07T14:15:49.000Z</time>
      </trkpt>
      <trkpt lat="42.83224" lon="0.23507">
        <ele>2213</ele>
        <time>2073-07-07T14:15:57.000Z</time>
      </trkpt>
      <trkpt lat="42.83192" lon="0.23477">
        <ele>2210</ele>
        <time>2073-07-07T14:16:06.000Z</time>
      </trkpt>
      <trkpt lat="42.83163" lon="0.23426">
        <ele>2204</ele>
        <time>2073-07-07T14:16:19.000Z</time>
      </trkpt>
      <trkpt lat="42.8314" lon="0.23388">
        <ele>2199</ele>
        <time>2073-07-07T14:16:26.000Z</time>
      </trkpt>
      <trkpt lat="42.83131" lon="0.23356">
        <ele>2196</ele>
        <time>2073-07-07T14:16:30.000Z</time>
      </trkpt>
      <trkpt lat="42.83109" lon="0.2331">
        <ele>2189</ele>
        <time>2073-07-07T14:16:40.000Z</time>
      </trkpt>
      <trkpt lat="42.83078" lon="0.23244">
        <ele>2181</ele>
        <time>2073-07-07T14:17:10.000Z</time>
      </trkpt>
      <trkpt lat="42.83042" lon="0.23138">
        <ele>2166</ele>
        <time>2073-07-07T14:17:37.000Z</time>
      </trkpt>
      <trkpt lat="42.83016" lon="0.23076">
        <ele>2155</ele>
        <time>2073-07-07T14:17:45.000Z</time>
      </trkpt>
      <trkpt lat="42.82968" lon="0.22984">
        <ele>2141</ele>
        <time>2073-07-07T14:18:15.000Z</time>
      </trkpt>
      <trkpt lat="42.82946" lon="0.22922">
        <ele>2130</ele>
        <time>2073-07-07T14:18:36.000Z</time>
      </trkpt>
      <trkpt lat="42.82922" lon="0.22871">
        <ele>2122</ele>
        <time>2073-07-07T14:18:49.000Z</time>
      </trkpt>
      <trkpt lat="42.8291" lon="0.2282">
        <ele>2118</ele>
        <time>2073-07-07T14:19:08.000Z</time>
      </trkpt>
      <trkpt lat="42.82895" lon="0.22747">
        <ele>2109</ele>
        <time>2073-07-07T14:19:33.000Z</time>
      </trkpt>
      <trkpt lat="42.82877" lon="0.22639">
        <ele>2096</ele>
        <time>2073-07-07T14:19:39.000Z</time>
      </trkpt>
      <trkpt lat="42.82866" lon="0.22564">
        <ele>2087</ele>
        <time>2073-07-07T14:19:44.000Z</time>
      </trkpt>
      <trkpt lat="42.82861" lon="0.22506">
        <ele>2079</ele>
        <time>2073-07-07T14:19:49.000Z</time>
      </trkpt>
      <trkpt lat="42.82857" lon="0.22458">
        <ele>2073</ele>
        <time>2073-07-07T14:19:50.000Z</time>
      </trkpt>
      <trkpt lat="42.82863" lon="0.22404">
        <ele>2063</ele>
        <time>2073-07-07T14:19:51.000Z</time>
      </trkpt>
      <trkpt lat="42.82849" lon="0.22333">
        <ele>2053</ele>
        <time>2073-07-07T14:19:57.000Z</time>
      </trkpt>
      <trkpt lat="42.82843" lon="0.223">
        <ele>2050</ele>
        <time>2073-07-07T14:20:45.000Z</time>
      </trkpt>
      <trkpt lat="42.82843" lon="0.2226">
        <ele>2046</ele>
        <time>2073-07-07T14:21:01.000Z</time>
      </trkpt>
      <trkpt lat="42.82838" lon="0.22218">
        <ele>2042</ele>
        <time>2073-07-07T14:21:35.000Z</time>
      </trkpt>
      <trkpt lat="42.82839" lon="0.22167">
        <ele>2040</ele>
        <time>2073-07-07T14:22:19.000Z</time>
      </trkpt>
      <trkpt lat="42.82844" lon="0.22105">
        <ele>2039</ele>
        <time>2073-07-07T14:23:06.000Z</time>
      </trkpt>
      <trkpt lat="42.82846" lon="0.2207">
        <ele>2039</ele>
        <time>2073-07-07T14:23:25.000Z</time>
      </trkpt>
      <trkpt lat="42.82832" lon="0.22037">
        <ele>2038</ele>
        <time>2073-07-07T14:23:36.000Z</time>
      </trkpt>
      <trkpt lat="42.82834" lon="0.22019">
        <ele>2038</ele>
        <time>2073-07-07T14:24:12.000Z</time>
      </trkpt>
      <trkpt lat="42.82849" lon="0.21969">
        <ele>2039</ele>
        <time>2073-07-07T14:24:26.000Z</time>
      </trkpt>
      <trkpt lat="42.8288" lon="0.21867">
        <ele>2045</ele>
        <time>2073-07-07T14:24:35.000Z</time>
      </trkpt>
      <trkpt lat="42.82906" lon="0.21783">
        <ele>2054</ele>
        <time>2073-07-07T14:24:41.000Z</time>
      </trkpt>
      <trkpt lat="42.82922" lon="0.21728">
        <ele>2063</ele>
        <time>2073-07-07T14:25:19.000Z</time>
      </trkpt>
      <trkpt lat="42.82929" lon="0.21688">
        <ele>2066</ele>
        <time>2073-07-07T14:25:32.000Z</time>
      </trkpt>
      <trkpt lat="42.8292" lon="0.21659">
        <ele>2065</ele>
        <time>2073-07-07T14:26:20.000Z</time>
      </trkpt>
      <trkpt lat="42.82907" lon="0.21633">
        <ele>2061</ele>
        <time>2073-07-07T14:27:05.000Z</time>
      </trkpt>
      <trkpt lat="42.82913" lon="0.2158">
        <ele>2064</ele>
        <time>2073-07-07T14:27:23.000Z</time>
      </trkpt>
      <trkpt lat="42.82931" lon="0.21415">
        <ele>2074</ele>
        <time>2021-11-17T10:36:07.000Z</time>
      </trkpt>
      <trkpt lat="42.82979" lon="0.21356">
        <ele>2090</ele>
        <time>2021-11-17T10:36:07.000Z</time>
      </trkpt>
      <trkpt lat="42.83008" lon="0.21353">
        <ele>2099</ele>
        <time>2021-11-17T10:36:07.000Z</time>
      </trkpt>
      <trkpt lat="42.83017" lon="0.21347">
        <ele>2102</ele>
        <time>2021-11-17T10:36:07.000Z</time>
      </trkpt>
      <trkpt lat="42.83025" lon="0.21319">
        <ele>2103</ele>
        <time>2021-11-17T10:36:07.000Z</time>
      </trkpt>
      <trkpt lat="42.83027" lon="0.213">
        <ele>2102</ele>
        <time>2021-11-17T10:36:07.000Z</time>
      </trkpt>
      <trkpt lat="42.83037" lon="0.21259">
        <ele>2101</ele>
        <time>2021-11-17T10:36:07.000Z</time>
      </trkpt>
      <trkpt lat="42.83053" lon="0.2124">
        <ele>2104</ele>
        <time>2021-11-17T10:36:07.000Z</time>
      </trkpt>
      <trkpt lat="42.83068" lon="0.21221">
        <ele>2107</ele>
        <time>2021-11-17T10:36:07.000Z</time>
      </trkpt>
      <trkpt lat="42.83093" lon="0.21202">
        <ele>2115</ele>
        <time>2073-07-07T14:27:33.000Z</time>
      </trkpt>
      <trkpt lat="42.83125" lon="0.21151">
        <ele>2127</ele>
        <time>2073-07-07T14:27:40.000Z</time>
      </trkpt>
      <trkpt lat="42.83162" lon="0.21086">
        <ele>2127</ele>
        <time>2073-07-07T14:28:15.000Z</time>
      </trkpt>
      <trkpt lat="42.83188" lon="0.21033">
        <ele>2118</ele>
        <time>2073-07-07T14:28:30.000Z</time>
      </trkpt>
      <trkpt lat="42.83219" lon="0.21001">
        <ele>2112</ele>
        <time>2073-07-07T14:28:42.000Z</time>
      </trkpt>
      <trkpt lat="42.8325" lon="0.20982">
        <ele>2111</ele>
        <time>2073-07-07T14:28:52.000Z</time>
      </trkpt>
      <trkpt lat="42.83297" lon="0.20966">
        <ele>2114</ele>
        <time>2073-07-07T14:29:07.000Z</time>
      </trkpt>
      <trkpt lat="42.83325" lon="0.20967">
        <ele>2121</ele>
        <time>2073-07-07T14:29:15.000Z</time>
      </trkpt>
      <trkpt lat="42.83349" lon="0.20967">
        <ele>2126</ele>
        <time>2073-07-07T14:29:22.000Z</time>
      </trkpt>
      <trkpt lat="42.83441" lon="0.20896">
        <ele>2103</ele>
        <time>2073-07-07T14:29:57.000Z</time>
      </trkpt>
      <trkpt lat="42.83452" lon="0.20887">
        <ele>2100</ele>
        <time>2021-11-17T10:36:07.000Z</time>
      </trkpt>
      <trkpt lat="42.83478" lon="0.20896">
        <ele>2107</ele>
        <time>2073-07-07T14:30:10.000Z</time>
      </trkpt>
      <trkpt lat="42.835" lon="0.20896">
        <ele>2110</ele>
        <time>2021-11-17T10:36:07.000Z</time>
      </trkpt>
      <trkpt lat="42.83552" lon="0.2088">
        <ele>2114</ele>
        <time>2073-07-07T14:30:40.000Z</time>
      </trkpt>
      <trkpt lat="42.83599" lon="0.20864">
        <ele>2118</ele>
        <time>2073-07-07T14:31:00.000Z</time>
      </trkpt>
      <trkpt lat="42.83701" lon="0.20873">
        <ele>2137</ele>
        <time>2073-07-07T14:31:38.000Z</time>
      </trkpt>
      <trkpt lat="42.83738" lon="0.20846">
        <ele>2132</ele>
        <time>2073-07-07T14:31:55.000Z</time>
      </trkpt>
      <trkpt lat="42.83766" lon="0.20828">
        <ele>2132</ele>
        <time>2073-07-07T14:32:09.000Z</time>
      </trkpt>
      <trkpt lat="42.83814" lon="0.20831">
        <ele>2143</ele>
        <time>2073-07-07T14:32:29.000Z</time>
      </trkpt>
      <trkpt lat="42.83844" lon="0.20836">
        <ele>2151</ele>
        <time>2073-07-07T14:32:42.000Z</time>
      </trkpt>
      <trkpt lat="42.83872" lon="0.20826">
        <ele>2148</ele>
        <time>2073-07-07T14:32:55.000Z</time>
      </trkpt>
      <trkpt lat="42.83978" lon="0.20831">
        <ele>2148</ele>
        <time>2073-07-07T14:33:35.000Z</time>
      </trkpt>
      <trkpt lat="42.8405" lon="0.20854">
        <ele>2147</ele>
        <time>2073-07-07T14:34:03.000Z</time>
      </trkpt>
      <trkpt lat="42.84137" lon="0.20906">
        <ele>2148</ele>
        <time>2073-07-07T14:34:39.000Z</time>
      </trkpt>
      <trkpt lat="42.84165" lon="0.20904">
        <ele>2143</ele>
        <time>2021-11-17T10:36:07.000Z</time>
      </trkpt>
      <trkpt lat="42.84209" lon="0.20933">
        <ele>2148</ele>
        <time>2073-07-07T14:35:11.000Z</time>
      </trkpt>
      <trkpt lat="42.84226" lon="0.2095">
        <ele>2153</ele>
        <time>2073-07-07T14:35:22.000Z</time>
      </trkpt>
      <trkpt lat="42.84243" lon="0.20975">
        <ele>2161</ele>
        <time>2073-07-07T14:35:34.000Z</time>
      </trkpt>
      <trkpt lat="42.8426" lon="0.20977">
        <ele>2160</ele>
        <time>2073-07-07T14:35:45.000Z</time>
      </trkpt>
      <trkpt lat="42.84276" lon="0.20987">
        <ele>2163</ele>
        <time>2073-07-07T14:35:55.000Z</time>
      </trkpt>
      <trkpt lat="42.843" lon="0.20997">
        <ele>2166</ele>
        <time>2073-07-07T14:36:08.000Z</time>
      </trkpt>
      <trkpt lat="42.84316" lon="0.21012">
        <ele>2171</ele>
        <time>2073-07-07T14:36:20.000Z</time>
      </trkpt>
      <trkpt lat="42.84336" lon="0.21031">
        <ele>2176</ele>
        <time>2073-07-07T14:36:32.000Z</time>
      </trkpt>
      <trkpt lat="42.84358" lon="0.21049">
        <ele>2181</ele>
        <time>2021-11-17T10:36:07.000Z</time>
      </trkpt>
      <trkpt lat="42.84396" lon="0.21037">
        <ele>2175</ele>
        <time>2073-07-07T14:37:01.000Z</time>
      </trkpt>
      <trkpt lat="42.84434" lon="0.21031">
        <ele>2171</ele>
        <time>2073-07-07T14:37:18.000Z</time>
      </trkpt>
      <trkpt lat="42.84436" lon="0.21031">
        <ele>2170</ele>
        <time>2073-07-07T14:37:19.000Z</time>
      </trkpt>
      <trkpt lat="42.84447" lon="0.21034">
        <ele>2169</ele>
        <time>2073-07-07T14:37:25.000Z</time>
      </trkpt>
      <trkpt lat="42.84453" lon="0.2103">
        <ele>2166</ele>
        <time>2073-07-07T14:37:30.000Z</time>
      </trkpt>
      <trkpt lat="42.84468" lon="0.21046">
        <ele>2169</ele>
        <time>2073-07-07T14:37:41.000Z</time>
      </trkpt>
      <trkpt lat="42.8447" lon="0.21048">
        <ele>2169</ele>
        <time>2073-07-07T14:37:42.000Z</time>
      </trkpt>
      <trkpt lat="42.8453" lon="0.21134">
        <ele>2181</ele>
        <time>2073-07-07T14:38:19.000Z</time>
      </trkpt>
      <trkpt lat="42.84535" lon="0.21142">
        <ele>2182</ele>
        <time>2073-07-07T14:38:24.000Z</time>
      </trkpt>
      <trkpt lat="42.8456" lon="0.21161">
        <ele>2178</ele>
        <time>2073-07-07T14:38:38.000Z</time>
      </trkpt>
      <trkpt lat="42.84604" lon="0.212">
        <ele>2172</ele>
        <time>2073-07-07T14:39:02.000Z</time>
      </trkpt>
      <trkpt lat="42.84621" lon="0.21237">
        <ele>2175</ele>
        <time>2073-07-07T14:39:17.000Z</time>
      </trkpt>
      <trkpt lat="42.84643" lon="0.21278">
        <ele>2177</ele>
        <time>2073-07-07T14:39:34.000Z</time>
      </trkpt>
      <trkpt lat="42.84652" lon="0.21279">
        <ele>2175</ele>
        <time>2073-07-07T14:39:40.000Z</time>
      </trkpt>
      <trkpt lat="42.84658" lon="0.21272">
        <ele>2171</ele>
        <time>2073-07-07T14:39:44.000Z</time>
      </trkpt>
      <trkpt lat="42.84675" lon="0.21277">
        <ele>2167</ele>
        <time>2073-07-07T14:39:53.000Z</time>
      </trkpt>
      <trkpt lat="42.84692" lon="0.21283">
        <ele>2168</ele>
        <time>2073-07-07T14:40:04.000Z</time>
      </trkpt>
      <trkpt lat="42.84699" lon="0.21289">
        <ele>2169</ele>
        <time>2073-07-07T14:40:10.000Z</time>
      </trkpt>
      <trkpt lat="42.84703" lon="0.21292">
        <ele>2170</ele>
        <time>2073-07-07T14:40:13.000Z</time>
      </trkpt>
      <trkpt lat="42.84713" lon="0.21287">
        <ele>2170</ele>
        <time>2073-07-07T14:40:18.000Z</time>
      </trkpt>
      <trkpt lat="42.8475" lon="0.21309">
        <ele>2175</ele>
        <time>2073-07-07T14:40:32.000Z</time>
        <extensions>
          <visugpx:TrkExtension xmlns:visugpx="https://www.visugpx.com/editgpx/">
            <visugpx:node>1</visugpx:node>
            </visugpx:TrkExtension>
        </extensions>
      </trkpt>
      <trkpt lat="42.84735" lon="0.21294">
        <ele>2200.9</ele>
      </trkpt>
      <trkpt lat="42.84729" lon="0.21277">
        <ele>2197.3</ele>
      </trkpt>
      <trkpt lat="42.84722" lon="0.2127">
        <ele>2195.8</ele>
      </trkpt>
      <trkpt lat="42.84715" lon="0.21255">
        <ele>2195.9</ele>
      </trkpt>
      <trkpt lat="42.84709" lon="0.21221">
        <ele>2191.9</ele>
      </trkpt>
      <trkpt lat="42.84711" lon="0.21186">
        <ele>2188.2</ele>
      </trkpt>
      <trkpt lat="42.84713" lon="0.21176">
        <ele>2186.4</ele>
      </trkpt>
      <trkpt lat="42.84713" lon="0.21144">
        <ele>2181.8</ele>
        <extensions>
          <visugpx:TrkExtension xmlns:visugpx="https://www.visugpx.com/editgpx/">
            <visugpx:node>2</visugpx:node>
            </visugpx:TrkExtension>
        </extensions>
      </trkpt>
      <trkpt lat="42.84713" lon="0.21108">
        <ele>2177.2</ele>
      </trkpt>
      <trkpt lat="42.84706" lon="0.21075">
        <ele>2174.9</ele>
      </trkpt>
      <trkpt lat="42.84705" lon="0.21054">
        <ele>2169.4</ele>
      </trkpt>
      <trkpt lat="42.84698" lon="0.21043">
        <ele>2166.5</ele>
      </trkpt>
      <trkpt lat="42.84692" lon="0.20995">
        <ele>2154.2</ele>
      </trkpt>
      <trkpt lat="42.84678" lon="0.20963">
        <ele>2150.4</ele>
        <extensions>
          <visugpx:TrkExtension xmlns:visugpx="https://www.visugpx.com/editgpx/">
            <visugpx:node>3</visugpx:node>
            </visugpx:TrkExtension>
        </extensions>
      </trkpt>
      <trkpt lat="42.84671" lon="0.20956">
        <ele>2148.3</ele>
      </trkpt>
      <trkpt lat="42.84662" lon="0.20949">
        <ele>2146.2</ele>
      </trkpt>
      <trkpt lat="42.84647" lon="0.20944">
        <ele>2146.5</ele>
      </trkpt>
      <trkpt lat="42.8462" lon="0.20929">
        <ele>2146.3</ele>
      </trkpt>
      <trkpt lat="42.84603" lon="0.20914">
        <ele>2145.1</ele>
      </trkpt>
      <trkpt lat="42.84585" lon="0.20896">
        <ele>2143.3</ele>
      </trkpt>
      <trkpt lat="42.84558" lon="0.20883">
        <ele>2145.1</ele>
      </trkpt>
      <trkpt lat="42.84554" lon="0.20879">
        <ele>2145</ele>
        <extensions>
          <visugpx:TrkExtension xmlns:visugpx="https://www.visugpx.com/editgpx/">
            <visugpx:node>4</visugpx:node>
            </visugpx:TrkExtension>
        </extensions>
      </trkpt>
      <trkpt lat="42.84549" lon="0.20867">
        <ele>2143.8</ele>
      </trkpt>
      <trkpt lat="42.84548" lon="0.20835">
        <ele>2141.9</ele>
      </trkpt>
      <trkpt lat="42.84544" lon="0.20805">
        <ele>2142</ele>
      </trkpt>
      <trkpt lat="42.84535" lon="0.20796">
        <ele>2142.9</ele>
      </trkpt>
      <trkpt lat="42.84522" lon="0.20787">
        <ele>2143.7</ele>
      </trkpt>
      <trkpt lat="42.84508" lon="0.20781">
        <ele>2145.2</ele>
        <extensions>
          <visugpx:TrkExtension xmlns:visugpx="https://www.visugpx.com/editgpx/">
            <visugpx:node>5</visugpx:node>
            </visugpx:TrkExtension>
        </extensions>
      </trkpt>
      <trkpt lat="42.84494" lon="0.20778">
        <ele>2146.4</ele>
      </trkpt>
      <trkpt lat="42.84468" lon="0.20778">
        <ele>2148</ele>
      </trkpt>
      <trkpt lat="42.84459" lon="0.20785">
        <ele>2148.9</ele>
      </trkpt>
      <trkpt lat="42.84455" lon="0.20793">
        <ele>2149.5</ele>
      </trkpt>
      <trkpt lat="42.84445" lon="0.20802">
        <ele>2148.9</ele>
      </trkpt>
      <trkpt lat="42.84431" lon="0.20813">
        <ele>2145.9</ele>
      </trkpt>
      <trkpt lat="42.84426" lon="0.20824">
        <ele>2146.3</ele>
      </trkpt>
      <trkpt lat="42.84404" lon="0.20841">
        <ele>2142.7</ele>
      </trkpt>
      <trkpt lat="42.84389" lon="0.20845">
        <ele>2138.2</ele>
      </trkpt>
      <trkpt lat="42.84372" lon="0.20846">
        <ele>2132.8</ele>
        <extensions>
          <visugpx:TrkExtension xmlns:visugpx="https://www.visugpx.com/editgpx/">
            <visugpx:node>6</visugpx:node>
            </visugpx:TrkExtension>
        </extensions>
      </trkpt>
      <trkpt lat="42.84362" lon="0.2084">
        <ele>2130.1</ele>
      </trkpt>
      <trkpt lat="42.84354" lon="0.20839">
        <ele>2127.6</ele>
      </trkpt>
      <trkpt lat="42.84339" lon="0.2084">
        <ele>2123.3</ele>
      </trkpt>
      <trkpt lat="42.84317" lon="0.20849">
        <ele>2119.5</ele>
      </trkpt>
      <trkpt lat="42.84303" lon="0.2085">
        <ele>2118.2</ele>
      </trkpt>
      <trkpt lat="42.84273" lon="0.20842">
        <ele>2116.1</ele>
      </trkpt>
      <trkpt lat="42.84258" lon="0.2083">
        <ele>2113.7</ele>
      </trkpt>
      <trkpt lat="42.84248" lon="0.20836">
        <ele>2114.4</ele>
        <extensions>
          <visugpx:TrkExtension xmlns:visugpx="https://www.visugpx.com/editgpx/">
            <visugpx:node>7</visugpx:node>
            </visugpx:TrkExtension>
        </extensions>
      </trkpt>
      <trkpt lat="42.84258" lon="0.2083">
        <ele>2113.7</ele>
      </trkpt>
      <trkpt lat="42.84239" lon="0.2082">
        <ele>2110.9</ele>
      </trkpt>
      <trkpt lat="42.84228" lon="0.208">
        <ele>2104.8</ele>
      </trkpt>
      <trkpt lat="42.84199" lon="0.20737">
        <ele>2087.2</ele>
      </trkpt>
      <trkpt lat="42.8418" lon="0.20699">
        <ele>2078.6</ele>
      </trkpt>
      <trkpt lat="42.84168" lon="0.20653">
        <ele>2069.1</ele>
      </trkpt>
      <trkpt lat="42.84146" lon="0.2061">
        <ele>2058.8</ele>
      </trkpt>
      <trkpt lat="42.84138" lon="0.20603">
        <ele>2057.4</ele>
      </trkpt>
      <trkpt lat="42.84104" lon="0.20502">
        <ele>2044.8</ele>
      </trkpt>
      <trkpt lat="42.84097" lon="0.20489">
        <ele>2042.5</ele>
      </trkpt>
      <trkpt lat="42.84085" lon="0.20475">
        <ele>2041.4</ele>
        <extensions>
          <visugpx:TrkExtension xmlns:visugpx="https://www.visugpx.com/editgpx/">
            <visugpx:node>8</visugpx:node>
            </visugpx:TrkExtension>
        </extensions>
      </trkpt>
      <trkpt lat="42.84079" lon="0.20469">
        <ele>2040.1</ele>
      </trkpt>
      <trkpt lat="42.84063" lon="0.20462">
        <ele>2039.8</ele>
      </trkpt>
      <trkpt lat="42.84034" lon="0.20438">
        <ele>2033.6</ele>
      </trkpt>
      <trkpt lat="42.84031" lon="0.20438">
        <ele>2033.7</ele>
      </trkpt>
      <trkpt lat="42.84018" lon="0.20445">
        <ele>2035.5</ele>
      </trkpt>
      <trkpt lat="42.84012" lon="0.20446">
        <ele>2035.5</ele>
      </trkpt>
      <trkpt lat="42.84008" lon="0.20445">
        <ele>2034.8</ele>
      </trkpt>
      <trkpt lat="42.84004" lon="0.20441">
        <ele>2033</ele>
      </trkpt>
      <trkpt lat="42.83976" lon="0.20438">
        <ele>2030.8</ele>
      </trkpt>
      <trkpt lat="42.83951" lon="0.2043">
        <ele>2023.7</ele>
        <extensions>
          <visugpx:TrkExtension xmlns:visugpx="https://www.visugpx.com/editgpx/">
            <visugpx:node>9</visugpx:node>
            </visugpx:TrkExtension>
        </extensions>
      </trkpt>
      <trkpt lat="42.83662" lon="0.20414">
        <ele>1948</ele>
        <time>2073-07-07T21:36:49.000Z</time>
      </trkpt>
      <trkpt lat="42.83649" lon="0.20427">
        <ele>1949</ele>
        <time>2073-07-07T21:37:01.000Z</time>
      </trkpt>
      <trkpt lat="42.83641" lon="0.20434">
        <ele>1949</ele>
        <time>2073-07-07T21:37:08.000Z</time>
      </trkpt>
      <trkpt lat="42.83615" lon="0.2046">
        <ele>1950</ele>
        <time>2073-07-07T21:37:25.000Z</time>
      </trkpt>
      <trkpt lat="42.83602" lon="0.20475">
        <ele>1950</ele>
        <time>2073-07-07T21:37:35.000Z</time>
      </trkpt>
      <trkpt lat="42.83585" lon="0.20488">
        <ele>1949</ele>
        <time>2073-07-07T21:37:49.000Z</time>
      </trkpt>
      <trkpt lat="42.83578" lon="0.20532">
        <ele>1965</ele>
        <time>2073-07-07T21:38:06.000Z</time>
      </trkpt>
      <trkpt lat="42.83566" lon="0.20573">
        <ele>1980</ele>
        <time>2073-07-07T21:38:25.000Z</time>
      </trkpt>
      <trkpt lat="42.83552" lon="0.20571">
        <ele>1976</ele>
        <time>2073-07-07T21:38:35.000Z</time>
      </trkpt>
      <trkpt lat="42.83532" lon="0.20568">
        <ele>1971</ele>
        <time>2073-07-07T21:38:49.000Z</time>
      </trkpt>
      <trkpt lat="42.83524" lon="0.2057">
        <ele>1970</ele>
        <time>2073-07-07T21:38:54.000Z</time>
      </trkpt>
      <trkpt lat="42.83507" lon="0.20565">
        <ele>1965</ele>
        <time>2073-07-07T21:39:09.000Z</time>
      </trkpt>
      <trkpt lat="42.83503" lon="0.20568">
        <ele>1966</ele>
        <time>2073-07-07T21:39:13.000Z</time>
      </trkpt>
      <trkpt lat="42.83495" lon="0.20572">
        <ele>1966</ele>
        <time>2073-07-07T21:39:19.000Z</time>
      </trkpt>
      <trkpt lat="42.83474" lon="0.20613">
        <ele>1979</ele>
        <time>2073-07-07T21:39:37.000Z</time>
      </trkpt>
      <trkpt lat="42.83471" lon="0.20615">
        <ele>1980</ele>
        <time>2073-07-07T21:39:39.000Z</time>
      </trkpt>
      <trkpt lat="42.83468" lon="0.20621">
        <ele>1981</ele>
        <time>2073-07-07T21:39:42.000Z</time>
      </trkpt>
      <trkpt lat="42.83447" lon="0.20637">
        <ele>1985</ele>
        <time>2073-07-07T21:39:54.000Z</time>
      </trkpt>
      <trkpt lat="42.83441" lon="0.20646">
        <ele>1988</ele>
        <time>2073-07-07T21:39:58.000Z</time>
      </trkpt>
      <trkpt lat="42.8338" lon="0.20697">
        <ele>2003</ele>
        <time>2073-07-07T21:40:29.000Z</time>
      </trkpt>
      <trkpt lat="42.83363" lon="0.207">
        <ele>2003</ele>
        <time>2073-07-07T21:40:37.000Z</time>
      </trkpt>
      <trkpt lat="42.83337" lon="0.20719">
        <ele>2007</ele>
        <time>2073-07-07T21:40:51.000Z</time>
      </trkpt>
      <trkpt lat="42.83307" lon="0.20712">
        <ele>1998</ele>
        <time>2073-07-07T21:41:11.000Z</time>
      </trkpt>
      <trkpt lat="42.83277" lon="0.20718">
        <ele>1994</ele>
        <time>2073-07-07T21:41:30.000Z</time>
      </trkpt>
      <trkpt lat="42.83257" lon="0.20727">
        <ele>1996</ele>
        <time>2073-07-07T21:41:46.000Z</time>
      </trkpt>
      <trkpt lat="42.8325" lon="0.20731">
        <ele>1996</ele>
        <time>2073-07-07T21:41:55.000Z</time>
      </trkpt>
      <trkpt lat="42.83246" lon="0.20735">
        <ele>1997</ele>
        <time>2073-07-07T21:41:59.000Z</time>
      </trkpt>
      <trkpt lat="42.83244" lon="0.20735">
        <ele>1997</ele>
        <time>2073-07-07T21:42:01.000Z</time>
      </trkpt>
      <trkpt lat="42.83226" lon="0.20743">
        <ele>1996</ele>
        <time>2073-07-07T21:42:14.000Z</time>
      </trkpt>
      <trkpt lat="42.83205" lon="0.20756">
        <ele>1996</ele>
        <time>2073-07-07T21:42:28.000Z</time>
      </trkpt>
      <trkpt lat="42.83181" lon="0.20774">
        <ele>1998</ele>
        <time>2073-07-07T21:42:40.000Z</time>
      </trkpt>
      <trkpt lat="42.83118" lon="0.20833">
        <ele>2003</ele>
        <time>2073-07-07T21:43:13.000Z</time>
      </trkpt>
      <trkpt lat="42.83069" lon="0.20872">
        <ele>2004</ele>
        <time>2073-07-07T21:43:41.000Z</time>
      </trkpt>
      <trkpt lat="42.83028" lon="0.20902">
        <ele>2004</ele>
        <time>2073-07-07T21:44:00.000Z</time>
      </trkpt>
      <trkpt lat="42.83005" lon="0.20929">
        <ele>2009</ele>
        <time>2073-07-07T21:44:13.000Z</time>
      </trkpt>
      <trkpt lat="42.8296" lon="0.20974">
        <ele>2011</ele>
        <time>2073-07-07T21:44:38.000Z</time>
      </trkpt>
      <trkpt lat="42.82934" lon="0.21008">
        <ele>2012</ele>
        <time>2073-07-07T21:44:54.000Z</time>
      </trkpt>
      <trkpt lat="42.82883" lon="0.211">
        <ele>2022</ele>
        <time>2073-07-07T21:45:32.000Z</time>
      </trkpt>
      <trkpt lat="42.82863" lon="0.21132">
        <ele>2023</ele>
        <time>2073-07-07T21:45:47.000Z</time>
      </trkpt>
      <trkpt lat="42.82853" lon="0.21149">
        <ele>2024</ele>
        <time>2073-07-07T21:45:54.000Z</time>
      </trkpt>
      <trkpt lat="42.82825" lon="0.21187">
        <ele>2022</ele>
        <time>2021-11-17T10:36:07.000Z</time>
      </trkpt>
      <trkpt lat="42.82818" lon="0.21254">
        <ele>2026</ele>
        <time>2073-07-07T21:46:30.000Z</time>
      </trkpt>
      <trkpt lat="42.82807" lon="0.21277">
        <ele>2024</ele>
        <time>2073-07-07T21:46:40.000Z</time>
      </trkpt>
      <trkpt lat="42.82802" lon="0.21289">
        <ele>2022</ele>
        <time>2073-07-07T21:46:45.000Z</time>
      </trkpt>
      <trkpt lat="42.82796" lon="0.2133">
        <ele>2022</ele>
        <time>2021-11-17T10:36:07.000Z</time>
      </trkpt>
      <trkpt lat="42.82791" lon="0.21405">
        <ele>2023</ele>
        <time>2073-07-07T21:47:15.000Z</time>
      </trkpt>
      <trkpt lat="42.82789" lon="0.21442">
        <ele>2023</ele>
        <time>2073-07-07T21:47:20.000Z</time>
      </trkpt>
      <trkpt lat="42.82778" lon="0.21536">
        <ele>2023</ele>
        <time>2073-07-07T21:47:58.000Z</time>
      </trkpt>
      <trkpt lat="42.8278" lon="0.21583">
        <ele>2024</ele>
        <time>2073-07-07T21:48:04.000Z</time>
      </trkpt>
      <trkpt lat="42.82776" lon="0.21655">
        <ele>2025</ele>
        <time>2073-07-07T21:48:37.000Z</time>
      </trkpt>
      <trkpt lat="42.82776" lon="0.21666">
        <ele>2026</ele>
        <time>2073-07-07T21:48:41.000Z</time>
      </trkpt>
      <trkpt lat="42.82771" lon="0.21726">
        <ele>2026</ele>
        <time>2073-07-07T21:49:01.000Z</time>
      </trkpt>
      <trkpt lat="42.82755" lon="0.21824">
        <ele>2029</ele>
        <time>2073-07-07T21:49:32.000Z</time>
      </trkpt>
      <trkpt lat="42.82759" lon="0.21843">
        <ele>2029</ele>
        <time>2073-07-07T21:49:38.000Z</time>
      </trkpt>
      <trkpt lat="42.82777" lon="0.21915">
        <ele>2032</ele>
        <time>2073-07-07T21:50:03.000Z</time>
      </trkpt>
      <trkpt lat="42.8279" lon="0.21972">
        <ele>2035</ele>
        <time>2021-11-17T10:36:07.000Z</time>
      </trkpt>
      <trkpt lat="42.82819" lon="0.22019">
        <ele>2037</ele>
        <time>2073-07-07T21:50:40.000Z</time>
      </trkpt>
      <trkpt lat="42.82839" lon="0.22065">
        <ele>2039</ele>
        <time>2073-07-07T21:52:55.000Z</time>
      </trkpt>
      <trkpt lat="42.82839" lon="0.22094">
        <ele>2039</ele>
        <time>2073-07-07T21:53:03.000Z</time>
      </trkpt>
      <trkpt lat="42.82834" lon="0.22169">
        <ele>2040</ele>
        <time>2073-07-07T21:53:21.000Z</time>
      </trkpt>
      <trkpt lat="42.82831" lon="0.22244">
        <ele>2044</ele>
        <time>2073-07-07T21:53:44.000Z</time>
      </trkpt>
      <trkpt lat="42.82839" lon="0.22282">
        <ele>2048</ele>
        <time>2073-07-07T21:54:01.000Z</time>
      </trkpt>
      <trkpt lat="42.82839" lon="0.22288">
        <ele>2048</ele>
        <time>2073-07-07T21:54:04.000Z</time>
      </trkpt>
      <trkpt lat="42.8284" lon="0.22306">
        <ele>2050</ele>
        <time>2073-07-07T21:54:13.000Z</time>
      </trkpt>
      <trkpt lat="42.82843" lon="0.22325">
        <ele>2052</ele>
        <time>2073-07-07T21:54:23.000Z</time>
      </trkpt>
      <trkpt lat="42.82848" lon="0.22345">
        <ele>2055</ele>
        <time>2073-07-07T21:54:33.000Z</time>
      </trkpt>
      <trkpt lat="42.8285" lon="0.22358">
        <ele>2057</ele>
        <time>2073-07-07T21:54:40.000Z</time>
      </trkpt>
      <trkpt lat="42.82851" lon="0.22366">
        <ele>2058</ele>
        <time>2073-07-07T21:54:44.000Z</time>
      </trkpt>
      <trkpt lat="42.82851" lon="0.2238">
        <ele>2060</ele>
        <time>2073-07-07T21:54:51.000Z</time>
      </trkpt>
      <trkpt lat="42.82851" lon="0.22391">
        <ele>2061</ele>
        <time>2073-07-07T21:54:56.000Z</time>
      </trkpt>
      <trkpt lat="42.82857" lon="0.22407">
        <ele>2064</ele>
        <time>2073-07-07T21:55:04.000Z</time>
      </trkpt>
      <trkpt lat="42.82856" lon="0.22415">
        <ele>2065</ele>
        <time>2073-07-07T21:55:08.000Z</time>
      </trkpt>
      <trkpt lat="42.82853" lon="0.22423">
        <ele>2066</ele>
        <time>2073-07-07T21:55:12.000Z</time>
      </trkpt>
      <trkpt lat="42.82852" lon="0.22444">
        <ele>2070</ele>
        <time>2073-07-07T21:55:23.000Z</time>
      </trkpt>
      <trkpt lat="42.82851" lon="0.22462">
        <ele>2073</ele>
        <time>2073-07-07T21:55:32.000Z</time>
      </trkpt>
      <trkpt lat="42.82853" lon="0.2247">
        <ele>2075</ele>
        <time>2073-07-07T21:55:36.000Z</time>
      </trkpt>
      <trkpt lat="42.82853" lon="0.22486">
        <ele>2077</ele>
        <time>2073-07-07T21:55:44.000Z</time>
      </trkpt>
      <trkpt lat="42.82853" lon="0.22496">
        <ele>2078</ele>
        <time>2073-07-07T21:55:49.000Z</time>
      </trkpt>
      <trkpt lat="42.82854" lon="0.2251">
        <ele>2080</ele>
        <time>2073-07-07T21:55:56.000Z</time>
      </trkpt>
      <trkpt lat="42.82854" lon="0.22512">
        <ele>2080</ele>
        <time>2073-07-07T21:55:58.000Z</time>
      </trkpt>
      <trkpt lat="42.82858" lon="0.22526">
        <ele>2082</ele>
        <time>2073-07-07T21:56:07.000Z</time>
      </trkpt>
      <trkpt lat="42.82858" lon="0.22534">
        <ele>2083</ele>
        <time>2073-07-07T21:56:12.000Z</time>
      </trkpt>
      <trkpt lat="42.82859" lon="0.22536">
        <ele>2083</ele>
        <time>2073-07-07T21:56:14.000Z</time>
      </trkpt>
      <trkpt lat="42.82862" lon="0.22551">
        <ele>2085</ele>
        <time>2073-07-07T21:56:23.000Z</time>
      </trkpt>
      <trkpt lat="42.82862" lon="0.22562">
        <ele>2086</ele>
        <time>2073-07-07T21:56:29.000Z</time>
      </trkpt>
      <trkpt lat="42.82862" lon="0.22578">
        <ele>2088</ele>
        <time>2073-07-07T21:56:38.000Z</time>
      </trkpt>
      <trkpt lat="42.82864" lon="0.22599">
        <ele>2090</ele>
        <time>2073-07-07T21:56:51.000Z</time>
      </trkpt>
      <trkpt lat="42.82865" lon="0.22609">
        <ele>2091</ele>
        <time>2073-07-07T21:56:56.000Z</time>
      </trkpt>
      <trkpt lat="42.82867" lon="0.22618">
        <ele>2092</ele>
        <time>2073-07-07T21:57:01.000Z</time>
      </trkpt>
      <trkpt lat="42.82873" lon="0.22639">
        <ele>2095</ele>
        <time>2073-07-07T21:57:10.000Z</time>
      </trkpt>
      <trkpt lat="42.82879" lon="0.22661">
        <ele>2098</ele>
        <time>2073-07-07T21:57:22.000Z</time>
      </trkpt>
      <trkpt lat="42.82881" lon="0.22671">
        <ele>2100</ele>
        <time>2073-07-07T21:57:27.000Z</time>
      </trkpt>
      <trkpt lat="42.82883" lon="0.22678">
        <ele>2101</ele>
        <time>2073-07-07T21:57:31.000Z</time>
      </trkpt>
      <trkpt lat="42.82888" lon="0.22702">
        <ele>2104</ele>
        <time>2073-07-07T21:57:43.000Z</time>
      </trkpt>
      <trkpt lat="42.8289" lon="0.22712">
        <ele>2105</ele>
        <time>2073-07-07T21:57:49.000Z</time>
      </trkpt>
      <trkpt lat="42.82889" lon="0.22733">
        <ele>2107</ele>
        <time>2073-07-07T21:58:01.000Z</time>
      </trkpt>
      <trkpt lat="42.82892" lon="0.22753">
        <ele>2109</ele>
        <time>2073-07-07T21:58:13.000Z</time>
      </trkpt>
      <trkpt lat="42.82897" lon="0.22796">
        <ele>2114</ele>
        <time>2073-07-07T21:58:37.000Z</time>
      </trkpt>
      <trkpt lat="42.82898" lon="0.22803">
        <ele>2115</ele>
        <time>2073-07-07T21:58:41.000Z</time>
      </trkpt>
      <trkpt lat="42.82901" lon="0.22811">
        <ele>2116</ele>
        <time>2073-07-07T21:58:45.000Z</time>
      </trkpt>
      <trkpt lat="42.82904" lon="0.22825">
        <ele>2117</ele>
        <time>2073-07-07T21:58:52.000Z</time>
      </trkpt>
      <trkpt lat="42.82905" lon="0.22828">
        <ele>2118</ele>
        <time>2073-07-07T21:58:53.000Z</time>
      </trkpt>
      <trkpt lat="42.82909" lon="0.22856">
        <ele>2120</ele>
        <time>2073-07-07T21:59:06.000Z</time>
      </trkpt>
      <trkpt lat="42.82911" lon="0.22867">
        <ele>2121</ele>
        <time>2073-07-07T21:59:12.000Z</time>
      </trkpt>
      <trkpt lat="42.82921" lon="0.2289">
        <ele>2123</ele>
        <time>2073-07-07T21:59:24.000Z</time>
      </trkpt>
      <trkpt lat="42.82928" lon="0.22913">
        <ele>2126</ele>
        <time>2073-07-07T21:59:37.000Z</time>
      </trkpt>
      <trkpt lat="42.82935" lon="0.22929">
        <ele>2129</ele>
        <time>2073-07-07T21:59:45.000Z</time>
      </trkpt>
      <trkpt lat="42.82944" lon="0.22944">
        <ele>2133</ele>
        <time>2073-07-07T21:59:54.000Z</time>
      </trkpt>
      <trkpt lat="42.82948" lon="0.22954">
        <ele>2135</ele>
        <time>2073-07-07T21:59:59.000Z</time>
      </trkpt>
      <trkpt lat="42.8295" lon="0.22959">
        <ele>2135</ele>
        <time>2073-07-07T22:00:02.000Z</time>
      </trkpt>
      <trkpt lat="42.8295" lon="0.22965">
        <ele>2136</ele>
        <time>2073-07-07T22:00:07.000Z</time>
      </trkpt>
      <trkpt lat="42.8296" lon="0.22988">
        <ele>2141</ele>
        <time>2073-07-07T22:00:23.000Z</time>
      </trkpt>
      <trkpt lat="42.82962" lon="0.22992">
        <ele>2142</ele>
        <time>2073-07-07T22:00:26.000Z</time>
      </trkpt>
      <trkpt lat="42.82976" lon="0.23017">
        <ele>2147</ele>
        <time>2073-07-07T22:00:44.000Z</time>
      </trkpt>
      <trkpt lat="42.82979" lon="0.23024">
        <ele>2148</ele>
        <time>2073-07-07T22:00:49.000Z</time>
      </trkpt>
      <trkpt lat="42.82991" lon="0.23047">
        <ele>2151</ele>
        <time>2073-07-07T22:01:01.000Z</time>
      </trkpt>
      <trkpt lat="42.82995" lon="0.23057">
        <ele>2152</ele>
        <time>2073-07-07T22:01:08.000Z</time>
      </trkpt>
      <trkpt lat="42.83" lon="0.23066">
        <ele>2153</ele>
        <time>2073-07-07T22:01:13.000Z</time>
      </trkpt>
      <trkpt lat="42.83004" lon="0.23073">
        <ele>2154</ele>
        <time>2073-07-07T22:01:17.000Z</time>
      </trkpt>
      <trkpt lat="42.83009" lon="0.2308">
        <ele>2155</ele>
        <time>2073-07-07T22:01:22.000Z</time>
      </trkpt>
      <trkpt lat="42.83017" lon="0.23098">
        <ele>2157</ele>
        <time>2073-07-07T22:01:34.000Z</time>
      </trkpt>
      <trkpt lat="42.83021" lon="0.23119">
        <ele>2160</ele>
        <time>2073-07-07T22:01:45.000Z</time>
      </trkpt>
      <trkpt lat="42.83028" lon="0.23141">
        <ele>2163</ele>
        <time>2073-07-07T22:01:58.000Z</time>
      </trkpt>
      <trkpt lat="42.83038" lon="0.23164">
        <ele>2168</ele>
        <time>2073-07-07T22:02:12.000Z</time>
      </trkpt>
      <trkpt lat="42.8304" lon="0.23169">
        <ele>2169</ele>
        <time>2073-07-07T22:02:14.000Z</time>
      </trkpt>
      <trkpt lat="42.83044" lon="0.23193">
        <ele>2173</ele>
        <time>2073-07-07T22:02:27.000Z</time>
      </trkpt>
      <trkpt lat="42.83045" lon="0.23198">
        <ele>2174</ele>
        <time>2073-07-07T22:02:30.000Z</time>
      </trkpt>
      <trkpt lat="42.83045" lon="0.23201">
        <ele>2174</ele>
        <time>2073-07-07T22:02:32.000Z</time>
      </trkpt>
      <trkpt lat="42.83054" lon="0.23224">
        <ele>2178</ele>
        <time>2073-07-07T22:02:48.000Z</time>
      </trkpt>
      <trkpt lat="42.83054" lon="0.23226">
        <ele>2178</ele>
        <time>2073-07-07T22:02:50.000Z</time>
      </trkpt>
      <trkpt lat="42.8306" lon="0.23239">
        <ele>2180</ele>
        <time>2073-07-07T22:02:58.000Z</time>
      </trkpt>
      <trkpt lat="42.83063" lon="0.23251">
        <ele>2181</ele>
        <time>2073-07-07T22:03:06.000Z</time>
      </trkpt>
      <trkpt lat="42.83064" lon="0.23257">
        <ele>2182</ele>
        <time>2073-07-07T22:03:10.000Z</time>
      </trkpt>
      <trkpt lat="42.83072" lon="0.23275">
        <ele>2184</ele>
        <time>2073-07-07T22:03:23.000Z</time>
      </trkpt>
      <trkpt lat="42.83077" lon="0.23293">
        <ele>2186</ele>
        <time>2073-07-07T22:03:35.000Z</time>
      </trkpt>
      <trkpt lat="42.83085" lon="0.23306">
        <ele>2187</ele>
        <time>2073-07-07T22:03:46.000Z</time>
      </trkpt>
      <trkpt lat="42.83091" lon="0.23321">
        <ele>2187</ele>
        <time>2073-07-07T22:03:57.000Z</time>
      </trkpt>
      <trkpt lat="42.83097" lon="0.23327">
        <ele>2187</ele>
        <time>2073-07-07T22:04:02.000Z</time>
      </trkpt>
      <trkpt lat="42.83101" lon="0.23334">
        <ele>2189</ele>
        <time>2073-07-07T22:04:08.000Z</time>
      </trkpt>
      <trkpt lat="42.83106" lon="0.23339">
        <ele>2190</ele>
        <time>2073-07-07T22:04:12.000Z</time>
      </trkpt>
      <trkpt lat="42.83122" lon="0.23363">
        <ele>2195</ele>
        <time>2073-07-07T22:04:29.000Z</time>
      </trkpt>
      <trkpt lat="42.83125" lon="0.23366">
        <ele>2196</ele>
        <time>2073-07-07T22:04:32.000Z</time>
      </trkpt>
      <trkpt lat="42.83135" lon="0.23392">
        <ele>2198</ele>
        <time>2073-07-07T22:04:49.000Z</time>
      </trkpt>
      <trkpt lat="42.83141" lon="0.23402">
        <ele>2200</ele>
        <time>2073-07-07T22:04:55.000Z</time>
      </trkpt>
      <trkpt lat="42.83148" lon="0.23415">
        <ele>2202</ele>
        <time>2073-07-07T22:05:05.000Z</time>
      </trkpt>
      <trkpt lat="42.83157" lon="0.23428">
        <ele>2204</ele>
        <time>2073-07-07T22:05:14.000Z</time>
      </trkpt>
      <trkpt lat="42.83171" lon="0.23451">
        <ele>2207</ele>
        <time>2073-07-07T22:05:30.000Z</time>
      </trkpt>
      <trkpt lat="42.83195" lon="0.23468">
        <ele>2209</ele>
        <time>2073-07-07T22:05:49.000Z</time>
      </trkpt>
      <trkpt lat="42.83207" lon="0.23484">
        <ele>2211</ele>
        <time>2073-07-07T22:06:00.000Z</time>
      </trkpt>
      <trkpt lat="42.83216" lon="0.23496">
        <ele>2213</ele>
        <time>2073-07-07T22:06:07.000Z</time>
      </trkpt>
      <trkpt lat="42.83225" lon="0.23513">
        <ele>2214</ele>
        <time>2073-07-07T22:06:15.000Z</time>
      </trkpt>
      <trkpt lat="42.83252" lon="0.2355">
        <ele>2212</ele>
        <time>2073-07-07T22:06:38.000Z</time>
      </trkpt>
      <trkpt lat="42.8326" lon="0.23564">
        <ele>2211</ele>
        <time>2073-07-07T22:06:47.000Z</time>
      </trkpt>
      <trkpt lat="42.83276" lon="0.23589">
        <ele>2209</ele>
        <time>2073-07-07T22:07:03.000Z</time>
      </trkpt>
      <trkpt lat="42.83278" lon="0.23594">
        <ele>2209</ele>
        <time>2073-07-07T22:07:06.000Z</time>
      </trkpt>
      <trkpt lat="42.83282" lon="0.23603">
        <ele>2209</ele>
        <time>2073-07-07T22:07:11.000Z</time>
      </trkpt>
      <trkpt lat="42.83316" lon="0.23643">
        <ele>2207</ele>
        <time>2021-11-17T10:36:07.000Z</time>
      </trkpt>
      <trkpt lat="42.83365" lon="0.23665">
        <ele>2204</ele>
        <time>2073-07-07T22:07:49.000Z</time>
      </trkpt>
      <trkpt lat="42.8338" lon="0.23671">
        <ele>2203</ele>
        <time>2073-07-07T22:07:54.000Z</time>
      </trkpt>
      <trkpt lat="42.83394" lon="0.23677">
        <ele>2202</ele>
        <time>2073-07-07T22:07:59.000Z</time>
      </trkpt>
      <trkpt lat="42.83409" lon="0.23683">
        <ele>2201</ele>
        <time>2073-07-07T22:08:04.000Z</time>
      </trkpt>
      <trkpt lat="42.83422" lon="0.23685">
        <ele>2200</ele>
        <time>2073-07-07T22:08:09.000Z</time>
      </trkpt>
      <trkpt lat="42.83436" lon="0.23689">
        <ele>2200</ele>
        <time>2073-07-07T22:08:14.000Z</time>
      </trkpt>
      <trkpt lat="42.83452" lon="0.23692">
        <ele>2200</ele>
        <time>2073-07-07T22:08:19.000Z</time>
      </trkpt>
      <trkpt lat="42.83473" lon="0.23705">
        <ele>2197</ele>
        <time>2073-07-07T22:08:26.000Z</time>
      </trkpt>
      <trkpt lat="42.83495" lon="0.23716">
        <ele>2196</ele>
        <time>2073-07-07T22:08:34.000Z</time>
      </trkpt>
      <trkpt lat="42.83514" lon="0.23726">
        <ele>2194</ele>
        <time>2073-07-07T22:08:40.000Z</time>
      </trkpt>
      <trkpt lat="42.83537" lon="0.23746">
        <ele>2192</ele>
        <time>2073-07-07T22:08:48.000Z</time>
      </trkpt>
      <trkpt lat="42.83546" lon="0.23756">
        <ele>2190</ele>
        <time>2073-07-07T22:08:51.000Z</time>
      </trkpt>
      <trkpt lat="42.83564" lon="0.23777">
        <ele>2188</ele>
        <time>2073-07-07T22:08:58.000Z</time>
      </trkpt>
      <trkpt lat="42.83579" lon="0.23804">
        <ele>2184</ele>
        <time>2073-07-07T22:09:05.000Z</time>
      </trkpt>
      <trkpt lat="42.83581" lon="0.23808">
        <ele>2184</ele>
        <time>2073-07-07T22:09:06.000Z</time>
      </trkpt>
      <trkpt lat="42.83582" lon="0.23823">
        <ele>2181</ele>
        <time>2073-07-07T22:09:10.000Z</time>
      </trkpt>
      <trkpt lat="42.83589" lon="0.23852">
        <ele>2177</ele>
        <time>2073-07-07T22:09:17.000Z</time>
      </trkpt>
      <trkpt lat="42.83586" lon="0.23897">
        <ele>2169</ele>
        <time>2073-07-07T22:09:27.000Z</time>
      </trkpt>
      <trkpt lat="42.8358" lon="0.2392">
        <ele>2165</ele>
        <time>2073-07-07T22:09:33.000Z</time>
      </trkpt>
      <trkpt lat="42.83582" lon="0.23941">
        <ele>2163</ele>
        <time>2073-07-07T22:09:39.000Z</time>
      </trkpt>
      <trkpt lat="42.83581" lon="0.23963">
        <ele>2159</ele>
        <time>2073-07-07T22:09:45.000Z</time>
      </trkpt>
      <trkpt lat="42.83583" lon="0.23985">
        <ele>2157</ele>
        <time>2073-07-07T22:09:51.000Z</time>
      </trkpt>
      <trkpt lat="42.83588" lon="0.24009">
        <ele>2156</ele>
        <time>2073-07-07T22:09:57.000Z</time>
      </trkpt>
      <trkpt lat="42.83589" lon="0.24035">
        <ele>2153</ele>
        <time>2073-07-07T22:10:04.000Z</time>
      </trkpt>
      <trkpt lat="42.83586" lon="0.24057">
        <ele>2149</ele>
        <time>2073-07-07T22:10:10.000Z</time>
      </trkpt>
      <trkpt lat="42.83587" lon="0.2408">
        <ele>2146</ele>
        <time>2073-07-07T22:10:16.000Z</time>
      </trkpt>
      <trkpt lat="42.83588" lon="0.24084">
        <ele>2146</ele>
        <time>2073-07-07T22:10:17.000Z</time>
      </trkpt>
      <trkpt lat="42.83589" lon="0.24107">
        <ele>2143</ele>
        <time>2073-07-07T22:10:23.000Z</time>
      </trkpt>
      <trkpt lat="42.83588" lon="0.24127">
        <ele>2140</ele>
        <time>2073-07-07T22:10:29.000Z</time>
      </trkpt>
      <trkpt lat="42.83587" lon="0.2415">
        <ele>2136</ele>
        <time>2073-07-07T22:10:36.000Z</time>
      </trkpt>
      <trkpt lat="42.83581" lon="0.24173">
        <ele>2130</ele>
        <time>2073-07-07T22:10:43.000Z</time>
      </trkpt>
      <trkpt lat="42.83579" lon="0.24197">
        <ele>2126</ele>
        <time>2073-07-07T22:10:49.000Z</time>
      </trkpt>
      <trkpt lat="42.83574" lon="0.24218">
        <ele>2121</ele>
        <time>2073-07-07T22:10:55.000Z</time>
      </trkpt>
      <trkpt lat="42.83571" lon="0.24243">
        <ele>2117</ele>
        <time>2073-07-07T22:11:01.000Z</time>
      </trkpt>
      <trkpt lat="42.83566" lon="0.24267">
        <ele>2113</ele>
        <time>2073-07-07T22:11:08.000Z</time>
      </trkpt>
      <trkpt lat="42.83558" lon="0.24287">
        <ele>2108</ele>
        <time>2073-07-07T22:11:14.000Z</time>
      </trkpt>
      <trkpt lat="42.8355" lon="0.24306">
        <ele>2103</ele>
        <time>2073-07-07T22:11:20.000Z</time>
      </trkpt>
      <trkpt lat="42.83542" lon="0.24326">
        <ele>2099</ele>
        <time>2073-07-07T22:11:26.000Z</time>
      </trkpt>
      <trkpt lat="42.83534" lon="0.24348">
        <ele>2094</ele>
        <time>2073-07-07T22:11:32.000Z</time>
      </trkpt>
      <trkpt lat="42.83525" lon="0.24366">
        <ele>2089</ele>
        <time>2073-07-07T22:11:37.000Z</time>
      </trkpt>
      <trkpt lat="42.83518" lon="0.24388">
        <ele>2085</ele>
        <time>2073-07-07T22:11:43.000Z</time>
      </trkpt>
      <trkpt lat="42.83512" lon="0.2441">
        <ele>2082</ele>
        <time>2073-07-07T22:11:49.000Z</time>
      </trkpt>
      <trkpt lat="42.83506" lon="0.24431">
        <ele>2078</ele>
        <time>2073-07-07T22:11:55.000Z</time>
      </trkpt>
      <trkpt lat="42.83497" lon="0.24451">
        <ele>2073</ele>
        <time>2073-07-07T22:12:01.000Z</time>
      </trkpt>
      <trkpt lat="42.83492" lon="0.24475">
        <ele>2070</ele>
        <time>2073-07-07T22:12:07.000Z</time>
      </trkpt>
      <trkpt lat="42.83487" lon="0.24499">
        <ele>2066</ele>
        <time>2073-07-07T22:12:13.000Z</time>
      </trkpt>
      <trkpt lat="42.83483" lon="0.24526">
        <ele>2062</ele>
        <time>2073-07-07T22:12:20.000Z</time>
      </trkpt>
      <trkpt lat="42.83481" lon="0.2456">
        <ele>2059</ele>
        <time>2073-07-07T22:12:43.000Z</time>
      </trkpt>
      <trkpt lat="42.83476" lon="0.24597">
        <ele>2053</ele>
        <time>2073-07-07T22:12:54.000Z</time>
      </trkpt>
      <trkpt lat="42.83479" lon="0.24657">
        <ele>2049</ele>
        <time>2073-07-07T22:13:09.000Z</time>
      </trkpt>
      <trkpt lat="42.83475" lon="0.24694">
        <ele>2044</ele>
        <time>2073-07-07T22:13:18.000Z</time>
      </trkpt>
      <trkpt lat="42.83478" lon="0.24719">
        <ele>2043</ele>
        <time>2073-07-07T22:13:24.000Z</time>
      </trkpt>
      <trkpt lat="42.8349" lon="0.24729">
        <ele>2047</ele>
        <time>2073-07-07T22:13:29.000Z</time>
      </trkpt>
      <trkpt lat="42.83499" lon="0.24734">
        <ele>2051</ele>
        <time>2073-07-07T22:13:32.000Z</time>
      </trkpt>
      <trkpt lat="42.83505" lon="0.24765">
        <ele>2051</ele>
        <time>2073-07-07T22:13:41.000Z</time>
      </trkpt>
      <trkpt lat="42.83504" lon="0.24789">
        <ele>2048</ele>
        <time>2073-07-07T22:13:47.000Z</time>
      </trkpt>
      <trkpt lat="42.83504" lon="0.24798">
        <ele>2047</ele>
        <time>2073-07-07T22:13:49.000Z</time>
      </trkpt>
      <trkpt lat="42.83494" lon="0.2484">
        <ele>2044</ele>
        <time>2073-07-07T22:14:00.000Z</time>
      </trkpt>
      <trkpt lat="42.83491" lon="0.2487">
        <ele>2043</ele>
        <time>2073-07-07T22:14:08.000Z</time>
      </trkpt>
      <trkpt lat="42.8348" lon="0.24926">
        <ele>2042</ele>
        <time>2073-07-07T22:14:23.000Z</time>
      </trkpt>
      <trkpt lat="42.83461" lon="0.25023">
        <ele>2042</ele>
        <time>2073-07-07T22:14:49.000Z</time>
      </trkpt>
      <trkpt lat="42.83426" lon="0.25094">
        <ele>2032</ele>
        <time>2073-07-07T22:15:10.000Z</time>
      </trkpt>
      <trkpt lat="42.83408" lon="0.25127">
        <ele>2028</ele>
        <time>2073-07-07T22:15:20.000Z</time>
      </trkpt>
      <trkpt lat="42.83408" lon="0.25146">
        <ele>2030</ele>
        <time>2073-07-07T22:15:28.000Z</time>
      </trkpt>
      <trkpt lat="42.8337" lon="0.25224">
        <ele>2019</ele>
        <time>2073-07-07T22:15:50.000Z</time>
      </trkpt>
      <trkpt lat="42.83345" lon="0.25282">
        <ele>2011</ele>
        <time>2021-11-17T10:36:07.000Z</time>
      </trkpt>
      <trkpt lat="42.83343" lon="0.25354">
        <ele>2015</ele>
        <time>2073-07-07T22:16:31.000Z</time>
      </trkpt>
      <trkpt lat="42.83342" lon="0.25412">
        <ele>2018</ele>
        <time>2021-11-17T10:36:07.000Z</time>
      </trkpt>
      <trkpt lat="42.83333" lon="0.25472">
        <ele>2017</ele>
        <time>2073-07-07T22:17:06.000Z</time>
      </trkpt>
      <trkpt lat="42.83333" lon="0.25502">
        <ele>2017</ele>
        <time>2073-07-07T22:17:11.000Z</time>
      </trkpt>
      <trkpt lat="42.83329" lon="0.25537">
        <ele>2014</ele>
        <time>2073-07-07T22:17:20.000Z</time>
      </trkpt>
      <trkpt lat="42.83322" lon="0.25589">
        <ele>2008</ele>
        <time>2073-07-07T22:17:33.000Z</time>
      </trkpt>
      <trkpt lat="42.83319" lon="0.25639">
        <ele>2002</ele>
        <time>2073-07-07T22:17:45.000Z</time>
      </trkpt>
      <trkpt lat="42.83319" lon="0.25655">
        <ele>2001</ele>
        <time>2073-07-07T22:17:49.000Z</time>
      </trkpt>
      <trkpt lat="42.83325" lon="0.25703">
        <ele>1997</ele>
        <time>2073-07-07T22:18:01.000Z</time>
      </trkpt>
      <trkpt lat="42.8333" lon="0.25734">
        <ele>1995</ele>
        <time>2073-07-07T22:18:09.000Z</time>
      </trkpt>
      <trkpt lat="42.83355" lon="0.25768">
        <ele>1999</ele>
        <time>2073-07-07T22:18:21.000Z</time>
      </trkpt>
      <trkpt lat="42.83366" lon="0.25817">
        <ele>1996</ele>
        <time>2073-07-07T22:18:34.000Z</time>
      </trkpt>
      <trkpt lat="42.83373" lon="0.2587">
        <ele>1993</ele>
        <time>2073-07-07T22:18:47.000Z</time>
      </trkpt>
      <trkpt lat="42.83383" lon="0.25924">
        <ele>1991</ele>
        <time>2073-07-07T22:19:01.000Z</time>
      </trkpt>
      <trkpt lat="42.83397" lon="0.25976">
        <ele>1992</ele>
        <time>2073-07-07T22:19:16.000Z</time>
      </trkpt>
      <trkpt lat="42.83409" lon="0.26032">
        <ele>1991</ele>
        <time>2073-07-07T22:19:32.000Z</time>
      </trkpt>
      <trkpt lat="42.83422" lon="0.26108">
        <ele>1990</ele>
        <time>2073-07-07T22:19:56.000Z</time>
      </trkpt>
      <trkpt lat="42.83435" lon="0.2625">
        <ele>1985</ele>
        <time>2073-07-07T22:20:38.000Z</time>
      </trkpt>
      <trkpt lat="42.83436" lon="0.26282">
        <ele>1984</ele>
        <time>2073-07-07T22:20:52.000Z</time>
      </trkpt>
      <trkpt lat="42.83436" lon="0.26295">
        <ele>1983</ele>
        <time>2073-07-07T22:20:57.000Z</time>
      </trkpt>
      <trkpt lat="42.83444" lon="0.26347">
        <ele>1982</ele>
        <time>2073-07-07T22:21:11.000Z</time>
      </trkpt>
      <trkpt lat="42.83446" lon="0.26389">
        <ele>1980</ele>
        <time>2073-07-07T22:21:22.000Z</time>
      </trkpt>
      <trkpt lat="42.83447" lon="0.26425">
        <ele>1979</ele>
        <time>2073-07-07T22:21:31.000Z</time>
      </trkpt>
      <trkpt lat="42.83454" lon="0.26474">
        <ele>1978</ele>
        <time>2073-07-07T22:21:43.000Z</time>
      </trkpt>
      <trkpt lat="42.83461" lon="0.26578">
        <ele>1974</ele>
        <time>2073-07-07T22:22:10.000Z</time>
      </trkpt>
      <trkpt lat="42.83473" lon="0.26651">
        <ele>1973</ele>
        <time>2073-07-07T22:22:29.000Z</time>
      </trkpt>
      <trkpt lat="42.83474" lon="0.26706">
        <ele>1968</ele>
        <time>2073-07-07T22:22:42.000Z</time>
      </trkpt>
      <trkpt lat="42.83471" lon="0.26727">
        <ele>1966</ele>
        <time>2073-07-07T22:22:52.000Z</time>
      </trkpt>
      <trkpt lat="42.83468" lon="0.26808">
        <ele>1955</ele>
        <time>2073-07-07T22:23:33.000Z</time>
      </trkpt>
      <trkpt lat="42.83472" lon="0.26839">
        <ele>1954</ele>
        <time>2073-07-07T22:23:44.000Z</time>
      </trkpt>
      <trkpt lat="42.83479" lon="0.26859">
        <ele>1955</ele>
        <time>2073-07-07T22:23:55.000Z</time>
      </trkpt>
      <trkpt lat="42.83481" lon="0.26885">
        <ele>1953</ele>
        <time>2073-07-07T22:24:05.000Z</time>
      </trkpt>
      <trkpt lat="42.83481" lon="0.26914">
        <ele>1951</ele>
        <time>2073-07-07T22:24:14.000Z</time>
      </trkpt>
      <trkpt lat="42.8348" lon="0.26941">
        <ele>1949</ele>
        <time>2073-07-07T22:24:21.000Z</time>
      </trkpt>
      <trkpt lat="42.83467" lon="0.26977">
        <ele>1940</ele>
        <time>2073-07-07T22:24:30.000Z</time>
      </trkpt>
      <trkpt lat="42.83462" lon="0.27011">
        <ele>1935</ele>
        <time>2073-07-07T22:24:40.000Z</time>
      </trkpt>
      <trkpt lat="42.83449" lon="0.2706">
        <ele>1927</ele>
        <time>2073-07-07T22:24:52.000Z</time>
      </trkpt>
      <trkpt lat="42.83443" lon="0.27089">
        <ele>1922</ele>
        <time>2073-07-07T22:25:00.000Z</time>
      </trkpt>
      <trkpt lat="42.83455" lon="0.27126">
        <ele>1928</ele>
        <time>2073-07-07T22:25:11.000Z</time>
      </trkpt>
      <trkpt lat="42.83459" lon="0.27157">
        <ele>1929</ele>
        <time>2073-07-07T22:25:19.000Z</time>
      </trkpt>
      <trkpt lat="42.83449" lon="0.27285">
        <ele>1919</ele>
        <time>2073-07-07T22:25:55.000Z</time>
      </trkpt>
      <trkpt lat="42.83413" lon="0.27333">
        <ele>1898</ele>
        <time>2021-11-17T10:36:07.000Z</time>
      </trkpt>
      <trkpt lat="42.83419" lon="0.27405">
        <ele>1896</ele>
        <time>2073-07-07T22:26:34.000Z</time>
      </trkpt>
      <trkpt lat="42.83454" lon="0.27549">
        <ele>1895</ele>
        <time>2073-07-07T22:27:19.000Z</time>
      </trkpt>
      <trkpt lat="42.83473" lon="0.27607">
        <ele>1899</ele>
        <time>2073-07-07T22:27:38.000Z</time>
      </trkpt>
      <trkpt lat="42.83485" lon="0.27692">
        <ele>1901</ele>
        <time>2073-07-07T22:28:01.000Z</time>
      </trkpt>
      <trkpt lat="42.83488" lon="0.27707">
        <ele>1902</ele>
        <time>2073-07-07T22:28:09.000Z</time>
      </trkpt>
      <trkpt lat="42.83493" lon="0.27726">
        <ele>1903</ele>
        <time>2073-07-07T22:28:15.000Z</time>
      </trkpt>
      <trkpt lat="42.83496" lon="0.27799">
        <ele>1904</ele>
        <time>2073-07-07T22:28:35.000Z</time>
      </trkpt>
      <trkpt lat="42.83505" lon="0.27835">
        <ele>1907</ele>
        <time>2073-07-07T22:28:45.000Z</time>
      </trkpt>
      <trkpt lat="42.83515" lon="0.2788">
        <ele>1908</ele>
        <time>2073-07-07T22:28:56.000Z</time>
      </trkpt>
      <trkpt lat="42.83521" lon="0.27927">
        <ele>1902</ele>
        <time>2073-07-07T22:29:08.000Z</time>
      </trkpt>
      <trkpt lat="42.83524" lon="0.27971">
        <ele>1894</ele>
        <time>2073-07-07T22:29:19.000Z</time>
      </trkpt>
      <trkpt lat="42.83531" lon="0.28011">
        <ele>1886</ele>
        <time>2073-07-07T22:29:29.000Z</time>
      </trkpt>
      <trkpt lat="42.83539" lon="0.28048">
        <ele>1879</ele>
        <time>2073-07-07T22:29:38.000Z</time>
      </trkpt>
      <trkpt lat="42.83547" lon="0.28079">
        <ele>1875</ele>
        <time>2073-07-07T22:29:45.000Z</time>
      </trkpt>
      <trkpt lat="42.83552" lon="0.28108">
        <ele>1870</ele>
        <time>2073-07-07T22:29:51.000Z</time>
      </trkpt>
      <trkpt lat="42.83564" lon="0.28138">
        <ele>1868</ele>
        <time>2073-07-07T22:29:58.000Z</time>
      </trkpt>
      <trkpt lat="42.83577" lon="0.28169">
        <ele>1867</ele>
        <time>2073-07-07T22:30:06.000Z</time>
      </trkpt>
      <trkpt lat="42.83586" lon="0.28193">
        <ele>1867</ele>
        <time>2073-07-07T22:30:12.000Z</time>
      </trkpt>
      <trkpt lat="42.83595" lon="0.28213">
        <ele>1866</ele>
        <time>2073-07-07T22:30:17.000Z</time>
      </trkpt>
      <trkpt lat="42.83603" lon="0.28229">
        <ele>1864</ele>
        <time>2073-07-07T22:30:21.000Z</time>
      </trkpt>
      <trkpt lat="42.83607" lon="0.28245">
        <ele>1861</ele>
        <time>2073-07-07T22:30:25.000Z</time>
      </trkpt>
      <trkpt lat="42.83614" lon="0.2826">
        <ele>1859</ele>
        <time>2073-07-07T22:30:29.000Z</time>
      </trkpt>
      <trkpt lat="42.8362" lon="0.28275">
        <ele>1856</ele>
        <time>2073-07-07T22:30:33.000Z</time>
      </trkpt>
      <trkpt lat="42.83626" lon="0.28291">
        <ele>1854</ele>
        <time>2073-07-07T22:30:37.000Z</time>
      </trkpt>
      <trkpt lat="42.8363" lon="0.28298">
        <ele>1853</ele>
        <time>2073-07-07T22:30:39.000Z</time>
      </trkpt>
      <trkpt lat="42.83638" lon="0.28314">
        <ele>1850</ele>
        <time>2073-07-07T22:30:43.000Z</time>
      </trkpt>
      <trkpt lat="42.83646" lon="0.28329">
        <ele>1848</ele>
        <time>2073-07-07T22:30:47.000Z</time>
      </trkpt>
      <trkpt lat="42.83653" lon="0.28343">
        <ele>1845</ele>
        <time>2073-07-07T22:30:51.000Z</time>
      </trkpt>
      <trkpt lat="42.83659" lon="0.28359">
        <ele>1843</ele>
        <time>2073-07-07T22:30:55.000Z</time>
      </trkpt>
      <trkpt lat="42.83665" lon="0.28373">
        <ele>1840</ele>
        <time>2073-07-07T22:30:59.000Z</time>
      </trkpt>
      <trkpt lat="42.83671" lon="0.28388">
        <ele>1838</ele>
        <time>2073-07-07T22:31:03.000Z</time>
      </trkpt>
      <trkpt lat="42.83676" lon="0.28404">
        <ele>1835</ele>
        <time>2073-07-07T22:31:07.000Z</time>
      </trkpt>
      <trkpt lat="42.83681" lon="0.2842">
        <ele>1832</ele>
        <time>2073-07-07T22:31:11.000Z</time>
      </trkpt>
      <trkpt lat="42.83689" lon="0.28433">
        <ele>1828</ele>
        <time>2073-07-07T22:31:15.000Z</time>
      </trkpt>
      <trkpt lat="42.83694" lon="0.28445">
        <ele>1825</ele>
        <time>2073-07-07T22:31:19.000Z</time>
      </trkpt>
      <trkpt lat="42.837" lon="0.28458">
        <ele>1822</ele>
        <time>2073-07-07T22:31:23.000Z</time>
      </trkpt>
      <trkpt lat="42.83706" lon="0.28472">
        <ele>1818</ele>
        <time>2073-07-07T22:31:28.000Z</time>
      </trkpt>
      <trkpt lat="42.83711" lon="0.28488">
        <ele>1815</ele>
        <time>2073-07-07T22:31:32.000Z</time>
      </trkpt>
      <trkpt lat="42.83716" lon="0.28503">
        <ele>1811</ele>
        <time>2073-07-07T22:31:36.000Z</time>
      </trkpt>
      <trkpt lat="42.83721" lon="0.28515">
        <ele>1809</ele>
        <time>2073-07-07T22:31:40.000Z</time>
      </trkpt>
      <trkpt lat="42.83729" lon="0.28532">
        <ele>1805</ele>
        <time>2073-07-07T22:31:45.000Z</time>
      </trkpt>
      <trkpt lat="42.83736" lon="0.28547">
        <ele>1802</ele>
        <time>2073-07-07T22:31:49.000Z</time>
      </trkpt>
      <trkpt lat="42.83742" lon="0.28562">
        <ele>1799</ele>
        <time>2073-07-07T22:31:53.000Z</time>
      </trkpt>
      <trkpt lat="42.8375" lon="0.28578">
        <ele>1796</ele>
        <time>2073-07-07T22:31:57.000Z</time>
      </trkpt>
      <trkpt lat="42.83756" lon="0.28593">
        <ele>1793</ele>
        <time>2073-07-07T22:32:01.000Z</time>
      </trkpt>
      <trkpt lat="42.83763" lon="0.28613">
        <ele>1789</ele>
        <time>2073-07-07T22:32:06.000Z</time>
      </trkpt>
      <trkpt lat="42.83772" lon="0.28629">
        <ele>1785</ele>
        <time>2073-07-07T22:32:11.000Z</time>
      </trkpt>
      <trkpt lat="42.83779" lon="0.28645">
        <ele>1781</ele>
        <time>2073-07-07T22:32:16.000Z</time>
      </trkpt>
      <trkpt lat="42.83786" lon="0.28662">
        <ele>1776</ele>
        <time>2073-07-07T22:32:20.000Z</time>
      </trkpt>
      <trkpt lat="42.8379" lon="0.28681">
        <ele>1772</ele>
        <time>2073-07-07T22:32:25.000Z</time>
      </trkpt>
      <trkpt lat="42.8379" lon="0.28701">
        <ele>1769</ele>
        <time>2073-07-07T22:32:29.000Z</time>
      </trkpt>
      <trkpt lat="42.83792" lon="0.28722">
        <ele>1765</ele>
        <time>2073-07-07T22:32:34.000Z</time>
      </trkpt>
      <trkpt lat="42.83796" lon="0.28741">
        <ele>1760</ele>
        <time>2073-07-07T22:32:39.000Z</time>
      </trkpt>
      <trkpt lat="42.83802" lon="0.28758">
        <ele>1756</ele>
        <time>2073-07-07T22:32:44.000Z</time>
      </trkpt>
      <trkpt lat="42.83805" lon="0.28775">
        <ele>1752</ele>
        <time>2073-07-07T22:32:48.000Z</time>
      </trkpt>
      <trkpt lat="42.83808" lon="0.28792">
        <ele>1748</ele>
        <time>2073-07-07T22:32:52.000Z</time>
      </trkpt>
      <trkpt lat="42.8381" lon="0.28809">
        <ele>1744</ele>
        <time>2073-07-07T22:32:56.000Z</time>
      </trkpt>
      <trkpt lat="42.83809" lon="0.28823">
        <ele>1740</ele>
        <time>2073-07-07T22:33:00.000Z</time>
      </trkpt>
      <trkpt lat="42.8381" lon="0.28836">
        <ele>1737</ele>
        <time>2073-07-07T22:33:04.000Z</time>
      </trkpt>
      <trkpt lat="42.83811" lon="0.2885">
        <ele>1734</ele>
        <time>2073-07-07T22:33:08.000Z</time>
      </trkpt>
      <trkpt lat="42.83813" lon="0.28863">
        <ele>1730</ele>
        <time>2073-07-07T22:33:12.000Z</time>
      </trkpt>
      <trkpt lat="42.83814" lon="0.28877">
        <ele>1727</ele>
        <time>2073-07-07T22:33:16.000Z</time>
      </trkpt>
      <trkpt lat="42.83812" lon="0.2889">
        <ele>1723</ele>
        <time>2073-07-07T22:33:20.000Z</time>
      </trkpt>
      <trkpt lat="42.83811" lon="0.28905">
        <ele>1720</ele>
        <time>2073-07-07T22:33:25.000Z</time>
      </trkpt>
      <trkpt lat="42.83809" lon="0.2892">
        <ele>1716</ele>
        <time>2073-07-07T22:33:29.000Z</time>
      </trkpt>
      <trkpt lat="42.8381" lon="0.28933">
        <ele>1712</ele>
        <time>2073-07-07T22:33:33.000Z</time>
      </trkpt>
      <trkpt lat="42.83812" lon="0.28951">
        <ele>1708</ele>
        <time>2073-07-07T22:33:37.000Z</time>
      </trkpt>
      <trkpt lat="42.83809" lon="0.28967">
        <ele>1704</ele>
        <time>2073-07-07T22:33:41.000Z</time>
      </trkpt>
      <trkpt lat="42.83806" lon="0.28985">
        <ele>1700</ele>
        <time>2073-07-07T22:33:45.000Z</time>
      </trkpt>
      <trkpt lat="42.838" lon="0.29">
        <ele>1697</ele>
        <time>2073-07-07T22:33:49.000Z</time>
      </trkpt>
      <trkpt lat="42.83797" lon="0.29014">
        <ele>1694</ele>
        <time>2073-07-07T22:33:53.000Z</time>
      </trkpt>
      <trkpt lat="42.83795" lon="0.29028">
        <ele>1691</ele>
        <time>2073-07-07T22:33:57.000Z</time>
      </trkpt>
      <trkpt lat="42.8379" lon="0.29043">
        <ele>1687</ele>
        <time>2073-07-07T22:34:01.000Z</time>
      </trkpt>
      <trkpt lat="42.83786" lon="0.29058">
        <ele>1684</ele>
        <time>2073-07-07T22:34:05.000Z</time>
      </trkpt>
      <trkpt lat="42.83783" lon="0.29075">
        <ele>1681</ele>
        <time>2073-07-07T22:34:09.000Z</time>
      </trkpt>
      <trkpt lat="42.83781" lon="0.29092">
        <ele>1679</ele>
        <time>2073-07-07T22:34:13.000Z</time>
      </trkpt>
      <trkpt lat="42.83782" lon="0.29111">
        <ele>1676</ele>
        <time>2073-07-07T22:34:17.000Z</time>
      </trkpt>
      <trkpt lat="42.8378" lon="0.29133">
        <ele>1672</ele>
        <time>2073-07-07T22:34:22.000Z</time>
      </trkpt>
      <trkpt lat="42.83784" lon="0.29156">
        <ele>1669</ele>
        <time>2073-07-07T22:34:27.000Z</time>
      </trkpt>
      <trkpt lat="42.83785" lon="0.29169">
        <ele>1668</ele>
        <time>2073-07-07T22:34:31.000Z</time>
      </trkpt>
      <trkpt lat="42.83788" lon="0.29196">
        <ele>1665</ele>
        <time>2073-07-07T22:34:39.000Z</time>
      </trkpt>
      <trkpt lat="42.83793" lon="0.29226">
        <ele>1662</ele>
        <time>2073-07-07T22:34:46.000Z</time>
      </trkpt>
      <trkpt lat="42.83803" lon="0.29258">
        <ele>1659</ele>
        <time>2073-07-07T22:34:54.000Z</time>
      </trkpt>
      <trkpt lat="42.83813" lon="0.29297">
        <ele>1656</ele>
        <time>2073-07-07T22:35:03.000Z</time>
      </trkpt>
      <trkpt lat="42.83819" lon="0.29331">
        <ele>1653</ele>
        <time>2073-07-07T22:35:10.000Z</time>
      </trkpt>
      <trkpt lat="42.83826" lon="0.29358">
        <ele>1650</ele>
        <time>2073-07-07T22:35:16.000Z</time>
      </trkpt>
      <trkpt lat="42.83832" lon="0.29385">
        <ele>1648</ele>
        <time>2073-07-07T22:35:22.000Z</time>
      </trkpt>
      <trkpt lat="42.83834" lon="0.29414">
        <ele>1645</ele>
        <time>2073-07-07T22:35:28.000Z</time>
      </trkpt>
      <trkpt lat="42.83842" lon="0.2944">
        <ele>1643</ele>
        <time>2073-07-07T22:35:34.000Z</time>
      </trkpt>
      <trkpt lat="42.83845" lon="0.29472">
        <ele>1640</ele>
        <time>2073-07-07T22:35:41.000Z</time>
      </trkpt>
      <trkpt lat="42.83846" lon="0.29503">
        <ele>1636</ele>
        <time>2073-07-07T22:35:47.000Z</time>
      </trkpt>
      <trkpt lat="42.83853" lon="0.29531">
        <ele>1632</ele>
        <time>2073-07-07T22:35:53.000Z</time>
      </trkpt>
      <trkpt lat="42.83865" lon="0.29566">
        <ele>1626</ele>
        <time>2073-07-07T22:36:01.000Z</time>
      </trkpt>
      <trkpt lat="42.83889" lon="0.2963">
        <ele>1618</ele>
        <time>2073-07-07T22:36:17.000Z</time>
      </trkpt>
      <trkpt lat="42.83887" lon="0.29667">
        <ele>1616</ele>
        <time>2073-07-07T22:36:25.000Z</time>
      </trkpt>
      <trkpt lat="42.83883" lon="0.297">
        <ele>1616</ele>
        <time>2073-07-07T22:36:32.000Z</time>
      </trkpt>
      <trkpt lat="42.83872" lon="0.29726">
        <ele>1615</ele>
        <time>2073-07-07T22:36:38.000Z</time>
      </trkpt>
      <trkpt lat="42.83855" lon="0.29765">
        <ele>1615</ele>
        <time>2073-07-07T22:36:48.000Z</time>
      </trkpt>
      <trkpt lat="42.83824" lon="0.2982">
        <ele>1607</ele>
        <time>2073-07-07T22:37:04.000Z</time>
      </trkpt>
      <trkpt lat="42.83818" lon="0.29887">
        <ele>1603</ele>
        <time>2021-11-17T10:36:07.000Z</time>
      </trkpt>
      <trkpt lat="42.83799" lon="0.29911">
        <ele>1594</ele>
        <time>2073-07-07T22:37:33.000Z</time>
      </trkpt>
      <trkpt lat="42.83783" lon="0.29917">
        <ele>1589</ele>
        <time>2073-07-07T22:37:39.000Z</time>
      </trkpt>
      <trkpt lat="42.83775" lon="0.29921">
        <ele>1585</ele>
        <time>2073-07-07T22:37:44.000Z</time>
      </trkpt>
      <trkpt lat="42.83771" lon="0.29937">
        <ele>1582</ele>
        <time>2073-07-07T22:37:49.000Z</time>
      </trkpt>
      <trkpt lat="42.8377" lon="0.29953">
        <ele>1581</ele>
        <time>2073-07-07T22:37:53.000Z</time>
      </trkpt>
      <trkpt lat="42.83769" lon="0.29975">
        <ele>1578</ele>
        <time>2073-07-07T22:37:58.000Z</time>
      </trkpt>
      <trkpt lat="42.83764" lon="0.3">
        <ele>1576</ele>
        <time>2073-07-07T22:38:03.000Z</time>
      </trkpt>
      <trkpt lat="42.83761" lon="0.30026">
        <ele>1574</ele>
        <time>2073-07-07T22:38:08.000Z</time>
      </trkpt>
      <trkpt lat="42.83754" lon="0.30054">
        <ele>1569</ele>
        <time>2073-07-07T22:38:14.000Z</time>
      </trkpt>
      <trkpt lat="42.83747" lon="0.30085">
        <ele>1566</ele>
        <time>2073-07-07T22:38:21.000Z</time>
      </trkpt>
      <trkpt lat="42.83746" lon="0.30089">
        <ele>1566</ele>
        <time>2073-07-07T22:38:22.000Z</time>
      </trkpt>
      <trkpt lat="42.83743" lon="0.3009">
        <ele>1564</ele>
        <time>2073-07-07T22:38:27.000Z</time>
      </trkpt>
      <trkpt lat="42.83733" lon="0.30083">
        <ele>1559</ele>
        <time>2073-07-07T22:38:33.000Z</time>
      </trkpt>
      <trkpt lat="42.83725" lon="0.3008">
        <ele>1554</ele>
        <time>2073-07-07T22:38:37.000Z</time>
      </trkpt>
      <trkpt lat="42.83718" lon="0.30075">
        <ele>1551</ele>
        <time>2073-07-07T22:38:40.000Z</time>
      </trkpt>
      <trkpt lat="42.83712" lon="0.30071">
        <ele>1547</ele>
        <time>2073-07-07T22:38:43.000Z</time>
      </trkpt>
      <trkpt lat="42.83706" lon="0.30069">
        <ele>1544</ele>
        <time>2073-07-07T22:38:46.000Z</time>
      </trkpt>
      <trkpt lat="42.837" lon="0.30066">
        <ele>1541</ele>
        <time>2073-07-07T22:38:49.000Z</time>
      </trkpt>
      <trkpt lat="42.83694" lon="0.30058">
        <ele>1537</ele>
        <time>2073-07-07T22:38:53.000Z</time>
      </trkpt>
      <trkpt lat="42.83689" lon="0.30048">
        <ele>1535</ele>
        <time>2073-07-07T22:38:57.000Z</time>
      </trkpt>
      <trkpt lat="42.83683" lon="0.30036">
        <ele>1532</ele>
        <time>2073-07-07T22:39:01.000Z</time>
      </trkpt>
      <trkpt lat="42.83682" lon="0.30034">
        <ele>1532</ele>
        <time>2073-07-07T22:39:02.000Z</time>
      </trkpt>
      <trkpt lat="42.83674" lon="0.30038">
        <ele>1528</ele>
        <time>2073-07-07T22:39:06.000Z</time>
      </trkpt>
      <trkpt lat="42.83668" lon="0.30047">
        <ele>1524</ele>
        <time>2073-07-07T22:39:09.000Z</time>
      </trkpt>
      <trkpt lat="42.83661" lon="0.30062">
        <ele>1520</ele>
        <time>2073-07-07T22:39:13.000Z</time>
      </trkpt>
      <trkpt lat="42.83653" lon="0.3007">
        <ele>1516</ele>
        <time>2073-07-07T22:39:16.000Z</time>
      </trkpt>
      <trkpt lat="42.83644" lon="0.30057">
        <ele>1511</ele>
        <time>2073-07-07T22:39:20.000Z</time>
      </trkpt>
      <trkpt lat="42.83638" lon="0.30039">
        <ele>1509</ele>
        <time>2073-07-07T22:39:24.000Z</time>
      </trkpt>
      <trkpt lat="42.83633" lon="0.30022">
        <ele>1507</ele>
        <time>2073-07-07T22:39:28.000Z</time>
      </trkpt>
      <trkpt lat="42.83626" lon="0.30007">
        <ele>1504</ele>
        <time>2073-07-07T22:39:32.000Z</time>
      </trkpt>
      <trkpt lat="42.8362" lon="0.29992">
        <ele>1502</ele>
        <time>2073-07-07T22:39:36.000Z</time>
      </trkpt>
      <trkpt lat="42.83608" lon="0.29976">
        <ele>1497</ele>
        <time>2073-07-07T22:39:41.000Z</time>
      </trkpt>
      <trkpt lat="42.83595" lon="0.29962">
        <ele>1491</ele>
        <time>2073-07-07T22:39:46.000Z</time>
      </trkpt>
      <trkpt lat="42.83585" lon="0.29949">
        <ele>1487</ele>
        <time>2073-07-07T22:39:50.000Z</time>
      </trkpt>
      <trkpt lat="42.83579" lon="0.29933">
        <ele>1486</ele>
        <time>2073-07-07T22:39:54.000Z</time>
      </trkpt>
      <trkpt lat="42.83578" lon="0.29917">
        <ele>1487</ele>
        <time>2073-07-07T22:39:58.000Z</time>
      </trkpt>
      <trkpt lat="42.83577" lon="0.29902">
        <ele>1488</ele>
        <time>2073-07-07T22:40:02.000Z</time>
      </trkpt>
      <trkpt lat="42.83573" lon="0.29886">
        <ele>1488</ele>
        <time>2073-07-07T22:40:06.000Z</time>
      </trkpt>
      <trkpt lat="42.83568" lon="0.29871">
        <ele>1488</ele>
        <time>2073-07-07T22:40:10.000Z</time>
      </trkpt>
      <trkpt lat="42.83563" lon="0.29852">
        <ele>1488</ele>
        <time>2073-07-07T22:40:15.000Z</time>
      </trkpt>
      <trkpt lat="42.83554" lon="0.29833">
        <ele>1486</ele>
        <time>2073-07-07T22:40:21.000Z</time>
      </trkpt>
      <trkpt lat="42.83548" lon="0.29829">
        <ele>1484</ele>
        <time>2073-07-07T22:40:23.000Z</time>
      </trkpt>
      <trkpt lat="42.8353" lon="0.2982">
        <ele>1478</ele>
        <time>2073-07-07T22:40:29.000Z</time>
      </trkpt>
      <trkpt lat="42.83507" lon="0.29815">
        <ele>1470</ele>
        <time>2073-07-07T22:40:35.000Z</time>
      </trkpt>
      <trkpt lat="42.83479" lon="0.29809">
        <ele>1461</ele>
        <time>2073-07-07T22:40:43.000Z</time>
      </trkpt>
      <trkpt lat="42.83457" lon="0.29801">
        <ele>1454</ele>
        <time>2073-07-07T22:40:49.000Z</time>
      </trkpt>
      <trkpt lat="42.83445" lon="0.29794">
        <ele>1450</ele>
        <time>2073-07-07T22:40:53.000Z</time>
      </trkpt>
      <trkpt lat="42.83435" lon="0.29786">
        <ele>1447</ele>
        <time>2073-07-07T22:40:57.000Z</time>
      </trkpt>
      <trkpt lat="42.83424" lon="0.29777">
        <ele>1444</ele>
        <time>2073-07-07T22:41:01.000Z</time>
      </trkpt>
      <trkpt lat="42.83412" lon="0.29767">
        <ele>1440</ele>
        <time>2073-07-07T22:41:05.000Z</time>
      </trkpt>
      <trkpt lat="42.83399" lon="0.29762">
        <ele>1435</ele>
        <time>2073-07-07T22:41:09.000Z</time>
      </trkpt>
      <trkpt lat="42.83387" lon="0.29759">
        <ele>1429</ele>
        <time>2073-07-07T22:41:13.000Z</time>
      </trkpt>
      <trkpt lat="42.83375" lon="0.29757">
        <ele>1424</ele>
        <time>2073-07-07T22:41:17.000Z</time>
      </trkpt>
      <trkpt lat="42.83364" lon="0.29753">
        <ele>1420</ele>
        <time>2073-07-07T22:41:21.000Z</time>
      </trkpt>
      <trkpt lat="42.83353" lon="0.29745">
        <ele>1415</ele>
        <time>2073-07-07T22:41:25.000Z</time>
      </trkpt>
      <trkpt lat="42.83341" lon="0.29739">
        <ele>1410</ele>
        <time>2073-07-07T22:41:29.000Z</time>
      </trkpt>
      <trkpt lat="42.83332" lon="0.29736">
        <ele>1407</ele>
        <time>2073-07-07T22:41:32.000Z</time>
      </trkpt>
      <trkpt lat="42.83326" lon="0.29729">
        <ele>1404</ele>
        <time>2073-07-07T22:41:35.000Z</time>
      </trkpt>
      <trkpt lat="42.83319" lon="0.29722">
        <ele>1402</ele>
        <time>2073-07-07T22:41:38.000Z</time>
      </trkpt>
      <trkpt lat="42.83312" lon="0.29714">
        <ele>1400</ele>
        <time>2073-07-07T22:41:41.000Z</time>
      </trkpt>
      <trkpt lat="42.83306" lon="0.29706">
        <ele>1397</ele>
        <time>2073-07-07T22:41:44.000Z</time>
      </trkpt>
      <trkpt lat="42.83297" lon="0.29699">
        <ele>1394</ele>
        <time>2073-07-07T22:41:47.000Z</time>
      </trkpt>
      <trkpt lat="42.8329" lon="0.29694">
        <ele>1391</ele>
        <time>2073-07-07T22:41:50.000Z</time>
      </trkpt>
      <trkpt lat="42.83285" lon="0.29686">
        <ele>1390</ele>
        <time>2073-07-07T22:41:53.000Z</time>
      </trkpt>
      <trkpt lat="42.8328" lon="0.29676">
        <ele>1388</ele>
        <time>2073-07-07T22:41:56.000Z</time>
      </trkpt>
      <trkpt lat="42.83276" lon="0.29666">
        <ele>1387</ele>
        <time>2073-07-07T22:41:59.000Z</time>
      </trkpt>
      <trkpt lat="42.83273" lon="0.29654">
        <ele>1386</ele>
        <time>2073-07-07T22:42:02.000Z</time>
      </trkpt>
      <trkpt lat="42.83269" lon="0.29639">
        <ele>1386</ele>
        <time>2073-07-07T22:42:06.000Z</time>
      </trkpt>
      <trkpt lat="42.83266" lon="0.29621">
        <ele>1385</ele>
        <time>2073-07-07T22:42:10.000Z</time>
      </trkpt>
      <trkpt lat="42.83262" lon="0.29606">
        <ele>1384</ele>
        <time>2073-07-07T22:42:14.000Z</time>
      </trkpt>
      <trkpt lat="42.83258" lon="0.29588">
        <ele>1383</ele>
        <time>2073-07-07T22:42:18.000Z</time>
      </trkpt>
      <trkpt lat="42.83253" lon="0.2957">
        <ele>1381</ele>
        <time>2073-07-07T22:42:22.000Z</time>
      </trkpt>
      <trkpt lat="42.83243" lon="0.29548">
        <ele>1378</ele>
        <time>2073-07-07T22:42:27.000Z</time>
      </trkpt>
      <trkpt lat="42.83238" lon="0.29521">
        <ele>1378</ele>
        <time>2073-07-07T22:42:33.000Z</time>
      </trkpt>
      <trkpt lat="42.83236" lon="0.29494">
        <ele>1379</ele>
        <time>2073-07-07T22:42:39.000Z</time>
      </trkpt>
      <trkpt lat="42.83232" lon="0.29463">
        <ele>1381</ele>
        <time>2073-07-07T22:42:46.000Z</time>
      </trkpt>
      <trkpt lat="42.83231" lon="0.29441">
        <ele>1384</ele>
        <time>2073-07-07T22:42:51.000Z</time>
      </trkpt>
      <trkpt lat="42.83217" lon="0.29428">
        <ele>1381</ele>
        <time>2073-07-07T22:42:57.000Z</time>
      </trkpt>
      <trkpt lat="42.83197" lon="0.29418">
        <ele>1377</ele>
        <time>2073-07-07T22:43:04.000Z</time>
      </trkpt>
      <trkpt lat="42.83178" lon="0.29416">
        <ele>1371</ele>
        <time>2073-07-07T22:43:11.000Z</time>
      </trkpt>
      <trkpt lat="42.83164" lon="0.29414">
        <ele>1365</ele>
        <time>2073-07-07T22:43:16.000Z</time>
      </trkpt>
      <trkpt lat="42.83151" lon="0.29417">
        <ele>1359</ele>
        <time>2073-07-07T22:43:20.000Z</time>
      </trkpt>
      <trkpt lat="42.83137" lon="0.2942">
        <ele>1351</ele>
        <time>2073-07-07T22:43:24.000Z</time>
      </trkpt>
      <trkpt lat="42.83126" lon="0.29425">
        <ele>1344</ele>
        <time>2073-07-07T22:43:27.000Z</time>
      </trkpt>
      <trkpt lat="42.83111" lon="0.29426">
        <ele>1337</ele>
        <time>2073-07-07T22:43:31.000Z</time>
      </trkpt>
      <trkpt lat="42.83096" lon="0.29425">
        <ele>1330</ele>
        <time>2073-07-07T22:43:35.000Z</time>
      </trkpt>
      <trkpt lat="42.83077" lon="0.29423">
        <ele>1324</ele>
        <time>2073-07-07T22:43:41.000Z</time>
      </trkpt>
      <trkpt lat="42.83063" lon="0.29427">
        <ele>1318</ele>
        <time>2073-07-07T22:43:45.000Z</time>
      </trkpt>
      <trkpt lat="42.83051" lon="0.29426">
        <ele>1314</ele>
        <time>2073-07-07T22:43:49.000Z</time>
      </trkpt>
      <trkpt lat="42.83054" lon="0.29432">
        <ele>1312</ele>
        <time>2073-07-07T22:43:51.000Z</time>
      </trkpt>
      <trkpt lat="42.83065" lon="0.29446">
        <ele>1311</ele>
        <time>2073-07-07T22:43:56.000Z</time>
      </trkpt>
      <trkpt lat="42.83076" lon="0.29458">
        <ele>1309</ele>
        <time>2073-07-07T22:44:00.000Z</time>
      </trkpt>
      <trkpt lat="42.83086" lon="0.29468">
        <ele>1306</ele>
        <time>2073-07-07T22:44:04.000Z</time>
      </trkpt>
      <trkpt lat="42.83094" lon="0.29481">
        <ele>1303</ele>
        <time>2073-07-07T22:44:08.000Z</time>
      </trkpt>
      <trkpt lat="42.83101" lon="0.29498">
        <ele>1304</ele>
        <time>2073-07-07T22:44:12.000Z</time>
      </trkpt>
      <trkpt lat="42.83102" lon="0.29528">
        <ele>1300</ele>
        <time>2073-07-07T22:44:18.000Z</time>
      </trkpt>
      <trkpt lat="42.83098" lon="0.29562">
        <ele>1292</ele>
        <time>2073-07-07T22:44:25.000Z</time>
      </trkpt>
      <trkpt lat="42.83098" lon="0.29608">
        <ele>1288</ele>
        <time>2073-07-07T22:44:35.000Z</time>
      </trkpt>
      <trkpt lat="42.83102" lon="0.29659">
        <ele>1284</ele>
        <time>2073-07-07T22:44:47.000Z</time>
      </trkpt>
      <trkpt lat="42.831" lon="0.29695">
        <ele>1279</ele>
        <time>2073-07-07T22:45:05.000Z</time>
      </trkpt>
      <trkpt lat="42.83099" lon="0.29695">
        <ele>1279</ele>
        <time>2073-07-07T22:45:10.000Z</time>
      </trkpt>
      <trkpt lat="42.83093" lon="0.29705">
        <ele>1275</ele>
        <time>2073-07-07T22:45:15.000Z</time>
      </trkpt>
      <trkpt lat="42.8309" lon="0.29742">
        <ele>1269</ele>
        <time>2073-07-07T22:45:23.000Z</time>
      </trkpt>
      <trkpt lat="42.83087" lon="0.29779">
        <ele>1263</ele>
        <time>2073-07-07T22:45:31.000Z</time>
      </trkpt>
      <trkpt lat="42.83086" lon="0.29818">
        <ele>1258</ele>
        <time>2073-07-07T22:45:39.000Z</time>
      </trkpt>
      <trkpt lat="42.83084" lon="0.29855">
        <ele>1253</ele>
        <time>2073-07-07T22:45:47.000Z</time>
      </trkpt>
      <trkpt lat="42.83082" lon="0.29891">
        <ele>1247</ele>
        <time>2073-07-07T22:45:55.000Z</time>
      </trkpt>
      <trkpt lat="42.83085" lon="0.29924">
        <ele>1245</ele>
        <time>2073-07-07T22:46:03.000Z</time>
      </trkpt>
      <trkpt lat="42.83089" lon="0.29957">
        <ele>1243</ele>
        <time>2073-07-07T22:46:10.000Z</time>
      </trkpt>
      <trkpt lat="42.83093" lon="0.29994">
        <ele>1240</ele>
        <time>2073-07-07T22:46:18.000Z</time>
      </trkpt>
      <trkpt lat="42.83098" lon="0.30036">
        <ele>1238</ele>
        <time>2073-07-07T22:46:27.000Z</time>
      </trkpt>
      <trkpt lat="42.831" lon="0.30072">
        <ele>1235</ele>
        <time>2073-07-07T22:46:35.000Z</time>
      </trkpt>
      <trkpt lat="42.83104" lon="0.30105">
        <ele>1233</ele>
        <time>2073-07-07T22:46:43.000Z</time>
      </trkpt>
      <trkpt lat="42.83119" lon="0.30138">
        <ele>1239</ele>
        <time>2073-07-07T22:46:51.000Z</time>
      </trkpt>
      <trkpt lat="42.83122" lon="0.30153">
        <ele>1239</ele>
        <time>2073-07-07T22:46:55.000Z</time>
      </trkpt>
      <trkpt lat="42.83122" lon="0.30155">
        <ele>1239</ele>
        <time>2073-07-07T22:46:56.000Z</time>
      </trkpt>
      <trkpt lat="42.83113" lon="0.30142">
        <ele>1234</ele>
        <time>2073-07-07T22:47:02.000Z</time>
      </trkpt>
      <trkpt lat="42.83082" lon="0.30095">
        <ele>1222</ele>
        <time>2073-07-07T22:47:18.000Z</time>
      </trkpt>
      <trkpt lat="42.8307" lon="0.30057">
        <ele>1221</ele>
        <time>2073-07-07T22:47:30.000Z</time>
      </trkpt>
      <trkpt lat="42.83055" lon="0.30019">
        <ele>1219</ele>
        <time>2073-07-07T22:47:42.000Z</time>
      </trkpt>
      <trkpt lat="42.83038" lon="0.29979">
        <ele>1215</ele>
        <time>2073-07-07T22:47:54.000Z</time>
      </trkpt>
      <trkpt lat="42.83021" lon="0.29939">
        <ele>1213</ele>
        <time>2073-07-07T22:48:05.000Z</time>
      </trkpt>
      <trkpt lat="42.83009" lon="0.29904">
        <ele>1211</ele>
        <time>2073-07-07T22:48:14.000Z</time>
      </trkpt>
      <trkpt lat="42.83003" lon="0.29858">
        <ele>1214</ele>
        <time>2073-07-07T22:48:24.000Z</time>
      </trkpt>
      <trkpt lat="42.82995" lon="0.2982">
        <ele>1215</ele>
        <time>2073-07-07T22:48:32.000Z</time>
      </trkpt>
      <trkpt lat="42.82989" lon="0.29794">
        <ele>1215</ele>
        <time>2073-07-07T22:48:38.000Z</time>
      </trkpt>
      <trkpt lat="42.82986" lon="0.29824">
        <ele>1209</ele>
        <time>2073-07-07T22:48:46.000Z</time>
      </trkpt>
      <trkpt lat="42.82983" lon="0.2984">
        <ele>1205</ele>
        <time>2073-07-07T22:48:50.000Z</time>
      </trkpt>
      <trkpt lat="42.82981" lon="0.29848">
        <ele>1202</ele>
        <time>2073-07-07T22:48:52.000Z</time>
      </trkpt>
      <trkpt lat="42.82974" lon="0.29882">
        <ele>1194</ele>
        <time>2073-07-07T22:49:01.000Z</time>
      </trkpt>
      <trkpt lat="42.82973" lon="0.29887">
        <ele>1192</ele>
        <time>2073-07-07T22:49:14.000Z</time>
      </trkpt>
      <trkpt lat="42.82974" lon="0.299">
        <ele>1191</ele>
        <time>2073-07-07T22:49:20.000Z</time>
      </trkpt>
      <trkpt lat="42.82979" lon="0.2994">
        <ele>1190</ele>
        <time>2073-07-07T22:49:37.000Z</time>
      </trkpt>
      <trkpt lat="42.82982" lon="0.29961">
        <ele>1189</ele>
        <time>2073-07-07T22:49:48.000Z</time>
      </trkpt>
      <trkpt lat="42.82984" lon="0.29972">
        <ele>1188</ele>
        <time>2073-07-07T22:49:54.000Z</time>
      </trkpt>
      <trkpt lat="42.82985" lon="0.3001">
        <ele>1184</ele>
        <time>2073-07-07T22:50:06.000Z</time>
      </trkpt>
      <trkpt lat="42.82991" lon="0.30041">
        <ele>1183</ele>
        <time>2073-07-07T22:50:14.000Z</time>
      </trkpt>
      <trkpt lat="42.82993" lon="0.30075">
        <ele>1179</ele>
        <time>2073-07-07T22:50:23.000Z</time>
      </trkpt>
      <trkpt lat="42.82994" lon="0.3011">
        <ele>1175</ele>
        <time>2073-07-07T22:50:32.000Z</time>
      </trkpt>
      <trkpt lat="42.82997" lon="0.3014">
        <ele>1172</ele>
        <time>2073-07-07T22:50:47.000Z</time>
      </trkpt>
      <trkpt lat="42.82999" lon="0.30171">
        <ele>1168</ele>
        <time>2073-07-07T22:51:00.000Z</time>
      </trkpt>
      <trkpt lat="42.83002" lon="0.30187">
        <ele>1167</ele>
        <time>2073-07-07T22:51:07.000Z</time>
      </trkpt>
      <trkpt lat="42.82997" lon="0.30194">
        <ele>1163</ele>
        <time>2073-07-07T22:51:13.000Z</time>
      </trkpt>
      <trkpt lat="42.82986" lon="0.30175">
        <ele>1160</ele>
        <time>2073-07-07T22:51:20.000Z</time>
      </trkpt>
      <trkpt lat="42.82974" lon="0.3014">
        <ele>1159</ele>
        <time>2073-07-07T22:51:30.000Z</time>
      </trkpt>
      <trkpt lat="42.82966" lon="0.30094">
        <ele>1162</ele>
        <time>2073-07-07T22:51:42.000Z</time>
      </trkpt>
      <trkpt lat="42.82955" lon="0.30057">
        <ele>1161</ele>
        <time>2073-07-07T22:51:52.000Z</time>
      </trkpt>
      <trkpt lat="42.82942" lon="0.3003">
        <ele>1158</ele>
        <time>2073-07-07T22:51:59.000Z</time>
      </trkpt>
      <trkpt lat="42.82928" lon="0.3">
        <ele>1155</ele>
        <time>2073-07-07T22:52:07.000Z</time>
      </trkpt>
      <trkpt lat="42.82916" lon="0.29968">
        <ele>1158</ele>
        <time>2073-07-07T22:52:16.000Z</time>
      </trkpt>
      <trkpt lat="42.82916" lon="0.29973">
        <ele>1157</ele>
        <time>2073-07-07T22:52:32.000Z</time>
      </trkpt>
      <trkpt lat="42.82918" lon="0.29984">
        <ele>1156</ele>
        <time>2073-07-07T22:52:39.000Z</time>
      </trkpt>
      <trkpt lat="42.82918" lon="0.29993">
        <ele>1155</ele>
        <time>2073-07-07T22:52:44.000Z</time>
      </trkpt>
      <trkpt lat="42.82919" lon="0.30003">
        <ele>1154</ele>
        <time>2073-07-07T22:52:50.000Z</time>
      </trkpt>
      <trkpt lat="42.82919" lon="0.30006">
        <ele>1154</ele>
        <time>2073-07-07T22:52:51.000Z</time>
      </trkpt>
      <trkpt lat="42.82919" lon="0.3001">
        <ele>1153</ele>
        <time>2073-07-07T22:52:53.000Z</time>
      </trkpt>
      <trkpt lat="42.82921" lon="0.30022">
        <ele>1152</ele>
        <time>2073-07-07T22:52:59.000Z</time>
      </trkpt>
      <trkpt lat="42.82923" lon="0.30027">
        <ele>1151</ele>
        <time>2073-07-07T22:53:03.000Z</time>
      </trkpt>
      <trkpt lat="42.82923" lon="0.3006">
        <ele>1147</ele>
        <time>2073-07-07T22:53:15.000Z</time>
      </trkpt>
      <trkpt lat="42.82918" lon="0.3009">
        <ele>1142</ele>
        <time>2073-07-07T22:53:24.000Z</time>
      </trkpt>
      <trkpt lat="42.82914" lon="0.30118">
        <ele>1137</ele>
        <time>2073-07-07T22:53:32.000Z</time>
      </trkpt>
      <trkpt lat="42.82907" lon="0.30148">
        <ele>1132</ele>
        <time>2073-07-07T22:53:40.000Z</time>
      </trkpt>
      <trkpt lat="42.82903" lon="0.30174">
        <ele>1126</ele>
        <time>2073-07-07T22:53:51.000Z</time>
      </trkpt>
      <trkpt lat="42.82903" lon="0.302">
        <ele>1121</ele>
        <time>2073-07-07T22:54:02.000Z</time>
      </trkpt>
      <trkpt lat="42.82903" lon="0.30207">
        <ele>1120</ele>
        <time>2073-07-07T22:54:08.000Z</time>
      </trkpt>
      <trkpt lat="42.82912" lon="0.3022">
        <ele>1118</ele>
        <time>2073-07-07T22:54:17.000Z</time>
      </trkpt>
      <trkpt lat="42.82912" lon="0.30246">
        <ele>1114</ele>
        <time>2073-07-07T22:54:38.000Z</time>
      </trkpt>
      <trkpt lat="42.82902" lon="0.30269">
        <ele>1108</ele>
        <time>2073-07-07T22:54:46.000Z</time>
      </trkpt>
      <trkpt lat="42.82893" lon="0.30293">
        <ele>1103</ele>
        <time>2073-07-07T22:54:53.000Z</time>
      </trkpt>
      <trkpt lat="42.82885" lon="0.30318">
        <ele>1097</ele>
        <time>2073-07-07T22:55:00.000Z</time>
      </trkpt>
      <trkpt lat="42.82885" lon="0.30327">
        <ele>1096</ele>
        <time>2073-07-07T22:55:02.000Z</time>
      </trkpt>
      <trkpt lat="42.82892" lon="0.30341">
        <ele>1095</ele>
        <time>2073-07-07T22:55:06.000Z</time>
      </trkpt>
      <trkpt lat="42.82904" lon="0.30356">
        <ele>1096</ele>
        <time>2073-07-07T22:55:12.000Z</time>
      </trkpt>
      <trkpt lat="42.82901" lon="0.30369">
        <ele>1093</ele>
        <time>2073-07-07T22:55:16.000Z</time>
      </trkpt>
      <trkpt lat="42.82893" lon="0.30398">
        <ele>1086</ele>
        <time>2073-07-07T22:55:24.000Z</time>
      </trkpt>
      <trkpt lat="42.82891" lon="0.30403">
        <ele>1084</ele>
        <time>2073-07-07T22:55:26.000Z</time>
      </trkpt>
      <trkpt lat="42.82891" lon="0.3038">
        <ele>1089</ele>
        <time>2073-07-07T22:55:34.000Z</time>
      </trkpt>
      <trkpt lat="42.82876" lon="0.30361">
        <ele>1088</ele>
        <time>2073-07-07T22:55:42.000Z</time>
      </trkpt>
      <trkpt lat="42.82869" lon="0.30325">
        <ele>1093</ele>
        <time>2073-07-07T22:55:51.000Z</time>
      </trkpt>
      <trkpt lat="42.82855" lon="0.30315">
        <ele>1092</ele>
        <time>2021-11-17T10:36:07.000Z</time>
      </trkpt>
      <trkpt lat="42.82853" lon="0.30333">
        <ele>1088</ele>
        <time>2073-07-07T22:56:00.000Z</time>
      </trkpt>
      <trkpt lat="42.82852" lon="0.30337">
        <ele>1087</ele>
        <time>2073-07-07T22:56:01.000Z</time>
      </trkpt>
      <trkpt lat="42.82842" lon="0.30363">
        <ele>1082</ele>
        <time>2073-07-07T22:56:08.000Z</time>
      </trkpt>
      <trkpt lat="42.82828" lon="0.30379">
        <ele>1083</ele>
        <time>2073-07-07T22:56:13.000Z</time>
      </trkpt>
      <trkpt lat="42.82814" lon="0.30395">
        <ele>1083</ele>
        <time>2073-07-07T22:56:20.000Z</time>
      </trkpt>
      <trkpt lat="42.82808" lon="0.30415">
        <ele>1080</ele>
        <time>2073-07-07T22:56:25.000Z</time>
      </trkpt>
      <trkpt lat="42.82809" lon="0.30449">
        <ele>1070</ele>
        <time>2073-07-07T22:56:33.000Z</time>
      </trkpt>
      <trkpt lat="42.82811" lon="0.30493">
        <ele>1059</ele>
        <time>2073-07-07T22:56:44.000Z</time>
      </trkpt>
      <trkpt lat="42.82812" lon="0.30497">
        <ele>1058</ele>
        <time>2073-07-07T22:56:45.000Z</time>
      </trkpt>
      <trkpt lat="42.82814" lon="0.30539">
        <ele>1048</ele>
        <time>2073-07-07T22:56:54.000Z</time>
      </trkpt>
      <trkpt lat="42.82812" lon="0.30558">
        <ele>1045</ele>
        <time>2073-07-07T22:56:58.000Z</time>
      </trkpt>
      <trkpt lat="42.82813" lon="0.30575">
        <ele>1041</ele>
        <time>2073-07-07T22:57:03.000Z</time>
      </trkpt>
      <trkpt lat="42.82812" lon="0.30594">
        <ele>1037</ele>
        <time>2073-07-07T22:57:08.000Z</time>
      </trkpt>
      <trkpt lat="42.8281" lon="0.30613">
        <ele>1034</ele>
        <time>2073-07-07T22:57:13.000Z</time>
      </trkpt>
      <trkpt lat="42.82808" lon="0.30629">
        <ele>1031</ele>
        <time>2073-07-07T22:57:18.000Z</time>
      </trkpt>
      <trkpt lat="42.82808" lon="0.30645">
        <ele>1028</ele>
        <time>2073-07-07T22:57:23.000Z</time>
      </trkpt>
      <trkpt lat="42.82809" lon="0.3066">
        <ele>1023</ele>
        <time>2073-07-07T22:57:28.000Z</time>
      </trkpt>
      <trkpt lat="42.82811" lon="0.30677">
        <ele>1018</ele>
        <time>2073-07-07T22:57:32.000Z</time>
      </trkpt>
      <trkpt lat="42.82808" lon="0.30695">
        <ele>1015</ele>
        <time>2073-07-07T22:57:37.000Z</time>
      </trkpt>
      <trkpt lat="42.82804" lon="0.30711">
        <ele>1012</ele>
        <time>2073-07-07T22:57:41.000Z</time>
      </trkpt>
      <trkpt lat="42.82801" lon="0.30728">
        <ele>1009</ele>
        <time>2073-07-07T22:57:45.000Z</time>
      </trkpt>
      <trkpt lat="42.82797" lon="0.30744">
        <ele>1007</ele>
        <time>2073-07-07T22:57:49.000Z</time>
      </trkpt>
      <trkpt lat="42.82792" lon="0.3076">
        <ele>1005</ele>
        <time>2073-07-07T22:57:53.000Z</time>
      </trkpt>
      <trkpt lat="42.82789" lon="0.30778">
        <ele>1003</ele>
        <time>2073-07-07T22:57:57.000Z</time>
      </trkpt>
      <trkpt lat="42.82787" lon="0.30795">
        <ele>999</ele>
        <time>2073-07-07T22:58:01.000Z</time>
      </trkpt>
      <trkpt lat="42.82789" lon="0.30812">
        <ele>994</ele>
        <time>2073-07-07T22:58:05.000Z</time>
      </trkpt>
      <trkpt lat="42.82791" lon="0.30831">
        <ele>989</ele>
        <time>2073-07-07T22:58:10.000Z</time>
      </trkpt>
      <trkpt lat="42.82789" lon="0.30848">
        <ele>986</ele>
        <time>2073-07-07T22:58:14.000Z</time>
      </trkpt>
      <trkpt lat="42.82785" lon="0.30867">
        <ele>983</ele>
        <time>2073-07-07T22:58:19.000Z</time>
      </trkpt>
      <trkpt lat="42.82781" lon="0.30883">
        <ele>981</ele>
        <time>2073-07-07T22:58:23.000Z</time>
      </trkpt>
      <trkpt lat="42.82779" lon="0.30899">
        <ele>978</ele>
        <time>2073-07-07T22:58:27.000Z</time>
      </trkpt>
      <trkpt lat="42.8278" lon="0.30914">
        <ele>974</ele>
        <time>2073-07-07T22:58:31.000Z</time>
      </trkpt>
      <trkpt lat="42.8278" lon="0.30931">
        <ele>970</ele>
        <time>2073-07-07T22:58:35.000Z</time>
      </trkpt>
      <trkpt lat="42.82781" lon="0.30949">
        <ele>966</ele>
        <time>2073-07-07T22:58:39.000Z</time>
      </trkpt>
      <trkpt lat="42.82779" lon="0.30965">
        <ele>963</ele>
        <time>2073-07-07T22:58:43.000Z</time>
      </trkpt>
      <trkpt lat="42.82776" lon="0.30985">
        <ele>958</ele>
        <time>2073-07-07T22:58:48.000Z</time>
      </trkpt>
      <trkpt lat="42.8277" lon="0.31003">
        <ele>953</ele>
        <time>2073-07-07T22:58:53.000Z</time>
      </trkpt>
      <trkpt lat="42.82766" lon="0.31021">
        <ele>947</ele>
        <time>2073-07-07T22:58:57.000Z</time>
      </trkpt>
      <trkpt lat="42.82763" lon="0.31044">
        <ele>941</ele>
        <time>2073-07-07T22:59:02.000Z</time>
      </trkpt>
      <trkpt lat="42.82756" lon="0.31067">
        <ele>934</ele>
        <time>2073-07-07T22:59:08.000Z</time>
      </trkpt>
      <trkpt lat="42.82752" lon="0.3109">
        <ele>924</ele>
        <time>2073-07-07T22:59:14.000Z</time>
      </trkpt>
      <trkpt lat="42.8275" lon="0.3111">
        <ele>914</ele>
        <time>2073-07-07T22:59:19.000Z</time>
      </trkpt>
      <trkpt lat="42.82751" lon="0.3113">
        <ele>903</ele>
        <time>2073-07-07T22:59:24.000Z</time>
      </trkpt>
      <trkpt lat="42.82751" lon="0.31146">
        <ele>896</ele>
        <time>2073-07-07T22:59:28.000Z</time>
      </trkpt>
      <trkpt lat="42.82748" lon="0.31162">
        <ele>891</ele>
        <time>2073-07-07T22:59:32.000Z</time>
      </trkpt>
      <trkpt lat="42.82743" lon="0.3118">
        <ele>885</ele>
        <time>2073-07-07T22:59:36.000Z</time>
      </trkpt>
      <trkpt lat="42.82727" lon="0.31192">
        <ele>882</ele>
        <time>2073-07-07T22:59:41.000Z</time>
      </trkpt>
      <trkpt lat="42.82706" lon="0.31205">
        <ele>877</ele>
        <time>2073-07-07T22:59:48.000Z</time>
      </trkpt>
      <trkpt lat="42.82684" lon="0.31219">
        <ele>871</ele>
        <time>2073-07-07T22:59:55.000Z</time>
      </trkpt>
      <trkpt lat="42.82665" lon="0.31233">
        <ele>865</ele>
        <time>2073-07-07T23:00:02.000Z</time>
      </trkpt>
      <trkpt lat="42.82643" lon="0.31243">
        <ele>861</ele>
        <time>2073-07-07T23:00:09.000Z</time>
      </trkpt>
      <trkpt lat="42.82636" lon="0.31244">
        <ele>861</ele>
        <time>2073-07-07T23:00:12.000Z</time>
      </trkpt>
      <trkpt lat="42.82627" lon="0.31253">
        <ele>858</ele>
        <time>2073-07-07T23:00:17.000Z</time>
      </trkpt>
      <trkpt lat="42.82616" lon="0.31258">
        <ele>856</ele>
        <time>2073-07-07T23:00:22.000Z</time>
      </trkpt>
      <trkpt lat="42.8261" lon="0.31269">
        <ele>852</ele>
        <time>2073-07-07T23:00:27.000Z</time>
      </trkpt>
      <trkpt lat="42.82603" lon="0.31279">
        <ele>848</ele>
        <time>2073-07-07T23:00:31.000Z</time>
      </trkpt>
      <trkpt lat="42.82596" lon="0.31289">
        <ele>845</ele>
        <time>2073-07-07T23:00:35.000Z</time>
      </trkpt>
      <trkpt lat="42.82588" lon="0.313">
        <ele>840</ele>
        <time>2073-07-07T23:00:39.000Z</time>
      </trkpt>
      <trkpt lat="42.82578" lon="0.31308">
        <ele>837</ele>
        <time>2073-07-07T23:00:43.000Z</time>
      </trkpt>
      <trkpt lat="42.82566" lon="0.31315">
        <ele>834</ele>
        <time>2073-07-07T23:00:48.000Z</time>
      </trkpt>
      <trkpt lat="42.82556" lon="0.31321">
        <ele>832</ele>
        <time>2073-07-07T23:00:52.000Z</time>
      </trkpt>
      <trkpt lat="42.82546" lon="0.31327">
        <ele>830</ele>
        <time>2073-07-07T23:00:55.000Z</time>
      </trkpt>
      <trkpt lat="42.82535" lon="0.31335">
        <ele>827</ele>
        <time>2073-07-07T23:01:00.000Z</time>
      </trkpt>
      <trkpt lat="42.82524" lon="0.31345">
        <ele>825</ele>
        <time>2073-07-07T23:01:05.000Z</time>
      </trkpt>
      <trkpt lat="42.82513" lon="0.31352">
        <ele>823</ele>
        <time>2073-07-07T23:01:10.000Z</time>
      </trkpt>
      <trkpt lat="42.82504" lon="0.31361">
        <ele>821</ele>
        <time>2073-07-07T23:01:15.000Z</time>
      </trkpt>
      <trkpt lat="42.82493" lon="0.31371">
        <ele>819</ele>
        <time>2073-07-07T23:01:20.000Z</time>
      </trkpt>
      <trkpt lat="42.82483" lon="0.31379">
        <ele>818</ele>
        <time>2073-07-07T23:01:24.000Z</time>
      </trkpt>
      <trkpt lat="42.82469" lon="0.31385">
        <ele>817</ele>
        <time>2073-07-07T23:01:29.000Z</time>
      </trkpt>
      <trkpt lat="42.82454" lon="0.31387">
        <ele>816</ele>
        <time>2073-07-07T23:01:34.000Z</time>
      </trkpt>
      <trkpt lat="42.82437" lon="0.31386">
        <ele>815</ele>
        <time>2073-07-07T23:01:40.000Z</time>
      </trkpt>
      <trkpt lat="42.82429" lon="0.31385">
        <ele>815</ele>
        <time>2073-07-07T23:01:43.000Z</time>
      </trkpt>
      <trkpt lat="42.8243" lon="0.31397">
        <ele>815</ele>
        <time>2073-07-07T23:01:51.000Z</time>
      </trkpt>
      <trkpt lat="42.82422" lon="0.31396">
        <ele>814</ele>
        <time>2073-07-07T23:01:53.000Z</time>
      </trkpt>
      <trkpt lat="42.82416" lon="0.31395">
        <ele>814</ele>
        <time>2073-07-07T23:01:55.000Z</time>
      </trkpt>
      <trkpt lat="42.82391" lon="0.31395">
        <ele>814</ele>
        <time>2073-07-07T23:02:02.000Z</time>
      </trkpt>
      <trkpt lat="42.82372" lon="0.314">
        <ele>813</ele>
        <time>2073-07-07T23:02:08.000Z</time>
      </trkpt>
      <trkpt lat="42.82362" lon="0.31422">
        <ele>811</ele>
        <time>2073-07-07T23:02:13.000Z</time>
      </trkpt>
      <trkpt lat="42.82353" lon="0.31448">
        <ele>808</ele>
        <time>2073-07-07T23:02:19.000Z</time>
      </trkpt>
      <trkpt lat="42.82348" lon="0.31469">
        <ele>805</ele>
        <time>2073-07-07T23:02:24.000Z</time>
      </trkpt>
      <trkpt lat="42.82348" lon="0.31496">
        <ele>804</ele>
        <time>2073-07-07T23:02:30.000Z</time>
      </trkpt>
      <trkpt lat="42.82348" lon="0.31528">
        <ele>802</ele>
        <time>2073-07-07T23:02:37.000Z</time>
      </trkpt>
      <trkpt lat="42.82353" lon="0.31568">
        <ele>801</ele>
        <time>2073-07-07T23:02:46.000Z</time>
      </trkpt>
      <trkpt lat="42.82364" lon="0.31604">
        <ele>801</ele>
        <time>2073-07-07T23:02:55.000Z</time>
      </trkpt>
      <trkpt lat="42.82367" lon="0.31608">
        <ele>801</ele>
        <time>2073-07-07T23:02:56.000Z</time>
      </trkpt>
      <trkpt lat="42.82461" lon="0.31689">
        <ele>802</ele>
        <time>2073-07-07T23:03:33.000Z</time>
      </trkpt>
      <trkpt lat="42.82501" lon="0.31731">
        <ele>801</ele>
        <time>2021-11-17T10:36:07.000Z</time>
      </trkpt>
      <trkpt lat="42.82556" lon="0.31766">
        <ele>801</ele>
        <time>2073-07-07T23:04:15.000Z</time>
      </trkpt>
      <trkpt lat="42.82574" lon="0.31785">
        <ele>801</ele>
        <time>2073-07-07T23:04:18.000Z</time>
      </trkpt>
      <trkpt lat="42.8256" lon="0.31865">
        <ele>800</ele>
        <time>2073-07-07T23:04:36.000Z</time>
      </trkpt>
      <trkpt lat="42.82533" lon="0.31953">
        <ele>800</ele>
        <time>2073-07-07T23:04:57.000Z</time>
      </trkpt>
      <trkpt lat="42.82506" lon="0.32022">
        <ele>800</ele>
        <time>2073-07-07T23:05:13.000Z</time>
      </trkpt>
      <trkpt lat="42.82473" lon="0.32089">
        <ele>800</ele>
        <time>2073-07-07T23:05:30.000Z</time>
      </trkpt>
      <trkpt lat="42.8238" lon="0.32278">
        <ele>800</ele>
        <time>2073-07-07T23:06:24.000Z</time>
      </trkpt>
      <trkpt lat="42.82368" lon="0.32308">
        <ele>800</ele>
        <time>2073-07-07T23:06:33.000Z</time>
      </trkpt>
      <trkpt lat="42.82382" lon="0.32313">
        <ele>800</ele>
        <time>2073-07-07T23:06:41.000Z</time>
      </trkpt>
      <trkpt lat="42.8249" lon="0.32406">
        <ele>800</ele>
        <time>2073-07-07T23:07:23.000Z</time>
      </trkpt>
      <trkpt lat="42.8252" lon="0.32458">
        <ele>799</ele>
        <time>2021-11-17T10:36:07.000Z</time>
      </trkpt>
      <trkpt lat="42.82547" lon="0.3254">
        <ele>799</ele>
        <time>2073-07-07T23:07:58.000Z</time>
      </trkpt>
      <trkpt lat="42.82563" lon="0.32584">
        <ele>799</ele>
        <time>2073-07-07T23:08:10.000Z</time>
      </trkpt>
      <trkpt lat="42.82613" lon="0.32658">
        <ele>798</ele>
        <time>2021-11-17T10:36:07.000Z</time>
      </trkpt>
      <trkpt lat="42.82646" lon="0.32679">
        <ele>797</ele>
        <time>2073-07-07T23:08:44.000Z</time>
      </trkpt>
      <trkpt lat="42.82776" lon="0.32736">
        <ele>795</ele>
        <time>2073-07-07T23:09:27.000Z</time>
      </trkpt>
      <trkpt lat="42.82898" lon="0.32813">
        <ele>793</ele>
        <time>2073-07-07T23:10:08.000Z</time>
      </trkpt>
      <trkpt lat="42.82956" lon="0.3284">
        <ele>792</ele>
        <time>2073-07-07T23:10:28.000Z</time>
      </trkpt>
      <trkpt lat="42.82966" lon="0.32826">
        <ele>792</ele>
        <time>2073-07-07T23:10:33.000Z</time>
      </trkpt>
      <trkpt lat="42.82977" lon="0.32757">
        <ele>792</ele>
        <time>2073-07-07T23:10:47.000Z</time>
      </trkpt>
      <trkpt lat="42.82981" lon="0.32731">
        <ele>793</ele>
        <time>2073-07-07T23:10:52.000Z</time>
      </trkpt>
      <trkpt lat="42.82983" lon="0.32718">
        <ele>793</ele>
        <time>2073-07-07T23:11:01.000Z</time>
        <extensions>
          <visugpx:TrkExtension xmlns:visugpx="https://www.visugpx.com/editgpx/">
            <visugpx:node>1</visugpx:node>
            </visugpx:TrkExtension>
        </extensions>
      </trkpt>
    </trkseg>
  </trk>
</gpx>